Air Quality Table

TIMESTAMP NO2 SO2 O3 PM10 PM2.5 CO TEMP HUM AIRPRES WS WD NO BENZENE
2021-08-02 15:00 26.63 ug/m3 0.29 ug/m3 92.37 ug/m3 59.34 ug/m3 17.74 ug/m3 0.4 mg/m3 33.29 C 51.1 % 1,012.51 mbar 3.32 m/s 62.83 Deg 16.65 ug/m3 1.89 ug/m3
2021-08-02 14:00 29.37 ug/m3 0.32 ug/m3 90.18 ug/m3 51.4 ug/m3 27.04 ug/m3 0.47 mg/m3 34 C 51.26 % 1,012.59 mbar 2.85 m/s 51.38 Deg 19.83 ug/m3 1.65 ug/m3
2021-08-02 13:00 32.75 ug/m3 0.31 ug/m3 97.69 ug/m3 57.89 ug/m3 28 ug/m3 0.41 mg/m3 32.98 C 54.37 % 1,012.84 mbar 2.62 m/s 50.32 Deg 18.38 ug/m3 3.22 ug/m3
2021-08-02 12:00 29.64 ug/m3 0.3 ug/m3 93.82 ug/m3 50.98 ug/m3 15.01 ug/m3 0.39 mg/m3 31.65 C 59.15 % 1,012.89 mbar 2.89 m/s 57.55 Deg 19.47 ug/m3 1.6 ug/m3
2021-08-02 11:00 30.94 ug/m3 0.35 ug/m3 84.95 ug/m3 49.78 ug/m3 24.31 ug/m3 0.4 mg/m3 31.95 C 55.52 % 1,012.75 mbar 2.8 m/s 52.23 Deg 22.55 ug/m3 2.68 ug/m3
2021-08-02 10:00 33.68 ug/m3 0.35 ug/m3 75.76 ug/m3 78.39 ug/m3 42.94 ug/m3 0.41 mg/m3 31.39 C 57.85 % 1,012.58 mbar 2.39 m/s 56.3 Deg 26.48 ug/m3 1.94 ug/m3
2021-08-02 09:00 38.03 ug/m3 0.45 ug/m3 65.14 ug/m3 110.07 ug/m3 40.02 ug/m3 0.47 mg/m3 30.99 C 62.01 % 1,012.44 mbar 2.01 m/s 54.13 Deg 26.36 ug/m3 2.44 ug/m3
2021-08-02 08:00 41.88 ug/m3 0.43 ug/m3 52.85 ug/m3 127.47 ug/m3 36.01 ug/m3 0.52 mg/m3 30.67 C 63.51 % 1,012.27 mbar 0.88 m/s 176.77 Deg 23.8 ug/m3 3.65 ug/m3
2021-08-02 07:00 61.13 ug/m3 0.49 ug/m3 30.66 ug/m3 94.89 ug/m3 25.41 ug/m3 0.51 mg/m3 30.09 C 58.82 % 1,011.95 mbar 1.07 m/s 266.7 Deg 18.7 ug/m3 6.56 ug/m3
2021-08-02 06:00 79.63 ug/m3 1.35 ug/m3 6.52 ug/m3 75.11 ug/m3 19.04 ug/m3 0.64 mg/m3 29.91 C 47.71 % 1,011.56 mbar 0.75 m/s 322.13 Deg 73.75 ug/m3 8.24 ug/m3
2021-08-02 05:00 52.81 ug/m3 0.64 ug/m3 26.97 ug/m3 45.53 ug/m3 14.71 ug/m3 0.48 mg/m3 29.75 C 48.42 % 1,011.27 mbar 0.6 m/s 162 Deg 27.8 ug/m3 2.33 ug/m3
2021-08-02 04:00 19.81 ug/m3 0.22 ug/m3 66.98 ug/m3 40.83 ug/m3 10.86 ug/m3 0.2 mg/m3 30.63 C 43.06 % 1,011.08 mbar 0.8 m/s 255.65 Deg 1.7 ug/m3 1.94 ug/m3
2021-08-02 03:00 18.37 ug/m3 0.12 ug/m3 58.84 ug/m3 31.04 ug/m3 8.44 ug/m3 0.15 mg/m3 30.72 C 47.05 % 1,011.08 mbar 0.72 m/s 248.13 Deg 0.85 ug/m3 1.21 ug/m3
2021-08-02 02:00 17.53 ug/m3 0.09 ug/m3 75.92 ug/m3 33.79 ug/m3 14.38 ug/m3 0.24 mg/m3 30.91 C 45.32 % 1,011.35 mbar 0.44 m/s 259.81 Deg 0.49 ug/m3 0.86 ug/m3
2021-08-02 01:00 16.08 ug/m3 0.06 ug/m3 84.87 ug/m3 52.95 ug/m3 23.26 ug/m3 0.22 mg/m3 30.5 C 50.61 % 1,011.46 mbar 0.84 m/s 324.57 Deg 0.73 ug/m3 0.58 ug/m3
2021-08-02 00:00 10.06 ug/m3 0.05 ug/m3 73.5 ug/m3 70.2 ug/m3 32.82 ug/m3 0.22 mg/m3 29.74 C 66.59 % 1,011.69 mbar 1.33 m/s 313.98 Deg 0.56 ug/m3 2.45 ug/m3
2021-08-01 23:00 20.24 ug/m3 0.12 ug/m3 55.56 ug/m3 68.91 ug/m3 28.57 ug/m3 0.35 mg/m3 30.49 C 61.94 % 1,011.96 mbar 0.96 m/s 326.12 Deg 4.38 ug/m3 2.24 ug/m3
2021-08-01 22:00 51.19 ug/m3 0.32 ug/m3 50.34 ug/m3 100.44 ug/m3 31.38 ug/m3 0.43 mg/m3 31.33 C 47.2 % 1,012.12 mbar 1.18 m/s 239.68 Deg 11.7 ug/m3 4.69 ug/m3
2021-08-01 21:00 69.88 ug/m3 0.93 ug/m3 11.1 ug/m3 107.44 ug/m3 31.09 ug/m3 0.97 mg/m3 30.93 C 56.46 % 1,011.89 mbar 1.26 m/s 61.42 Deg 45.91 ug/m3 7.93 ug/m3
2021-08-01 20:00 85.78 ug/m3 1.15 ug/m3 7.34 ug/m3 90.11 ug/m3 23.08 ug/m3 1.47 mg/m3 31.03 C 59.64 % 1,011.49 mbar 1.44 m/s 58.1 Deg 68.29 ug/m3 9.5 ug/m3
2021-08-01 19:00 62.86 ug/m3 0.61 ug/m3 40.09 ug/m3 107.23 ug/m3 28.07 ug/m3 1.08 mg/m3 32.19 C 49.9 % 1,011.07 mbar 1.71 m/s 54.43 Deg 30.09 ug/m3 4.55 ug/m3
2021-08-01 18:00 36.18 ug/m3 0.32 ug/m3 61.65 ug/m3 67.01 ug/m3 17.28 ug/m3 0.52 mg/m3 32.59 C 53.82 % 1,010.96 mbar 2.01 m/s 125.92 Deg 16.33 ug/m3 1.19 ug/m3
2021-08-01 17:00 12.7 ug/m3 0.12 ug/m3 79.49 ug/m3 56.49 ug/m3 22.27 ug/m3 0.16 mg/m3 37.34 C 17.35 % 1,010.87 mbar 2.04 m/s 199.9 Deg 2.37 ug/m3 0.52 ug/m3
2021-08-01 16:00 13.32 ug/m3 0.13 ug/m3 86.55 ug/m3 69.55 ug/m3 19.42 ug/m3 0.3 mg/m3 37 C 23.14 % 1,010.96 mbar 2.17 m/s 166.73 Deg 5.94 ug/m3 1.42 ug/m3
2021-08-01 15:00 19.86 ug/m3 0.15 ug/m3 104.34 ug/m3 61.58 ug/m3 18.14 ug/m3 0.34 mg/m3 35.41 C 37.14 % 1,011.02 mbar 2.3 m/s 47.38 Deg 8.17 ug/m3 1.05 ug/m3
2021-08-01 14:00 13.56 ug/m3 0.15 ug/m3 98.2 ug/m3 43.58 ug/m3 21.37 ug/m3 0.24 mg/m3 36.88 C 27.56 % 1,011.20 mbar 2.04 m/s 149.35 Deg 6.3 ug/m3 0.56 ug/m3
2021-08-01 13:00 16.48 ug/m3 0.12 ug/m3 91.97 ug/m3 35.45 ug/m3 15.33 ug/m3 0.22 mg/m3 37.47 C 21.14 % 1,011.35 mbar 1.82 m/s 174.13 Deg 4.34 ug/m3 0.79 ug/m3
2021-08-01 12:00 25.92 ug/m3 0.24 ug/m3 94.09 ug/m3 47.37 ug/m3 16.53 ug/m3 0.37 mg/m3 35.92 C 27.11 % 1,011.65 mbar 1.6 m/s 217.62 Deg 10.51 ug/m3 3.23 ug/m3
2021-08-01 11:00 29.19 ug/m3 0.35 ug/m3 87.06 ug/m3 61.67 ug/m3 26.73 ug/m3 0.48 mg/m3 33.58 C 38.87 % 1,011.71 mbar 2.32 m/s 124.47 Deg 11.71 ug/m3 2.81 ug/m3
2021-08-01 10:00 35.39 ug/m3 0.36 ug/m3 72.13 ug/m3 81.17 ug/m3 25.85 ug/m3 0.52 mg/m3 32.57 C 49.18 % 1,011.52 mbar 2.87 m/s 48.42 Deg 16.15 ug/m3 3.99 ug/m3
2021-08-01 09:00 48.1 ug/m3 0.58 ug/m3 39.64 ug/m3 83.43 ug/m3 27.15 ug/m3 0.56 mg/m3 32.23 C 51.21 % 1,011.37 mbar 1.91 m/s 46.18 Deg 33.45 ug/m3 1.47 ug/m3
2021-08-01 08:00 32.05 ug/m3 0.3 ug/m3 54.87 ug/m3 93.61 ug/m3 39.61 ug/m3 0.39 mg/m3 32 C 47.81 % 1,011.49 mbar 1.02 m/s 220.17 Deg 11.7 ug/m3 1.66 ug/m3
2021-08-01 07:00 17.74 ug/m3 0.16 ug/m3 60.37 ug/m3 89.73 ug/m3 29.18 ug/m3 0.31 mg/m3 30.4 C 56.13 % 1,011.00 mbar 1.37 m/s 246.9 Deg 2.94 ug/m3 1.1 ug/m3
2021-08-01 06:00 45.47 ug/m3 0.11 ug/m3 62.43 ug/m3 79.44 ug/m3 22.67 ug/m3 0.23 mg/m3 29.68 C 55.03 % 1,010.61 mbar 2.29 m/s 243.97 Deg 0.85 ug/m3 2.75 ug/m3
2021-08-01 05:00 41.76 ug/m3 0.31 ug/m3 26.25 ug/m3 62.39 ug/m3 22.35 ug/m3 0.34 mg/m3 29.59 C 42.44 % 1,009.59 mbar 1.25 m/s 236.2 Deg 3.23 ug/m3 2.99 ug/m3
2021-08-01 04:00 32.2 ug/m3 0.3 ug/m3 25.42 ug/m3 57.57 ug/m3 20.43 ug/m3 0.3 mg/m3 29.66 C 45.05 % 1,009.44 mbar 0.78 m/s 232.13 Deg 2.74 ug/m3 4.41 ug/m3
2021-08-01 03:00 36.72 ug/m3 0.35 ug/m3 21.52 ug/m3 60.57 ug/m3 17.63 ug/m3 0.29 mg/m3 29.96 C 44.85 % 1,010.07 mbar 0.35 m/s 289.19 Deg 2.39 ug/m3 4.72 ug/m3
2021-08-01 02:00 33.01 ug/m3 0.2 ug/m3 42.16 ug/m3 49.23 ug/m3 25.5 ug/m3 0.45 mg/m3 30.42 C 46.78 % 1,010.85 mbar 0.55 m/s 309.52 Deg 7.91 ug/m3 1.68 ug/m3
2021-08-01 01:00 30.57 ug/m3 0.2 ug/m3 40.44 ug/m3 65.06 ug/m3 28.39 ug/m3 0.39 mg/m3 30.08 C 57.19 % 1,011.34 mbar 0.77 m/s 211.23 Deg 3.69 ug/m3 4.99 ug/m3
2021-08-01 00:00 46.94 ug/m3 0.36 ug/m3 23.67 ug/m3 53.94 ug/m3 16.34 ug/m3 0.54 mg/m3 30.27 C 60.51 % 1,011.48 mbar 0.51 m/s 140.54 Deg 13.91 ug/m3 2.83 ug/m3
2021-07-31 23:00 58.35 ug/m3 0.44 ug/m3 23.46 ug/m3 48.97 ug/m3 27.53 ug/m3 0.53 mg/m3 30.55 C 52.77 % 1,011.28 mbar 0.6 m/s 150.53 Deg 20.37 ug/m3 4.22 ug/m3
2021-07-31 22:00 48.38 ug/m3 0.49 ug/m3 48.44 ug/m3 80.8 ug/m3 25.41 ug/m3 0.61 mg/m3 29.58 C 66.06 % 1,011.24 mbar 0.8 m/s 61.12 Deg 29.03 ug/m3 7.16 ug/m3
2021-07-31 21:00 24.18 ug/m3 0.24 ug/m3 70.63 ug/m3 83.16 ug/m3 21.69 ug/m3 0.52 mg/m3 30 C 68.14 % 1,011.02 mbar 1.15 m/s 45.9 Deg 12.92 ug/m3 2.73 ug/m3
2021-07-31 20:00 27.08 ug/m3 0.35 ug/m3 63.06 ug/m3 81.67 ug/m3 26.92 ug/m3 0.59 mg/m3 29.96 C 66.89 % 1,010.37 mbar 1.69 m/s 56.42 Deg 19.47 ug/m3 2.2 ug/m3
2021-07-31 19:00 25.53 ug/m3 0.29 ug/m3 68.27 ug/m3 80.47 ug/m3 25.97 ug/m3 0.58 mg/m3 30.11 C 66.49 % 1,009.90 mbar 2.51 m/s 57.5 Deg 14.36 ug/m3 1.87 ug/m3
2021-07-31 18:00 28.87 ug/m3 0.36 ug/m3 71.08 ug/m3 49.53 ug/m3 18.08 ug/m3 0.45 mg/m3 31.21 C 58.85 % 1,009.62 mbar 2.07 m/s 60.18 Deg 17.09 ug/m3 1.7 ug/m3
2021-07-31 17:00 17.32 ug/m3 0.19 ug/m3 83.48 ug/m3 48.99 ug/m3 28 ug/m3 0.42 mg/m3 30.72 C 60.71 % 1,009.81 mbar 2.91 m/s 61.08 Deg 11.44 ug/m3 1.47 ug/m3
2021-07-31 16:00 21.41 ug/m3 0.18 ug/m3 77.34 ug/m3 56.15 ug/m3 22.29 ug/m3 0.46 mg/m3 30.64 C 63.4 % 1,010.12 mbar 3.18 m/s 62.27 Deg 11.12 ug/m3 1.57 ug/m3
2021-07-31 15:00 16.17 ug/m3 0.11 ug/m3 77.93 ug/m3 75.73 ug/m3 23.71 ug/m3 0.36 mg/m3 30.18 C 67.84 % 1,010.35 mbar 3.31 m/s 61.87 Deg 11.33 ug/m3 1.44 ug/m3
2021-07-31 14:00 18.8 ug/m3 0.22 ug/m3 84.07 ug/m3 65.51 ug/m3 32.65 ug/m3 0.35 mg/m3 29.8 C 71.74 % 1,010.55 mbar 3.7 m/s 59.9 Deg 9.03 ug/m3 1.21 ug/m3
2021-07-31 13:00 18.84 ug/m3 0.23 ug/m3 88.83 ug/m3 73.96 ug/m3 27.57 ug/m3 0.4 mg/m3 30.87 C 64.19 % 1,010.67 mbar 3.23 m/s 52.55 Deg 12.35 ug/m3 1.68 ug/m3
2021-07-31 12:00 21.12 ug/m3 0.32 ug/m3 90.84 ug/m3 86.33 ug/m3 32.19 ug/m3 0.42 mg/m3 30.06 C 66.99 % 1,010.85 mbar 3.92 m/s 54.47 Deg 11.41 ug/m3 3.22 ug/m3
2021-07-31 11:00 45.02 ug/m3 0.49 ug/m3 69.03 ug/m3 68.64 ug/m3 15.67 ug/m3 0.71 mg/m3 33.26 C 47.23 % 1,010.71 mbar 2.94 m/s 59.75 Deg 23.07 ug/m3 2.5 ug/m3
2021-07-31 10:00 36.95 ug/m3 0.31 ug/m3 70.57 ug/m3 70.33 ug/m3 25.64 ug/m3 0.34 mg/m3 35.55 C 27.93 % 1,011.06 mbar 1.56 m/s 215.55 Deg 14.17 ug/m3 1.44 ug/m3
2021-07-31 09:00 41.38 ug/m3 0.24 ug/m3 56.25 ug/m3 83.86 ug/m3 33.35 ug/m3 0.32 mg/m3 34.68 C 28.22 % 1,011.18 mbar 2.15 m/s 251.32 Deg 11.04 ug/m3 2.07 ug/m3
2021-07-31 08:00 36.62 ug/m3 0.19 ug/m3 60.08 ug/m3 95.8 ug/m3 28.62 ug/m3 0.32 mg/m3 31.91 C 44.13 % 1,010.97 mbar 1.95 m/s 231.87 Deg 6.73 ug/m3 2.45 ug/m3
2021-07-31 07:00 56.17 ug/m3 0.52 ug/m3 31.26 ug/m3 64.03 ug/m3 21.6 ug/m3 0.4 mg/m3 29.86 C 52.52 % 1,010.53 mbar 1.28 m/s 232.08 Deg 13.59 ug/m3 6.61 ug/m3
2021-07-31 06:00 32.56 ug/m3 0.17 ug/m3 51.01 ug/m3 58.59 ug/m3 15.62 ug/m3 0.35 mg/m3 28.78 C 58.96 % 1,009.99 mbar 1.21 m/s 222.55 Deg 4.05 ug/m3 1.1 ug/m3
2021-07-31 05:00 14.57 ug/m3 0.11 ug/m3 73.43 ug/m3 49.23 ug/m3 22.03 ug/m3 0.2 mg/m3 28.4 C 62.37 % 1,010.03 mbar 1.43 m/s 188.28 Deg 0.39 ug/m3 0.77 ug/m3
2021-07-31 04:00 10.35 ug/m3 0.41 ug/m3 82.8 ug/m3 43.15 ug/m3 19.12 ug/m3 0.18 mg/m3 28.69 C 60.64 % 1,009.95 mbar 1.75 m/s 198.85 Deg 0.03 ug/m3 0.49 ug/m3
2021-07-31 03:00 5.69 ug/m3 0.08 ug/m3 86.78 ug/m3 18.37 ug/m3 14.26 ug/m3 0.13 mg/m3 29.01 C 55.99 % 1,010.48 mbar 1.8 m/s 222.83 Deg -0.09 ug/m3 0.44 ug/m3
2021-07-31 02:00 6.11 ug/m3 0.13 ug/m3 86.63 ug/m3 5.45 ug/m3 15.94 ug/m3 0.17 mg/m3 29.32 C 50.78 % 1,010.78 mbar 1.97 m/s 218.05 Deg -0.15 ug/m3 0.58 ug/m3
2021-07-31 01:00 12.67 ug/m3 0.2 ug/m3 74.12 ug/m3 2.38 ug/m3 25.08 ug/m3 0.19 mg/m3 29.85 C 45.86 % 1,011.38 mbar 1.34 m/s 199.17 Deg 0.11 ug/m3 0.84 ug/m3
2021-07-31 00:00 17.87 ug/m3 0.17 ug/m3 63.98 ug/m3 1.91 ug/m3 21.54 ug/m3 0.21 mg/m3 30.29 C 40.98 % 1,011.73 mbar 1.13 m/s 190.93 Deg 0.08 ug/m3 1.26 ug/m3
2021-07-30 23:00 27.12 ug/m3 0.18 ug/m3 52.69 ug/m3 1.91 ug/m3 16.11 ug/m3 0.3 mg/m3 30.69 C 38.89 % 1,011.88 mbar 0.62 m/s 206.28 Deg 1.51 ug/m3 1.97 ug/m3
2021-07-30 22:00 18.54 ug/m3 0.26 ug/m3 60.35 ug/m3 1.91 ug/m3 20.28 ug/m3 0.26 mg/m3 30.1 C 47.55 % 1,011.77 mbar 0.98 m/s 206.6 Deg 1.1 ug/m3 0.97 ug/m3
2021-07-30 21:00 20.5 ug/m3 0.23 ug/m3 62.27 ug/m3 1.91 ug/m3 20.87 ug/m3 0.25 mg/m3 30.82 C 41.63 % 1,011.78 mbar 1.75 m/s 222.65 Deg 1.43 ug/m3 1.28 ug/m3
2021-07-30 20:00 24.14 ug/m3 0.22 ug/m3 57.64 ug/m3 1.91 ug/m3 16.32 ug/m3 0.24 mg/m3 31.84 C 32.92 % 1,011.50 mbar 1.77 m/s 216.47 Deg 1.96 ug/m3 1.05 ug/m3
2021-07-30 19:00 24.48 ug/m3 0.24 ug/m3 54.25 ug/m3 1.91 ug/m3 21.21 ug/m3 0.21 mg/m3 33.47 C 24.45 % 1,011.43 mbar 2.1 m/s 223.2 Deg 3.56 ug/m3 0.86 ug/m3
2021-07-30 18:00 21.16 ug/m3 0.28 ug/m3 56.62 ug/m3 1.91 ug/m3 27.08 ug/m3 0.19 mg/m3 34.34 C 23.68 % 1,011.52 mbar 2.53 m/s 231.33 Deg 4.27 ug/m3 1 ug/m3
2021-07-30 17:00 26.58 ug/m3 0.31 ug/m3 54.13 ug/m3 1.91 ug/m3 21.49 ug/m3 0.18 mg/m3 35.43 C 19.99 % 1,011.71 mbar 3.23 m/s 238.38 Deg 9.7 ug/m3 0.61 ug/m3
2021-07-30 16:00 19.64 ug/m3 0.31 ug/m3 63.59 ug/m3 1.91 ug/m3 18.49 ug/m3 0.18 mg/m3 35.76 C 19.91 % 1,012.15 mbar 3.21 m/s 238.13 Deg 4.68 ug/m3 0.7 ug/m3
2021-07-30 15:00 19.33 ug/m3 0.26 ug/m3 68.15 ug/m3 1.91 ug/m3 15.07 ug/m3 0.17 mg/m3 36.12 C 20.56 % 1,012.61 mbar 2.92 m/s 231.42 Deg 4.32 ug/m3 0.77 ug/m3
2021-07-30 14:00 22.15 ug/m3 0.27 ug/m3 69.79 ug/m3 1.91 ug/m3 18.1 ug/m3 0.19 mg/m3 36.28 C 21.06 % 1,012.96 mbar 2.81 m/s 236.18 Deg 4.94 ug/m3 1.12 ug/m3
2021-07-30 13:00 24.03 ug/m3 0.27 ug/m3 72.78 ug/m3 1.91 ug/m3 14.03 ug/m3 0.2 mg/m3 35.62 C 23.32 % 1,013.27 mbar 2.89 m/s 233.23 Deg 5.95 ug/m3 1.1 ug/m3
2021-07-30 12:00 24.26 ug/m3 0.31 ug/m3 74.52 ug/m3 1.91 ug/m3 23.27 ug/m3 0.2 mg/m3 35.84 C 20.6 % 1,013.59 mbar 2.73 m/s 234.1 Deg 5.19 ug/m3 0.94 ug/m3
2021-07-30 11:00 27.36 ug/m3 0.3 ug/m3 68.6 ug/m3 1.91 ug/m3 16.87 ug/m3 0.21 mg/m3 36.37 C 17.47 % 1,013.77 mbar 2.5 m/s 231.17 Deg 7.05 ug/m3 1.61 ug/m3
2021-07-30 10:00 40.61 ug/m3 0.42 ug/m3 61.27 ug/m3 1.91 ug/m3 21.76 ug/m3 0.28 mg/m3 35.91 C 18.34 % 1,014.05 mbar 1.92 m/s 249.9 Deg 11.2 ug/m3 2.03 ug/m3
2021-07-30 09:00 48.08 ug/m3 0.48 ug/m3 55.77 ug/m3 1.91 ug/m3 18.26 ug/m3 0.33 mg/m3 34.22 C 21.62 % 1,013.93 mbar 1.79 m/s 260.68 Deg 11.93 ug/m3 2.05 ug/m3
2021-07-30 08:00 61.83 ug/m3 0.59 ug/m3 43.01 ug/m3 1.91 ug/m3 24.59 ug/m3 0.39 mg/m3 32.24 C 29.35 % 1,013.74 mbar 1.14 m/s 249.35 Deg 18.9 ug/m3 3.65 ug/m3
2021-07-30 07:00 67.9 ug/m3 0.65 ug/m3 33.14 ug/m3 67.19 ug/m3 26.83 ug/m3 0.5 mg/m3 29.98 C 41.99 % 1,013.29 mbar 0.66 m/s 228.68 Deg 15.85 ug/m3 3.07 ug/m3
2021-07-30 06:00 51.11 ug/m3 0.53 ug/m3 40.99 ug/m3 36.6 ug/m3 20.47 ug/m3 0.48 mg/m3 28.4 C 47.75 % 1,012.97 mbar 0.52 m/s 235.19 Deg 13.82 ug/m3 1.47 ug/m3
2021-07-30 05:00 39.95 ug/m3 0.33 ug/m3 47 ug/m3 25.37 ug/m3 6.26 ug/m3 0.25 mg/m3 28.21 C 46.04 % 1,012.79 mbar 0.59 m/s 219.15 Deg 2.36 ug/m3 1.89 ug/m3
2021-07-30 04:00 30.84 ug/m3 0.59 ug/m3 48.74 ug/m3 34.8 ug/m3 9.51 ug/m3 0.2 mg/m3 28.59 C 34.25 % 1,012.76 mbar 0.62 m/s 224.52 Deg 1.87 ug/m3 1.4 ug/m3
2021-07-30 03:00 26.88 ug/m3 0.28 ug/m3 60.17 ug/m3 35.61 ug/m3 10.49 ug/m3 0.17 mg/m3 29 C 32.55 % 1,013.04 mbar 0.9 m/s 242.33 Deg 0.04 ug/m3 1.05 ug/m3
2021-07-30 02:00 14.98 ug/m3 0.22 ug/m3 82.85 ug/m3 29.13 ug/m3 11.51 ug/m3 0.17 mg/m3 29.39 C 32.93 % 1,013.42 mbar 0.76 m/s 232.68 Deg -0.14 ug/m3 0.92 ug/m3
2021-07-30 01:00 26.19 ug/m3 0.24 ug/m3 70.04 ug/m3 33.59 ug/m3 16.13 ug/m3 0.22 mg/m3 30.01 C 29.15 % 1,013.67 mbar 0.49 m/s 244.87 Deg 0.25 ug/m3 0.89 ug/m3
2021-07-30 00:00 18.82 ug/m3 0.19 ug/m3 83.47 ug/m3 48.23 ug/m3 20.9 ug/m3 0.22 mg/m3 30.2 C 28.99 % 1,013.84 mbar 1.04 m/s 234.38 Deg 0.01 ug/m3 1.15 ug/m3
2021-07-29 23:00 41.99 ug/m3 0.27 ug/m3 55.74 ug/m3 54.19 ug/m3 10.23 ug/m3 0.34 mg/m3 30.66 C 31.21 % 1,014.02 mbar 0.79 m/s 238.7 Deg 1.36 ug/m3 1.82 ug/m3
2021-07-29 22:00 47.69 ug/m3 0.25 ug/m3 63.58 ug/m3 50.86 ug/m3 15.87 ug/m3 0.36 mg/m3 31.31 C 28.79 % 1,013.96 mbar 0.96 m/s 267.03 Deg 3.22 ug/m3 2.05 ug/m3
2021-07-29 21:00 35.22 ug/m3 0.21 ug/m3 66.49 ug/m3 42.57 ug/m3 9.27 ug/m3 0.31 mg/m3 31.8 C 28.67 % 1,013.83 mbar 0.78 m/s 219.45 Deg 0.59 ug/m3 1.34 ug/m3
2021-07-29 20:00 36.77 ug/m3 0.22 ug/m3 72.51 ug/m3 52.57 ug/m3 10.74 ug/m3 0.31 mg/m3 32.27 C 27.59 % 1,013.50 mbar 1.3 m/s 233.92 Deg 1.42 ug/m3 1.45 ug/m3
2021-07-29 19:00 36.72 ug/m3 0.25 ug/m3 72.97 ug/m3 43.67 ug/m3 14.81 ug/m3 0.32 mg/m3 33.54 C 25.52 % 1,013.15 mbar 1.58 m/s 256.08 Deg 2.74 ug/m3 1.82 ug/m3
2021-07-29 18:00 35.57 ug/m3 0.27 ug/m3 72.68 ug/m3 45.02 ug/m3 16.94 ug/m3 0.29 mg/m3 34.59 C 25 % 1,013.07 mbar 1.93 m/s 260.9 Deg 4.98 ug/m3 1.03 ug/m3
2021-07-29 17:00 28.72 ug/m3 0.25 ug/m3 81.03 ug/m3 50.67 ug/m3 12.71 ug/m3 0.26 mg/m3 34.95 C 26.29 % 1,013.15 mbar 2.52 m/s 262.38 Deg 4.4 ug/m3 1.19 ug/m3
2021-07-29 16:00 28.09 ug/m3 0.26 ug/m3 83.32 ug/m3 52.88 ug/m3 12.04 ug/m3 0.27 mg/m3 35.14 C 28.39 % 1,013.47 mbar 2.5 m/s 272.15 Deg 4.26 ug/m3 0.84 ug/m3
2021-07-29 15:00 27.4 ug/m3 0.26 ug/m3 86.8 ug/m3 40.12 ug/m3 11.08 ug/m3 0.25 mg/m3 35.2 C 29.02 % 1,013.71 mbar 2.2 m/s 303.17 Deg 5.92 ug/m3 1.02 ug/m3
2021-07-29 14:00 26.5 ug/m3 0.22 ug/m3 90.81 ug/m3 31.82 ug/m3 10.73 ug/m3 0.23 mg/m3 34.77 C 28.84 % 1,013.98 mbar 2.61 m/s 306.07 Deg 5.08 ug/m3 0.61 ug/m3
2021-07-29 13:00 29.13 ug/m3 0.34 ug/m3 90.33 ug/m3 46.58 ug/m3 17.52 ug/m3 0.24 mg/m3 34.31 C 24.26 % 1,014.48 mbar 2.44 m/s 304.88 Deg 8.1 ug/m3 1.05 ug/m3
2021-07-29 12:00 29.29 ug/m3 0.31 ug/m3 89.47 ug/m3 44.01 ug/m3 13.27 ug/m3 0.27 mg/m3 33.44 C 29.96 % 1,014.82 mbar 2.61 m/s 313.55 Deg 8.52 ug/m3 0.86 ug/m3
2021-07-29 11:00 27.96 ug/m3 0.31 ug/m3 87.22 ug/m3 45.66 ug/m3 21.71 ug/m3 0.19 mg/m3 33.3 C 27.84 % 1,014.85 mbar 2.26 m/s 305.88 Deg 7.46 ug/m3 1.5 ug/m3
2021-07-29 10:00 36.45 ug/m3 0.43 ug/m3 77.12 ug/m3 65.12 ug/m3 23.38 ug/m3 0.29 mg/m3 32.75 C 27.26 % 1,014.88 mbar 1.93 m/s 326.13 Deg 14.56 ug/m3 1.21 ug/m3
2021-07-29 09:00 41.35 ug/m3 0.4 ug/m3 72.7 ug/m3 80.46 ug/m3 26.85 ug/m3 0.26 mg/m3 32.89 C 21.69 % 1,014.56 mbar 1.84 m/s 310.8 Deg 11.39 ug/m3 1.75 ug/m3
2021-07-29 08:00 67.93 ug/m3 0.77 ug/m3 43.18 ug/m3 89.78 ug/m3 23.69 ug/m3 0.48 mg/m3 32.17 C 23.07 % 1,014.33 mbar 1.09 m/s 296.77 Deg 25.45 ug/m3 6.56 ug/m3
2021-07-29 07:00 105.02 ug/m3 2.37 ug/m3 10.38 ug/m3 85.63 ug/m3 30.87 ug/m3 1.28 mg/m3 29.99 C 33.57 % 1,013.90 mbar 0.06 m/s 129.71 Deg 116.93 ug/m3 11 ug/m3
2021-07-29 06:00 90.77 ug/m3 1.87 ug/m3 3.33 ug/m3 71.82 ug/m3 18.27 ug/m3 0.95 mg/m3 27.82 C 39.51 % 1,013.67 mbar 0.21 m/s 39.63 Deg 95.54 ug/m3 7.61 ug/m3
2021-07-29 05:00 66.19 ug/m3 1.17 ug/m3 3.7 ug/m3 47.04 ug/m3 18.53 ug/m3 0.54 mg/m3 27.44 C 41.66 % 1,013.37 mbar 0.38 m/s 217.22 Deg 42.77 ug/m3 7.19 ug/m3
2021-07-29 04:00 45.42 ug/m3 0.57 ug/m3 23.01 ug/m3 46.01 ug/m3 14.34 ug/m3 0.36 mg/m3 28 C 37.65 % 1,013.24 mbar 0.45 m/s 251.94 Deg 5.58 ug/m3 6.21 ug/m3
2021-07-29 03:00 38.4 ug/m3 0.45 ug/m3 34.54 ug/m3 46.65 ug/m3 5.36 ug/m3 0.34 mg/m3 28.4 C 37.74 % 1,013.42 mbar 0.46 m/s 265.92 Deg 3.51 ug/m3 5.16 ug/m3
2021-07-29 02:00 29.66 ug/m3 0.34 ug/m3 52.25 ug/m3 35.94 ug/m3 7.21 ug/m3 0.41 mg/m3 28.85 C 37.28 % 1,013.71 mbar 0.19 m/s 169.13 Deg 2.12 ug/m3 2.6 ug/m3
2021-07-29 01:00 17.43 ug/m3 0.15 ug/m3 81.58 ug/m3 31.35 ug/m3 6.45 ug/m3 0.23 mg/m3 29.13 C 35.11 % 1,014.05 mbar 0.84 m/s 228.13 Deg -0.21 ug/m3 1.05 ug/m3
2021-07-29 00:00 33.21 ug/m3 0.23 ug/m3 65.95 ug/m3 26.88 ug/m3 9.72 ug/m3 0.3 mg/m3 29.34 C 34.73 % 1,014.41 mbar 0.58 m/s 257.34 Deg 3.81 ug/m3 1.26 ug/m3
2021-07-28 23:00 20.89 ug/m3 0.13 ug/m3 79.59 ug/m3 34.61 ug/m3 15.96 ug/m3 0.26 mg/m3 29.18 C 39.63 % 1,014.52 mbar 0.66 m/s 249.53 Deg -0.07 ug/m3 1.78 ug/m3
2021-07-28 22:00 26.62 ug/m3 0.21 ug/m3 78.33 ug/m3 42.48 ug/m3 15.67 ug/m3 0.32 mg/m3 29.02 C 45.58 % 1,014.75 mbar 0.96 m/s 289.72 Deg 3.9 ug/m3 0.82 ug/m3
2021-07-28 21:00 22.39 ug/m3 0.19 ug/m3 82.1 ug/m3 31.97 ug/m3 19.75 ug/m3 0.3 mg/m3 29.17 C 45.66 % 1,014.82 mbar 1.35 m/s 258.43 Deg 1.9 ug/m3 0.97 ug/m3
2021-07-28 20:00 30.83 ug/m3 0.26 ug/m3 77.74 ug/m3 41.78 ug/m3 13.06 ug/m3 0.34 mg/m3 29.63 C 43.88 % 1,014.61 mbar 1.23 m/s 295.38 Deg 4.5 ug/m3 1.78 ug/m3
2021-07-28 19:00 33.64 ug/m3 0.29 ug/m3 82.62 ug/m3 45.75 ug/m3 8.13 ug/m3 0.38 mg/m3 30.54 C 41.89 % 1,014.52 mbar 1.59 m/s 328.67 Deg 7.41 ug/m3 0.94 ug/m3
2021-07-28 18:00 26.14 ug/m3 0.25 ug/m3 89.29 ug/m3 40.75 ug/m3 11.07 ug/m3 0.29 mg/m3 31.7 C 36.59 % 1,014.29 mbar 2.1 m/s 325.2 Deg 5.46 ug/m3 1.52 ug/m3
2021-07-28 17:00 29.74 ug/m3 0.29 ug/m3 86.48 ug/m3 30.44 ug/m3 9.48 ug/m3 0.31 mg/m3 32.72 C 33.89 % 1,014.27 mbar 2.01 m/s 334.18 Deg 10.97 ug/m3 0.86 ug/m3
2021-07-28 16:00 29.68 ug/m3 0.38 ug/m3 88.56 ug/m3 32.67 ug/m3 13.96 ug/m3 0.33 mg/m3 33.07 C 30.67 % 1,014.54 mbar 1.83 m/s 338.7 Deg 12.44 ug/m3 1.34 ug/m3
2021-07-28 15:00 27.44 ug/m3 0.31 ug/m3 89.13 ug/m3 27.95 ug/m3 10.33 ug/m3 0.26 mg/m3 32.67 C 29.29 % 1,014.88 mbar 2.25 m/s 329.32 Deg 9.53 ug/m3 0.58 ug/m3
2021-07-28 14:00 32.38 ug/m3 0.37 ug/m3 85.25 ug/m3 26.14 ug/m3 6.26 ug/m3 0.29 mg/m3 32.62 C 28.25 % 1,015.26 mbar 2.1 m/s 254.6 Deg 16.02 ug/m3 0.92 ug/m3
2021-07-28 13:00 34.91 ug/m3 0.38 ug/m3 89.14 ug/m3 17.63 ug/m3 7.84 ug/m3 0.28 mg/m3 32.8 C 26.22 % 1,015.39 mbar 1.99 m/s 336.32 Deg 14.75 ug/m3 0.76 ug/m3
2021-07-28 12:00 23.94 ug/m3 0.32 ug/m3 96.24 ug/m3 22.18 ug/m3 13.82 ug/m3 0.25 mg/m3 32.19 C 25.31 % 1,015.52 mbar 2.22 m/s 329.97 Deg 10.64 ug/m3 0.63 ug/m3
2021-07-28 11:00 24.61 ug/m3 0.37 ug/m3 89.38 ug/m3 25.71 ug/m3 11.59 ug/m3 0.17 mg/m3 32.15 C 24.67 % 1,015.62 mbar 1.92 m/s 330.42 Deg 14.31 ug/m3 1 ug/m3
2021-07-28 10:00 37.18 ug/m3 0.32 ug/m3 83.39 ug/m3 42.55 ug/m3 13.37 ug/m3 0.26 mg/m3 31.92 C 24.56 % 1,015.63 mbar 1.88 m/s 325.3 Deg 11.8 ug/m3 0.98 ug/m3
2021-07-28 09:00 42.82 ug/m3 0.38 ug/m3 69.11 ug/m3 53.34 ug/m3 17.26 ug/m3 0.27 mg/m3 31.4 C 26.68 % 1,015.37 mbar 1.64 m/s 308.28 Deg 16.84 ug/m3 1.52 ug/m3
2021-07-28 08:00 65.63 ug/m3 0.73 ug/m3 49.58 ug/m3 63.75 ug/m3 26.79 ug/m3 0.46 mg/m3 30.47 C 29.13 % 1,015.50 mbar 1.01 m/s 258.28 Deg 28.1 ug/m3 6.59 ug/m3
2021-07-28 07:00 93.71 ug/m3 1.49 ug/m3 9.73 ug/m3 45.48 ug/m3 14.91 ug/m3 0.89 mg/m3 28.48 C 41.89 % 1,015.28 mbar 0.19 m/s 50.64 Deg 79.63 ug/m3 7.16 ug/m3
2021-07-28 06:00 78.9 ug/m3 0.77 ug/m3 8.68 ug/m3 22.09 ug/m3 11.49 ug/m3 0.72 mg/m3 26.76 C 50.26 % 1,015.00 mbar 0.31 m/s 210.19 Deg 34.74 ug/m3 2.94 ug/m3
2021-07-28 05:00 26.89 ug/m3 0.15 ug/m3 68.74 ug/m3 21.88 ug/m3 9.15 ug/m3 0.21 mg/m3 26.97 C 54.91 % 1,014.86 mbar 0.6 m/s 217.67 Deg 0.91 ug/m3 0.44 ug/m3
2021-07-28 04:00 16.32 ug/m3 0.26 ug/m3 80.68 ug/m3 23.99 ug/m3 4.18 ug/m3 0.17 mg/m3 26.98 C 56.07 % 1,014.82 mbar 0.54 m/s 247.55 Deg 0.46 ug/m3 2.31 ug/m3
2021-07-28 03:00 21.13 ug/m3 0.17 ug/m3 68.65 ug/m3 11.89 ug/m3 5.02 ug/m3 0.19 mg/m3 27.05 C 48.65 % 1,015.05 mbar 0.61 m/s 232.53 Deg 0.75 ug/m3 1.78 ug/m3
2021-07-28 02:00 33.64 ug/m3 0.23 ug/m3 51.3 ug/m3 8.01 ug/m3 4.58 ug/m3 0.23 mg/m3 27.63 C 33.02 % 1,015.31 mbar 0.73 m/s 241.4 Deg 1.33 ug/m3 3.04 ug/m3
2021-07-28 01:00 70.15 ug/m3 0.35 ug/m3 31.79 ug/m3 7.57 ug/m3 5.62 ug/m3 0.4 mg/m3 27.82 C 36.33 % 1,015.62 mbar 0.43 m/s 250.92 Deg 2.6 ug/m3 4.83 ug/m3
2021-07-28 00:00 69.86 ug/m3 0.59 ug/m3 26.98 ug/m3 8.5 ug/m3 6.89 ug/m3 0.55 mg/m3 28.14 C 38.68 % 1,016.04 mbar 0.09 m/s 253 Deg 13.43 ug/m3 5.04 ug/m3
2021-07-27 23:00 51.2 ug/m3 0.44 ug/m3 56.86 ug/m3 12.98 ug/m3 6.68 ug/m3 0.46 mg/m3 28.79 C 34.48 % 1,016.30 mbar 0.48 m/s 107.72 Deg 11.72 ug/m3 3.73 ug/m3
2021-07-27 22:00 47.29 ug/m3 0.54 ug/m3 52.87 ug/m3 20.75 ug/m3 7.87 ug/m3 0.51 mg/m3 28.48 C 44.78 % 1,016.43 mbar 0.69 m/s 59.52 Deg 19.57 ug/m3 6.14 ug/m3
2021-07-27 21:00 37.32 ug/m3 0.4 ug/m3 73.47 ug/m3 31.97 ug/m3 9.9 ug/m3 0.46 mg/m3 27.84 C 59.44 % 1,016.38 mbar 1.19 m/s 59.88 Deg 19.51 ug/m3 3.78 ug/m3
2021-07-27 20:00 32.28 ug/m3 0.42 ug/m3 79.35 ug/m3 35.78 ug/m3 10.95 ug/m3 0.67 mg/m3 27.87 C 66.98 % 1,016.08 mbar 1.7 m/s 58.07 Deg 17.91 ug/m3 3.85 ug/m3
2021-07-27 19:00 32.89 ug/m3 0.4 ug/m3 79.79 ug/m3 19.05 ug/m3 7.33 ug/m3 0.6 mg/m3 28.22 C 66.76 % 1,016.01 mbar 1.9 m/s 56.3 Deg 19.95 ug/m3 3.52 ug/m3
2021-07-27 18:00 24.77 ug/m3 0.37 ug/m3 83.35 ug/m3 17.93 ug/m3 10.56 ug/m3 0.53 mg/m3 28.44 C 69.66 % 1,016.03 mbar 2.39 m/s 49.87 Deg 16.33 ug/m3 2.05 ug/m3
2021-07-27 17:00 22.91 ug/m3 0.36 ug/m3 89.49 ug/m3 28.65 ug/m3 16.69 ug/m3 0.47 mg/m3 28.15 C 73.54 % 1,016.25 mbar 2.91 m/s 51.52 Deg 16.94 ug/m3 2.15 ug/m3
2021-07-27 16:00 22.65 ug/m3 0.34 ug/m3 82.91 ug/m3 29.14 ug/m3 14.58 ug/m3 0.39 mg/m3 28.01 C 76.03 % 1,016.64 mbar 3.2 m/s 57.08 Deg 19.28 ug/m3 1.5 ug/m3
2021-07-27 15:00 20.78 ug/m3 0.25 ug/m3 86.89 ug/m3 27.65 ug/m3 11.82 ug/m3 0.39 mg/m3 27.92 C 76.56 % 1,016.90 mbar 3.29 m/s 55.95 Deg 16.76 ug/m3 1 ug/m3
2021-07-27 14:00 20.68 ug/m3 0.34 ug/m3 84 ug/m3 40.59 ug/m3 7.47 ug/m3 0.37 mg/m3 27.66 C 78.01 % 1,017.28 mbar 3.5 m/s 58.62 Deg 20.74 ug/m3 0.92 ug/m3
2021-07-27 13:00 18.46 ug/m3 0.2 ug/m3 90.62 ug/m3 28.83 ug/m3 11.63 ug/m3 0.33 mg/m3 27.98 C 76.17 % 1,017.73 mbar 3.13 m/s 47.27 Deg 19.07 ug/m3 1.71 ug/m3
2021-07-27 12:00 26.58 ug/m3 0.34 ug/m3 88.24 ug/m3 24.97 ug/m3 13.94 ug/m3 0.4 mg/m3 27.64 C 76.27 % 1,017.83 mbar 3.34 m/s 56.07 Deg 23.54 ug/m3 1.89 ug/m3
2021-07-27 11:00 22.9 ug/m3 0.27 ug/m3 86.75 ug/m3 21.96 ug/m3 9.42 ug/m3 0.26 mg/m3 28.82 C 68.04 % 1,017.83 mbar 2.66 m/s 102.82 Deg 17.41 ug/m3 0.94 ug/m3
2021-07-27 10:00 19.1 ug/m3 0.11 ug/m3 90.79 ug/m3 34.94 ug/m3 14.71 ug/m3 0.22 mg/m3 30.77 C 40.29 % 1,017.66 mbar 1.69 m/s 214.03 Deg 3.9 ug/m3 1.12 ug/m3
2021-07-27 09:00 27.2 ug/m3 0.26 ug/m3 77.75 ug/m3 63.46 ug/m3 24.11 ug/m3 0.34 mg/m3 29.2 C 56.28 % 1,017.56 mbar 1.42 m/s 194.13 Deg 12.49 ug/m3 4.51 ug/m3
2021-07-27 08:00 51.74 ug/m3 0.49 ug/m3 51.98 ug/m3 64.76 ug/m3 23.62 ug/m3 0.51 mg/m3 27.5 C 73.38 % 1,017.41 mbar 1.22 m/s 221.48 Deg 28.89 ug/m3 4.25 ug/m3
2021-07-27 07:00 60.12 ug/m3 0.53 ug/m3 24.57 ug/m3 48.63 ug/m3 16.9 ug/m3 0.61 mg/m3 26.5 C 81.36 % 1,017.03 mbar 0.79 m/s 47.47 Deg 29.47 ug/m3 9.32 ug/m3
2021-07-27 06:00 47.75 ug/m3 0.33 ug/m3 27.06 ug/m3 38.04 ug/m3 6.56 ug/m3 0.48 mg/m3 26.03 C 83.19 % 1,016.74 mbar 0.38 m/s 121.16 Deg 19.48 ug/m3 4.02 ug/m3
2021-07-27 05:00 15.08 ug/m3 0.04 ug/m3 67.83 ug/m3 29.82 ug/m3 8.93 ug/m3 0.19 mg/m3 25.95 C 83.05 % 1,016.33 mbar 0.78 m/s 156.3 Deg 0.67 ug/m3 0.44 ug/m3
2021-07-27 04:00 7.62 ug/m3 0.37 ug/m3 80.2 ug/m3 22.72 ug/m3 5.53 ug/m3 0.16 mg/m3 25.97 C 83.39 % 1,016.05 mbar 0.93 m/s 146.13 Deg 0.56 ug/m3 0.34 ug/m3
2021-07-27 03:00 6.92 ug/m3 0.02 ug/m3 77.62 ug/m3 34.51 ug/m3 5.93 ug/m3 0.16 mg/m3 26.17 C 82.92 % 1,016.08 mbar 0.87 m/s 138.7 Deg 0.62 ug/m3 0.39 ug/m3
2021-07-27 02:00 10.75 ug/m3 -0.02 ug/m3 71.74 ug/m3 26.39 ug/m3 8.53 ug/m3 0.16 mg/m3 26.42 C 81.53 % 1,016.14 mbar 1.18 m/s 149.97 Deg -0.05 ug/m3 0.65 ug/m3
2021-07-27 01:00 15.3 ug/m3 0.03 ug/m3 72.73 ug/m3 24.03 ug/m3 10.92 ug/m3 0.18 mg/m3 26.66 C 78.82 % 1,016.36 mbar 1.57 m/s 115.97 Deg 2.07 ug/m3 0.37 ug/m3
2021-07-27 00:00 10.75 ug/m3 0.07 ug/m3 81.87 ug/m3 25.56 ug/m3 17.13 ug/m3 0.2 mg/m3 26.8 C 78.09 % 1,016.46 mbar 1.92 m/s 105.05 Deg 2.71 ug/m3 0.63 ug/m3
2021-07-26 23:00 14.64 ug/m3 0.1 ug/m3 69.35 ug/m3 34.17 ug/m3 16.99 ug/m3 0.26 mg/m3 26.89 C 77.69 % 1,016.34 mbar 1.99 m/s 145.53 Deg 5.45 ug/m3 0.73 ug/m3
2021-07-26 22:00 18.44 ug/m3 0.11 ug/m3 61.27 ug/m3 47.94 ug/m3 16.56 ug/m3 0.31 mg/m3 27.11 C 77.74 % 1,016.17 mbar 1.81 m/s 109.47 Deg 7.5 ug/m3 0.79 ug/m3
2021-07-26 21:00 19.47 ug/m3 0.21 ug/m3 58.22 ug/m3 46.8 ug/m3 10.27 ug/m3 0.33 mg/m3 27.2 C 78.06 % 1,016.01 mbar 2.02 m/s 90.75 Deg 13 ug/m3 0.91 ug/m3
2021-07-26 20:00 25 ug/m3 0.25 ug/m3 54.51 ug/m3 49.14 ug/m3 16.98 ug/m3 0.36 mg/m3 27.75 C 73.04 % 1,015.47 mbar 2.06 m/s 166.93 Deg 14.62 ug/m3 1.19 ug/m3
2021-07-26 19:00 21.48 ug/m3 0.23 ug/m3 59.1 ug/m3 36.82 ug/m3 17.85 ug/m3 0.33 mg/m3 28.18 C 67.64 % 1,015.19 mbar 2.5 m/s 145.53 Deg 12.63 ug/m3 1.21 ug/m3
2021-07-26 18:00 23.45 ug/m3 0.23 ug/m3 58.53 ug/m3 44.27 ug/m3 19.86 ug/m3 0.32 mg/m3 28.76 C 66.11 % 1,015.10 mbar 2.63 m/s 143.52 Deg 14.19 ug/m3 0.7 ug/m3
2021-07-26 17:00 29.23 ug/m3 0.36 ug/m3 60.17 ug/m3 38.83 ug/m3 5.16 ug/m3 0.39 mg/m3 29.65 C 60.65 % 1,015.18 mbar 2.69 m/s 227.28 Deg 18.84 ug/m3 0.87 ug/m3
2021-07-26 16:00 34.49 ug/m3 0.34 ug/m3 64.23 ug/m3 32.5 ug/m3 4.56 ug/m3 0.35 mg/m3 30.05 C 53.83 % 1,015.47 mbar 2.59 m/s 113 Deg 21.8 ug/m3 0.58 ug/m3
2021-07-26 15:00 33.64 ug/m3 0.35 ug/m3 76.03 ug/m3 16.94 ug/m3 4.5 ug/m3 0.31 mg/m3 30.71 C 44.48 % 1,015.79 mbar 2.8 m/s 152.78 Deg 19.21 ug/m3 0.84 ug/m3
2021-07-26 14:00 31.49 ug/m3 0.38 ug/m3 72.15 ug/m3 13.64 ug/m3 5.92 ug/m3 0.31 mg/m3 30.96 C 43.89 % 1,015.95 mbar 2.72 m/s 275.27 Deg 22.73 ug/m3 2.57 ug/m3
2021-07-26 13:00 32.4 ug/m3 0.38 ug/m3 68.74 ug/m3 14.6 ug/m3 6.7 ug/m3 0.36 mg/m3 30.76 C 48.35 % 1,016.04 mbar 2.41 m/s 156.88 Deg 24.71 ug/m3 0.61 ug/m3
2021-07-26 12:00 26.2 ug/m3 0.3 ug/m3 79.22 ug/m3 18.93 ug/m3 6.82 ug/m3 0.26 mg/m3 30.9 C 42.68 % 1,016.10 mbar 1.94 m/s 137.78 Deg 15.42 ug/m3 0.76 ug/m3
2021-07-26 11:00 26.23 ug/m3 0.22 ug/m3 78.72 ug/m3 27.6 ug/m3 9.89 ug/m3 0.19 mg/m3 30.55 C 44.31 % 1,016.25 mbar 1.82 m/s 163.23 Deg 10.96 ug/m3 0.87 ug/m3
2021-07-26 10:00 27.79 ug/m3 0.28 ug/m3 74.67 ug/m3 30.92 ug/m3 12.94 ug/m3 0.29 mg/m3 29.88 C 49.99 % 1,015.97 mbar 1.72 m/s 144.77 Deg 16.44 ug/m3 0.52 ug/m3
2021-07-26 09:00 42.95 ug/m3 0.23 ug/m3 73.75 ug/m3 47.74 ug/m3 18.8 ug/m3 0.25 mg/m3 29.2 C 50.78 % 1,015.67 mbar 1.89 m/s 151.52 Deg 12.43 ug/m3 0.84 ug/m3
2021-07-26 08:00 32.23 ug/m3 0.34 ug/m3 56.71 ug/m3 69.19 ug/m3 24.96 ug/m3 0.37 mg/m3 28.01 C 63.49 % 1,015.37 mbar 1.55 m/s 132.87 Deg 21.55 ug/m3 2.17 ug/m3
2021-07-26 07:00 44.21 ug/m3 0.35 ug/m3 32.75 ug/m3 56.8 ug/m3 18.98 ug/m3 0.4 mg/m3 26.79 C 76.89 % 1,014.94 mbar 1.08 m/s 146.07 Deg 14.4 ug/m3 2.15 ug/m3
2021-07-26 06:00 39.8 ug/m3 0.21 ug/m3 34.41 ug/m3 39.51 ug/m3 8.64 ug/m3 0.36 mg/m3 26.11 C 79.9 % 1,014.40 mbar 0.83 m/s 98.58 Deg 8.31 ug/m3 2.73 ug/m3
2021-07-26 05:00 44.2 ug/m3 0.2 ug/m3 25.02 ug/m3 26.66 ug/m3 14.36 ug/m3 0.22 mg/m3 26.06 C 78.67 % 1,013.90 mbar 0.82 m/s 105.48 Deg 6.76 ug/m3 1.55 ug/m3
2021-07-26 04:00 31.46 ug/m3 0.15 ug/m3 37.24 ug/m3 23.73 ug/m3 4.35 ug/m3 0.14 mg/m3 26.28 C 75.71 % 1,013.53 mbar 0.69 m/s 189.3 Deg 0.06 ug/m3 0.94 ug/m3
2021-07-26 03:00 23.11 ug/m3 0.06 ug/m3 52.38 ug/m3 30.87 ug/m3 6.05 ug/m3 0.13 mg/m3 26.33 C 73.67 % 1,013.47 mbar 0.97 m/s 164.3 Deg -0.18 ug/m3 1.52 ug/m3
2021-07-26 02:00 22.1 ug/m3 0.06 ug/m3 45.88 ug/m3 26.63 ug/m3 7.47 ug/m3 0.14 mg/m3 26.54 C 73.04 % 1,013.44 mbar 0.98 m/s 170.42 Deg 0.34 ug/m3 0.89 ug/m3
2021-07-26 01:00 8.93 ug/m3 0.02 ug/m3 69.06 ug/m3 25.46 ug/m3 12.09 ug/m3 0.14 mg/m3 26.75 C 70.97 % 1,013.77 mbar 0.84 m/s 173.63 Deg 0.32 ug/m3 0.26 ug/m3
2021-07-26 00:00 9.2 ug/m3 0.05 ug/m3 70.58 ug/m3 40.03 ug/m3 12.43 ug/m3 0.15 mg/m3 26.91 C 69.51 % 1,014.24 mbar 1.07 m/s 179.35 Deg 0.48 ug/m3 0.39 ug/m3
2021-07-25 23:00 20 ug/m3 0.13 ug/m3 57.78 ug/m3 41.27 ug/m3 12.39 ug/m3 0.24 mg/m3 27.13 C 68.32 % 1,014.42 mbar 1.23 m/s 150.97 Deg 4.6 ug/m3 0.61 ug/m3
2021-07-25 22:00 21.31 ug/m3 0.2 ug/m3 57.72 ug/m3 48.67 ug/m3 17.61 ug/m3 0.31 mg/m3 27.51 C 66.1 % 1,014.28 mbar 1.18 m/s 140.5 Deg 8.54 ug/m3 0.91 ug/m3
2021-07-25 21:00 24.72 ug/m3 0.22 ug/m3 56.74 ug/m3 29.84 ug/m3 5.57 ug/m3 0.32 mg/m3 28 C 60.36 % 1,013.85 mbar 1.11 m/s 148.72 Deg 9.89 ug/m3 1.1 ug/m3
2021-07-25 20:00 28.11 ug/m3 0.31 ug/m3 54.44 ug/m3 33.01 ug/m3 8.38 ug/m3 0.36 mg/m3 28.6 C 54.04 % 1,013.43 mbar 1.18 m/s 140.2 Deg 17.08 ug/m3 3.78 ug/m3
2021-07-25 19:00 30.22 ug/m3 0.32 ug/m3 57.91 ug/m3 28.68 ug/m3 10.07 ug/m3 0.38 mg/m3 29.71 C 47.06 % 1,013.37 mbar 1.61 m/s 121.67 Deg 15.77 ug/m3 3.62 ug/m3
2021-07-25 18:00 39.72 ug/m3 0.46 ug/m3 66.87 ug/m3 19.59 ug/m3 17.34 ug/m3 0.65 mg/m3 29.8 C 43.37 % 1,013.58 mbar 1.97 m/s 41.88 Deg 19.89 ug/m3 0.89 ug/m3
2021-07-25 17:00 23.79 ug/m3 0.3 ug/m3 86.35 ug/m3 27.83 ug/m3 6.12 ug/m3 0.31 mg/m3 28.96 C 50.59 % 1,013.91 mbar 2.93 m/s 54.38 Deg 10.98 ug/m3 0.73 ug/m3
2021-07-25 16:00 13.43 ug/m3 0.16 ug/m3 95.67 ug/m3 24.19 ug/m3 7.13 ug/m3 0.26 mg/m3 28.62 C 53.81 % 1,014.10 mbar 3.59 m/s 57.42 Deg 8.25 ug/m3 1 ug/m3
2021-07-25 15:00 15.73 ug/m3 0.21 ug/m3 100.09 ug/m3 17.66 ug/m3 11.33 ug/m3 0.27 mg/m3 28.77 C 50.27 % 1,014.30 mbar 3.54 m/s 52.05 Deg 8.42 ug/m3 0.49 ug/m3
2021-07-25 14:00 17.04 ug/m3 0.18 ug/m3 98.85 ug/m3 17.07 ug/m3 8.12 ug/m3 0.26 mg/m3 28.84 C 51.39 % 1,014.60 mbar 3.35 m/s 50.87 Deg 8.59 ug/m3 0.68 ug/m3
2021-07-25 13:00 16.53 ug/m3 0.23 ug/m3 101.35 ug/m3 28.1 ug/m3 12.18 ug/m3 0.27 mg/m3 28.8 C 49.83 % 1,014.76 mbar 3.38 m/s 42.45 Deg 8.1 ug/m3 1.1 ug/m3
2021-07-25 12:00 22.1 ug/m3 0.34 ug/m3 100.66 ug/m3 36.01 ug/m3 19.66 ug/m3 0.35 mg/m3 28.38 C 51.14 % 1,014.81 mbar 3.47 m/s 51.83 Deg 11.66 ug/m3 2.2 ug/m3
2021-07-25 11:00 25.74 ug/m3 0.38 ug/m3 95.7 ug/m3 39.24 ug/m3 15.16 ug/m3 0.29 mg/m3 28.59 C 47.78 % 1,015.00 mbar 3.07 m/s 58.03 Deg 13.11 ug/m3 1.42 ug/m3
2021-07-25 10:00 30.23 ug/m3 0.36 ug/m3 86.71 ug/m3 28.51 ug/m3 15.22 ug/m3 0.42 mg/m3 29.13 C 42.97 % 1,014.61 mbar 2.75 m/s 52.65 Deg 14.49 ug/m3 1.99 ug/m3
2021-07-25 09:00 16.65 ug/m3 0.18 ug/m3 91.72 ug/m3 34.17 ug/m3 13.7 ug/m3 0.32 mg/m3 30.38 C 27.61 % 1,014.19 mbar 1.23 m/s 229.48 Deg 3.3 ug/m3 0.82 ug/m3
2021-07-25 08:00 18.28 ug/m3 0.24 ug/m3 77.36 ug/m3 45.28 ug/m3 17.7 ug/m3 0.21 mg/m3 28.63 C 35.43 % 1,014.17 mbar 0.76 m/s 227.81 Deg 2.84 ug/m3 1.86 ug/m3
2021-07-25 07:00 32.22 ug/m3 0.3 ug/m3 47.16 ug/m3 45.17 ug/m3 25.82 ug/m3 0.33 mg/m3 26.65 C 46.92 % 1,013.76 mbar 0.84 m/s 237.17 Deg 4.56 ug/m3 3.7 ug/m3
2021-07-25 06:00 43.89 ug/m3 0.33 ug/m3 21.16 ug/m3 42.27 ug/m3 14.88 ug/m3 0.39 mg/m3 25.68 C 53.08 % 1,013.48 mbar 0.66 m/s 237.28 Deg 5.38 ug/m3 3.57 ug/m3
2021-07-25 05:00 45.4 ug/m3 0.47 ug/m3 16.14 ug/m3 44.88 ug/m3 19.46 ug/m3 0.36 mg/m3 25.61 C 56.15 % 1,013.05 mbar 0.37 m/s 261.49 Deg 12.34 ug/m3 2.38 ug/m3
2021-07-25 04:00 24.82 ug/m3 0.39 ug/m3 43.75 ug/m3 32.64 ug/m3 9.24 ug/m3 0.23 mg/m3 25.9 C 57.07 % 1,012.89 mbar 0.4 m/s 246.69 Deg 1.35 ug/m3 2.05 ug/m3
2021-07-25 03:00 22.98 ug/m3 0.16 ug/m3 49.93 ug/m3 37.76 ug/m3 6.68 ug/m3 0.25 mg/m3 26.29 C 51.15 % 1,013.02 mbar 0.58 m/s 231.21 Deg 0.29 ug/m3 2.13 ug/m3
2021-07-25 02:00 26.66 ug/m3 0.14 ug/m3 46.59 ug/m3 27.56 ug/m3 6.63 ug/m3 0.27 mg/m3 26.3 C 51.22 % 1,013.16 mbar 0.79 m/s 237.42 Deg 1.03 ug/m3 2.31 ug/m3
2021-07-25 01:00 31.54 ug/m3 0.15 ug/m3 50.46 ug/m3 23.84 ug/m3 10.38 ug/m3 0.29 mg/m3 26.87 C 44.55 % 1,013.55 mbar 0.87 m/s 242.95 Deg 0.79 ug/m3 1.15 ug/m3
2021-07-25 00:00 21.29 ug/m3 0.15 ug/m3 67.21 ug/m3 35.38 ug/m3 9.65 ug/m3 0.22 mg/m3 27.36 C 46.31 % 1,014.08 mbar 0.95 m/s 214.65 Deg 0.14 ug/m3 1.12 ug/m3
2021-07-24 23:00 19.85 ug/m3 0.15 ug/m3 71.81 ug/m3 52.26 ug/m3 15.68 ug/m3 0.23 mg/m3 27.35 C 52.82 % 1,014.42 mbar 0.92 m/s 215.37 Deg 0.17 ug/m3 1 ug/m3
2021-07-24 22:00 17.09 ug/m3 0.11 ug/m3 81.04 ug/m3 38.53 ug/m3 9.19 ug/m3 0.23 mg/m3 27.45 C 54.65 % 1,014.57 mbar 1.57 m/s 244.18 Deg 1.13 ug/m3 1.05 ug/m3
2021-07-24 21:00 20.13 ug/m3 0.14 ug/m3 79.02 ug/m3 30.74 ug/m3 11.51 ug/m3 0.25 mg/m3 28.15 C 45.87 % 1,014.30 mbar 1.65 m/s 247.33 Deg 0.84 ug/m3 1.87 ug/m3
2021-07-24 20:00 30.18 ug/m3 0.18 ug/m3 66.37 ug/m3 28.04 ug/m3 5.6 ug/m3 0.29 mg/m3 28.94 C 39.03 % 1,013.89 mbar 1.89 m/s 251.65 Deg 3.58 ug/m3 1.15 ug/m3
2021-07-24 19:00 22.5 ug/m3 0.13 ug/m3 76.01 ug/m3 17.66 ug/m3 7.66 ug/m3 0.21 mg/m3 30.44 C 30.29 % 1,013.69 mbar 2.1 m/s 254.65 Deg 2.2 ug/m3 0.65 ug/m3
2021-07-24 18:00 16.42 ug/m3 0.11 ug/m3 80.47 ug/m3 12.23 ug/m3 11.7 ug/m3 0.22 mg/m3 31.28 C 32.05 % 1,013.41 mbar 2.35 m/s 245.62 Deg 1.91 ug/m3 0.65 ug/m3
2021-07-24 17:00 13.37 ug/m3 0.09 ug/m3 84.77 ug/m3 10.42 ug/m3 4.99 ug/m3 0.17 mg/m3 31.83 C 31.2 % 1,013.45 mbar 2.78 m/s 250.23 Deg 1.97 ug/m3 0.55 ug/m3
2021-07-24 16:00 11.36 ug/m3 0.12 ug/m3 87.25 ug/m3 13.13 ug/m3 4.92 ug/m3 0.17 mg/m3 32.05 C 31.1 % 1,013.55 mbar 2.84 m/s 242.77 Deg 1.99 ug/m3 0.49 ug/m3
2021-07-24 15:00 11.81 ug/m3 0.08 ug/m3 89.4 ug/m3 19.74 ug/m3 5.44 ug/m3 0.16 mg/m3 32.45 C 30.28 % 1,013.64 mbar 2.63 m/s 244.7 Deg 2 ug/m3 0.37 ug/m3
2021-07-24 14:00 15.38 ug/m3 0.19 ug/m3 87.11 ug/m3 34.34 ug/m3 9.03 ug/m3 0.26 mg/m3 30.23 C 46.47 % 1,013.90 mbar 2.96 m/s 160.12 Deg 8.17 ug/m3 2.55 ug/m3
2021-07-24 13:00 18.78 ug/m3 0.29 ug/m3 89.03 ug/m3 28.25 ug/m3 7.86 ug/m3 0.29 mg/m3 27.55 C 65.76 % 1,014.35 mbar 4.49 m/s 55.85 Deg 11 ug/m3 3.2 ug/m3
2021-07-24 12:00 26.38 ug/m3 0.29 ug/m3 81.03 ug/m3 24.05 ug/m3 10.12 ug/m3 0.35 mg/m3 31 C 45.6 % 1,014.40 mbar 2.39 m/s 181.22 Deg 12.28 ug/m3 1.92 ug/m3
2021-07-24 11:00 29.54 ug/m3 0.32 ug/m3 74.29 ug/m3 38.84 ug/m3 13.88 ug/m3 0.27 mg/m3 31.54 C 40.4 % 1,014.47 mbar 1.66 m/s 169.63 Deg 17.52 ug/m3 1.71 ug/m3
2021-07-24 10:00 29.48 ug/m3 0.31 ug/m3 73.15 ug/m3 43.64 ug/m3 9.24 ug/m3 0.32 mg/m3 29.89 C 49.23 % 1,014.33 mbar 1.61 m/s 262.72 Deg 13.84 ug/m3 2.36 ug/m3
2021-07-24 09:00 32.28 ug/m3 0.29 ug/m3 70.43 ug/m3 37.42 ug/m3 12.79 ug/m3 0.34 mg/m3 30.02 C 47.03 % 1,014.06 mbar 1.42 m/s 310.5 Deg 12.06 ug/m3 1.5 ug/m3
2021-07-24 08:00 32.65 ug/m3 0.16 ug/m3 67.38 ug/m3 52.36 ug/m3 22.97 ug/m3 0.26 mg/m3 28.54 C 53.21 % 1,013.94 mbar 1.49 m/s 285.48 Deg 7.36 ug/m3 1.18 ug/m3
2021-07-24 07:00 32.41 ug/m3 0.17 ug/m3 68.99 ug/m3 45.02 ug/m3 19.65 ug/m3 0.29 mg/m3 26.62 C 68.33 % 1,013.62 mbar 1.11 m/s 271.4 Deg 6.32 ug/m3 1.99 ug/m3
2021-07-24 06:00 24.73 ug/m3 0.13 ug/m3 61.92 ug/m3 27.08 ug/m3 9.37 ug/m3 0.26 mg/m3 25.61 C 71.85 % 1,013.45 mbar 0.82 m/s 248.1 Deg 2.88 ug/m3 0.65 ug/m3
2021-07-24 05:00 12.73 ug/m3 0.1 ug/m3 73.79 ug/m3 17.17 ug/m3 13.16 ug/m3 0.17 mg/m3 25.55 C 70.25 % 1,013.29 mbar 0.83 m/s 226.95 Deg 0.49 ug/m3 0.55 ug/m3
2021-07-24 04:00 12.68 ug/m3 0.43 ug/m3 75.69 ug/m3 19.16 ug/m3 7.94 ug/m3 0.14 mg/m3 25.73 C 63.89 % 1,013.39 mbar 0.82 m/s 227.6 Deg 0.26 ug/m3 0.56 ug/m3
2021-07-24 03:00 12.65 ug/m3 0.13 ug/m3 78.5 ug/m3 28.24 ug/m3 8.48 ug/m3 0.15 mg/m3 26 C 55.81 % 1,013.72 mbar 1.03 m/s 235.92 Deg 0.19 ug/m3 1.07 ug/m3
2021-07-24 02:00 18.5 ug/m3 1.16 ug/m3 59.26 ug/m3 30.43 ug/m3 10.69 ug/m3 0.25 mg/m3 26.38 C 48.16 % 1,014.08 mbar 0.84 m/s 231.83 Deg 0.12 ug/m3 1.5 ug/m3
2021-07-24 01:00 28.6 ug/m3 0.16 ug/m3 49.75 ug/m3 41.42 ug/m3 12.73 ug/m3 0.29 mg/m3 26.94 C 46.92 % 1,014.38 mbar 0.88 m/s 231.38 Deg 0.73 ug/m3 1.73 ug/m3
2021-07-24 00:00 31.09 ug/m3 0.18 ug/m3 45.44 ug/m3 30.6 ug/m3 19.55 ug/m3 0.34 mg/m3 27.22 C 55.17 % 1,014.58 mbar 0.73 m/s 191.6 Deg 0.63 ug/m3 2.36 ug/m3
2021-07-23 23:00 50.84 ug/m3 0.54 ug/m3 38.28 ug/m3 30.3 ug/m3 6.94 ug/m3 0.42 mg/m3 27.36 C 55.1 % 1,014.69 mbar 0.6 m/s 127.13 Deg 8.01 ug/m3 1.65 ug/m3
2021-07-23 22:00 39.68 ug/m3 3.27 ug/m3 59.98 ug/m3 23.04 ug/m3 10.23 ug/m3 0.82 mg/m3 27.02 C 58.17 % 1,014.61 mbar 0.94 m/s 45.97 Deg 20.67 ug/m3 2.31 ug/m3
2021-07-23 21:00 33.15 ug/m3 0.23 ug/m3 68.02 ug/m3 31.87 ug/m3 11.42 ug/m3 0.42 mg/m3 27.42 C 54.93 % 1,014.37 mbar 0.91 m/s 178.78 Deg 9.01 ug/m3 3.57 ug/m3
2021-07-23 20:00 39.5 ug/m3 0.36 ug/m3 69.03 ug/m3 27.88 ug/m3 15.5 ug/m3 0.47 mg/m3 27.4 C 60.91 % 1,013.95 mbar 1.03 m/s 37.4 Deg 17.73 ug/m3 3.2 ug/m3
2021-07-23 19:00 26.96 ug/m3 0.24 ug/m3 79.68 ug/m3 38.57 ug/m3 10.86 ug/m3 0.33 mg/m3 27.97 C 61.2 % 1,013.84 mbar 1.64 m/s 175.2 Deg 13.18 ug/m3 1.1 ug/m3
2021-07-23 18:00 20.56 ug/m3 0.22 ug/m3 91.83 ug/m3 50.21 ug/m3 12.82 ug/m3 0.39 mg/m3 27.96 C 67.29 % 1,013.54 mbar 3.01 m/s 35.17 Deg 12.21 ug/m3 2.86 ug/m3
2021-07-23 17:00 27.16 ug/m3 0.25 ug/m3 103.74 ug/m3 31.18 ug/m3 15.14 ug/m3 0.4 mg/m3 28.6 C 62.97 % 1,013.67 mbar 3.04 m/s 43.23 Deg 17.98 ug/m3 1.73 ug/m3
2021-07-23 16:00 26.68 ug/m3 0.22 ug/m3 113.34 ug/m3 22.99 ug/m3 4.98 ug/m3 0.34 mg/m3 29.44 C 54.83 % 1,013.93 mbar 2.93 m/s 40.92 Deg 13.46 ug/m3 2.18 ug/m3
2021-07-23 15:00 25.33 ug/m3 0.26 ug/m3 111.55 ug/m3 11.38 ug/m3 5.7 ug/m3 0.33 mg/m3 28.97 C 57.02 % 1,014.16 mbar 3.39 m/s 38.52 Deg 16.89 ug/m3 1.94 ug/m3
2021-07-23 14:00 22.93 ug/m3 0.28 ug/m3 112.82 ug/m3 10.96 ug/m3 4.39 ug/m3 0.32 mg/m3 28.46 C 54.38 % 1,014.58 mbar 3.73 m/s 50.45 Deg 17.12 ug/m3 2.39 ug/m3
2021-07-23 13:00 26.58 ug/m3 0.28 ug/m3 100.38 ug/m3 14.81 ug/m3 5.55 ug/m3 0.32 mg/m3 28.26 C 56.02 % 1,014.97 mbar 3.74 m/s 49.4 Deg 18.32 ug/m3 1.71 ug/m3
2021-07-23 12:00 29.11 ug/m3 0.36 ug/m3 95.97 ug/m3 20.22 ug/m3 8.1 ug/m3 0.35 mg/m3 27.85 C 57.5 % 1,015.24 mbar 3.66 m/s 54.82 Deg 23.79 ug/m3 3.94 ug/m3
2021-07-23 11:00 29.4 ug/m3 0.34 ug/m3 93.38 ug/m3 14.05 ug/m3 9.56 ug/m3 0.2 mg/m3 27.71 C 56.8 % 1,015.35 mbar 3.65 m/s 54.73 Deg 23.37 ug/m3 3.31 ug/m3
2021-07-23 10:00 20 ug/m3 0.32 ug/m3 86.83 ug/m3 17.85 ug/m3 13.85 ug/m3 0.28 mg/m3 27.79 C 53.9 % 1,015.40 mbar 3.17 m/s 56.55 Deg 25.96 ug/m3 2.1 ug/m3
2021-07-23 09:00 38.33 ug/m3 0.32 ug/m3 79.61 ug/m3 30.92 ug/m3 23.52 ug/m3 0.35 mg/m3 27.88 C 54.67 % 1,015.22 mbar 2.18 m/s 50.53 Deg 24.23 ug/m3 1.21 ug/m3
2021-07-23 08:00 33.68 ug/m3 0.32 ug/m3 69.83 ug/m3 53.49 ug/m3 18.83 ug/m3 0.35 mg/m3 27.09 C 62.71 % 1,014.97 mbar 1.55 m/s 55.68 Deg 22.79 ug/m3 2.2 ug/m3
2021-07-23 07:00 30.08 ug/m3 0.35 ug/m3 64.06 ug/m3 61.38 ug/m3 17.33 ug/m3 0.41 mg/m3 26.14 C 76.37 % 1,014.51 mbar 1.38 m/s 49.83 Deg 21.01 ug/m3 2.03 ug/m3
2021-07-23 06:00 25.48 ug/m3 0.26 ug/m3 62.53 ug/m3 51.76 ug/m3 23.22 ug/m3 0.39 mg/m3 25.47 C 80.66 % 1,014.16 mbar 1.07 m/s 41.43 Deg 14.12 ug/m3 1.92 ug/m3
2021-07-23 05:00 15.02 ug/m3 0.11 ug/m3 61.68 ug/m3 56.59 ug/m3 18.91 ug/m3 0.2 mg/m3 25.21 C 82.19 % 1,013.86 mbar 0.9 m/s 173.23 Deg 5.04 ug/m3 0.39 ug/m3
2021-07-23 04:00 10.51 ug/m3 0.15 ug/m3 65.59 ug/m3 56.59 ug/m3 10.76 ug/m3 0.14 mg/m3 25.2 C 82.58 % 1,013.84 mbar 0.99 m/s 247.17 Deg 0.77 ug/m3 0.44 ug/m3
2021-07-23 03:00 6.55 ug/m3 0.02 ug/m3 75.01 ug/m3 48.19 ug/m3 17.36 ug/m3 0.14 mg/m3 25.68 C 77.58 % 1,014.02 mbar 1.13 m/s 333.68 Deg 0.18 ug/m3 0.58 ug/m3
2021-07-23 02:00 9.25 ug/m3 0.07 ug/m3 78.72 ug/m3 35.02 ug/m3 14.66 ug/m3 0.17 mg/m3 26.5 C 69.18 % 1,014.06 mbar 1.17 m/s 206.97 Deg 0.97 ug/m3 0.47 ug/m3
2021-07-23 01:00 6.36 ug/m3 0.03 ug/m3 88.03 ug/m3 30.19 ug/m3 8.23 ug/m3 0.15 mg/m3 26.85 C 64.09 % 1,014.11 mbar 3.06 m/s 251.73 Deg -0.12 ug/m3 0.34 ug/m3
2021-07-23 00:00 8.49 ug/m3 0.03 ug/m3 90.74 ug/m3 28.95 ug/m3 11.21 ug/m3 0.14 mg/m3 27.73 C 52.81 % 1,014.42 mbar 2.43 m/s 236.33 Deg 0.1 ug/m3 0.76 ug/m3
2021-07-22 23:00 13.15 ug/m3 0.1 ug/m3 88.2 ug/m3 27.39 ug/m3 11.48 ug/m3 0.16 mg/m3 28.33 C 45.88 % 1,014.71 mbar 2.29 m/s 231 Deg 0.38 ug/m3 0.87 ug/m3
2021-07-22 22:00 19.73 ug/m3 0.07 ug/m3 85.36 ug/m3 32.08 ug/m3 15.85 ug/m3 0.19 mg/m3 28.4 C 47.61 % 1,014.90 mbar 2.54 m/s 241.3 Deg 1.45 ug/m3 1.15 ug/m3
2021-07-22 21:00 23.78 ug/m3 0.13 ug/m3 82.1 ug/m3 35.44 ug/m3 6.7 ug/m3 0.24 mg/m3 28.36 C 49.75 % 1,015.02 mbar 1.66 m/s 235.4 Deg 0.97 ug/m3 0.92 ug/m3
2021-07-22 20:00 28.3 ug/m3 0.1 ug/m3 81.58 ug/m3 26.18 ug/m3 9.47 ug/m3 0.25 mg/m3 28.82 C 44.97 % 1,014.93 mbar 2.14 m/s 253.08 Deg 2.41 ug/m3 1.21 ug/m3
2021-07-22 19:00 23.24 ug/m3 0.11 ug/m3 86.67 ug/m3 29.23 ug/m3 7.84 ug/m3 0.23 mg/m3 29.52 C 42.54 % 1,014.98 mbar 2.01 m/s 248.1 Deg 1.9 ug/m3 0.68 ug/m3
2021-07-22 18:00 20.36 ug/m3 0.11 ug/m3 85.45 ug/m3 42.59 ug/m3 11.46 ug/m3 0.21 mg/m3 29.61 C 46.42 % 1,014.99 mbar 2.96 m/s 250.83 Deg 2.95 ug/m3 1.31 ug/m3
2021-07-22 17:00 25.93 ug/m3 0.15 ug/m3 74.24 ug/m3 35.44 ug/m3 6.23 ug/m3 0.25 mg/m3 31.22 C 44.05 % 1,014.88 mbar 3.19 m/s 258.63 Deg 5.78 ug/m3 1.33 ug/m3
2021-07-22 16:00 25.56 ug/m3 0.19 ug/m3 83.36 ug/m3 19.63 ug/m3 5.54 ug/m3 0.23 mg/m3 32.51 C 35.43 % 1,015.08 mbar 3.07 m/s 262.38 Deg 5.44 ug/m3 0.73 ug/m3
2021-07-22 15:00 24.94 ug/m3 0.15 ug/m3 87.89 ug/m3 11.64 ug/m3 4.19 ug/m3 0.22 mg/m3 33.28 C 30.98 % 1,015.27 mbar 2.63 m/s 257.42 Deg 5.07 ug/m3 1.52 ug/m3
2021-07-22 14:00 20.82 ug/m3 0.14 ug/m3 94.17 ug/m3 12.36 ug/m3 5.87 ug/m3 0.2 mg/m3 33.17 C 32.23 % 1,015.69 mbar 2.4 m/s 243.62 Deg 3.34 ug/m3 1.02 ug/m3
2021-07-22 13:00 24.63 ug/m3 0.18 ug/m3 89.79 ug/m3 16.07 ug/m3 7.16 ug/m3 0.24 mg/m3 32.63 C 37.31 % 1,016.30 mbar 1.85 m/s 218.42 Deg 10.26 ug/m3 1.54 ug/m3
2021-07-22 12:00 32.72 ug/m3 0.31 ug/m3 82.32 ug/m3 26.46 ug/m3 8.46 ug/m3 0.39 mg/m3 31.13 C 51.59 % 1,016.77 mbar 2.05 m/s 18.45 Deg 23.69 ug/m3 2.03 ug/m3
2021-07-22 11:00 31.73 ug/m3 0.34 ug/m3 77.1 ug/m3 26.73 ug/m3 13.24 ug/m3 0.27 mg/m3 30.08 C 56.69 % 1,016.96 mbar 2.31 m/s 120.83 Deg 24.68 ug/m3 1.31 ug/m3
2021-07-22 10:00 28.06 ug/m3 0.23 ug/m3 75.75 ug/m3 37.57 ug/m3 16.84 ug/m3 0.27 mg/m3 29.46 C 55.28 % 1,016.88 mbar 1.2 m/s 307.13 Deg 15.71 ug/m3 0 ug/m3
2021-07-22 09:00 32.47 ug/m3 0.21 ug/m3 67.5 ug/m3 59.93 ug/m3 24.92 ug/m3 0.29 mg/m3 27.53 C 67.33 % 1,016.81 mbar 1.63 m/s 153.92 Deg 16.23 ug/m3 0 ug/m3
2021-07-22 08:00 38.67 ug/m3 0.2 ug/m3 54.09 ug/m3 56.41 ug/m3 18.38 ug/m3 0.33 mg/m3 27.42 C 68.69 % 1,016.48 mbar 1.39 m/s 297.18 Deg 14.33 ug/m3 0 ug/m3
2021-07-22 07:00 45.05 ug/m3 0.24 ug/m3 49.21 ug/m3 43.34 ug/m3 15.69 ug/m3 0.38 mg/m3 26.25 C 71.82 % 1,016.03 mbar 1.55 m/s 240.87 Deg 10.49 ug/m3 0 ug/m3
2021-07-22 06:00 50.01 ug/m3 0.19 ug/m3 35.52 ug/m3 21.6 ug/m3 11.13 ug/m3 0.41 mg/m3 25.63 C 65.69 % 1,015.78 mbar 1.09 m/s 237.98 Deg 7.95 ug/m3 0 ug/m3
2021-07-22 05:00 35.19 ug/m3 0.19 ug/m3 34.99 ug/m3 16.7 ug/m3 9.38 ug/m3 0.26 mg/m3 25.57 C 61.47 % 1,015.56 mbar 0.86 m/s 232.25 Deg 5.39 ug/m3 0 ug/m3
2021-07-22 04:00 16.44 ug/m3 0.14 ug/m3 60.71 ug/m3 22.88 ug/m3 6.02 ug/m3 0.19 mg/m3 25.74 C 64.3 % 1,015.38 mbar 0.64 m/s 246.13 Deg -0.08 ug/m3 0 ug/m3
2021-07-22 03:00 10.46 ug/m3 0.05 ug/m3 63.48 ug/m3 23.34 ug/m3 6.53 ug/m3 0.18 mg/m3 25.87 C 72.36 % 1,015.44 mbar 0.62 m/s 229.75 Deg -0.25 ug/m3 0 ug/m3
2021-07-22 02:00 8.16 ug/m3 0.05 ug/m3 81.62 ug/m3 37.31 ug/m3 7.35 ug/m3 0.2 mg/m3 25.65 C 75.18 % 1,015.72 mbar 0.45 m/s 258.46 Deg 0.15 ug/m3 0 ug/m3
2021-07-22 01:00 10.25 ug/m3 0.06 ug/m3 86.64 ug/m3 31.86 ug/m3 10.15 ug/m3 0.22 mg/m3 25.33 C 81.76 % 1,016.15 mbar 0.71 m/s 50.22 Deg 2.8 ug/m3 0 ug/m3
2021-07-22 00:00 13.77 ug/m3 0.13 ug/m3 87.19 ug/m3 40.18 ug/m3 14.56 ug/m3 0.22 mg/m3 25.55 C 80.49 % 1,016.40 mbar 1.03 m/s 247.03 Deg 4.18 ug/m3 0 ug/m3
2021-07-21 23:00 23.78 ug/m3 0.15 ug/m3 74.22 ug/m3 43.3 ug/m3 18.19 ug/m3 0.28 mg/m3 25.81 C 79.6 % 1,016.46 mbar 0.94 m/s 325.08 Deg 7.96 ug/m3 0 ug/m3
2021-07-21 22:00 20.92 ug/m3 0.12 ug/m3 72.44 ug/m3 35.36 ug/m3 8.88 ug/m3 0.36 mg/m3 26.01 C 78.05 % 1,016.46 mbar 1.17 m/s 224.43 Deg 4.63 ug/m3 0 ug/m3
2021-07-21 21:00 16.46 ug/m3 0.1 ug/m3 69.69 ug/m3 38.56 ug/m3 13.24 ug/m3 0.25 mg/m3 26.28 C 75.17 % 1,016.34 mbar 1.53 m/s 302.32 Deg 1.86 ug/m3 0 ug/m3
2021-07-21 20:00 14.8 ug/m3 0.09 ug/m3 75.62 ug/m3 37.12 ug/m3 21.83 ug/m3 0.24 mg/m3 26.56 C 73.93 % 1,015.85 mbar 1.91 m/s 308.57 Deg 2.32 ug/m3 0 ug/m3
2021-07-21 19:00 21.07 ug/m3 0.19 ug/m3 71.55 ug/m3 39.12 ug/m3 7.68 ug/m3 0.31 mg/m3 27.2 C 69.27 % 1,015.56 mbar 1.75 m/s 321.78 Deg 8.66 ug/m3 0 ug/m3
2021-07-21 18:00 20.99 ug/m3 0.26 ug/m3 74.11 ug/m3 33.63 ug/m3 7.22 ug/m3 0.35 mg/m3 28.1 C 66.03 % 1,015.34 mbar 1.89 m/s 99.77 Deg 17.26 ug/m3 0 ug/m3
2021-07-21 17:00 21.93 ug/m3 0.22 ug/m3 89.43 ug/m3 30.94 ug/m3 9.97 ug/m3 0.34 mg/m3 29.2 C 58.04 % 1,015.13 mbar 1.9 m/s 174.85 Deg 11.23 ug/m3 0 ug/m3
2021-07-21 16:00 21.67 ug/m3 0.2 ug/m3 92.06 ug/m3 16.39 ug/m3 3.24 ug/m3 0.3 mg/m3 29.5 C 55.98 % 1,015.30 mbar 1.91 m/s 333.42 Deg 11.34 ug/m3 0 ug/m3
2021-07-21 15:00 17.96 ug/m3 0.14 ug/m3 102.5 ug/m3 11.12 ug/m3 4.63 ug/m3 0.23 mg/m3 29.83 C 52.94 % 1,015.47 mbar 2.19 m/s 282.57 Deg 4.61 ug/m3 0 ug/m3
2021-07-21 14:00 24.27 ug/m3 0.18 ug/m3 94.19 ug/m3 15.29 ug/m3 4.8 ug/m3 0.24 mg/m3 29.74 C 50.64 % 1,015.81 mbar 2.46 m/s 161.1 Deg 9.25 ug/m3 0 ug/m3
2021-07-21 13:00 32.87 ug/m3 0.3 ug/m3 98.18 ug/m3 12.94 ug/m3 6.79 ug/m3 0.31 mg/m3 28.69 C 55.45 % 1,016.06 mbar 3.21 m/s 136.1 Deg 20.65 ug/m3 0 ug/m3
2021-07-21 12:00 22.59 ug/m3 0.26 ug/m3 110.03 ug/m3 13.53 ug/m3 11.73 ug/m3 0.29 mg/m3 27.42 C 61.09 % 1,016.33 mbar 4.5 m/s 51.35 Deg 17.43 ug/m3 0 ug/m3
2021-07-21 11:00 21.64 ug/m3 0.27 ug/m3 102.09 ug/m3 17.65 ug/m3 21.61 ug/m3 0.2 mg/m3 26.94 C 60.42 % 1,016.46 mbar 4.29 m/s 52.08 Deg 16.39 ug/m3 0 ug/m3
2021-07-21 10:00 29.79 ug/m3 0.39 ug/m3 91.7 ug/m3 27.46 ug/m3 13.14 ug/m3 0.3 mg/m3 26.77 C 61.34 % 1,016.35 mbar 3.79 m/s 53.33 Deg 24.3 ug/m3 0 ug/m3
2021-07-21 09:00 45.78 ug/m3 0.46 ug/m3 72.3 ug/m3 28.22 ug/m3 12.2 ug/m3 0.42 mg/m3 27.21 C 62.11 % 1,016.14 mbar 2.02 m/s 61.23 Deg 32.31 ug/m3 0 ug/m3
2021-07-21 08:00 44 ug/m3 0.39 ug/m3 68.93 ug/m3 43.61 ug/m3 14.39 ug/m3 0.41 mg/m3 27.27 C 59.65 % 1,016.01 mbar 0.74 m/s 87.04 Deg 22.33 ug/m3 0 ug/m3
2021-07-21 07:00 51.59 ug/m3 0.3 ug/m3 54.04 ug/m3 48.71 ug/m3 21.58 ug/m3 0.39 mg/m3 25.95 C 67.63 % 1,015.59 mbar 0.93 m/s 238.05 Deg 10.46 ug/m3 0 ug/m3
2021-07-21 06:00 51.07 ug/m3 0.26 ug/m3 32.75 ug/m3 38.07 ug/m3 10.67 ug/m3 0.47 mg/m3 24.93 C 79.86 % 1,015.13 mbar 0.75 m/s 219.1 Deg 10.23 ug/m3 0 ug/m3
2021-07-21 05:00 14.97 ug/m3 0.04 ug/m3 80.06 ug/m3 40.14 ug/m3 10.52 ug/m3 0.17 mg/m3 24.74 C 81.7 % 1,014.71 mbar 0.38 m/s 220.35 Deg 0.24 ug/m3 0 ug/m3
2021-07-21 04:00 7.35 ug/m3 0.13 ug/m3 102.14 ug/m3 27.7 ug/m3 11.29 ug/m3 0.13 mg/m3 24.74 C 83.62 % 1,014.23 mbar 0.66 m/s 283.37 Deg -0.08 ug/m3 0 ug/m3
2021-07-21 03:00 6.54 ug/m3 -0 ug/m3 98.7 ug/m3 36.65 ug/m3 16.9 ug/m3 0.13 mg/m3 24.85 C 83.54 % 1,014.20 mbar 0.98 m/s 299.07 Deg -0.11 ug/m3 0 ug/m3
2021-07-21 02:00 4.73 ug/m3 -0.01 ug/m3 104.87 ug/m3 35.28 ug/m3 10.39 ug/m3 0.15 mg/m3 25 C 82.59 % 1,014.30 mbar 0.99 m/s 305.73 Deg -0.18 ug/m3 0 ug/m3
2021-07-21 01:00 7.44 ug/m3 -0.01 ug/m3 101 ug/m3 37.24 ug/m3 9.36 ug/m3 0.21 mg/m3 25.27 C 80.59 % 1,014.53 mbar 0.97 m/s 305.02 Deg -0.18 ug/m3 0 ug/m3
2021-07-21 00:00 9.91 ug/m3 0.06 ug/m3 97.86 ug/m3 43.33 ug/m3 12.33 ug/m3 0.18 mg/m3 25.41 C 79.87 % 1,014.83 mbar 0.86 m/s 317.1 Deg 0.64 ug/m3 0 ug/m3
2021-07-20 23:00 10.62 ug/m3 0.04 ug/m3 93.6 ug/m3 30.06 ug/m3 13.65 ug/m3 0.19 mg/m3 25.67 C 76.2 % 1,014.99 mbar 1.36 m/s 316.08 Deg 1.42 ug/m3 0 ug/m3
2021-07-20 22:00 19.83 ug/m3 0.04 ug/m3 90.01 ug/m3 23.66 ug/m3 20.16 ug/m3 0.3 mg/m3 25.76 C 72.64 % 1,014.76 mbar 1.12 m/s 320.02 Deg 3.29 ug/m3 0 ug/m3
2021-07-20 21:00 24.45 ug/m3 0.15 ug/m3 86.22 ug/m3 33.89 ug/m3 13.75 ug/m3 0.33 mg/m3 25.77 C 74.12 % 1,014.34 mbar 1 m/s 182.18 Deg 8.69 ug/m3 0 ug/m3
2021-07-20 20:00 20.67 ug/m3 0.18 ug/m3 93.17 ug/m3 47.25 ug/m3 14.24 ug/m3 0.32 mg/m3 25.35 C 78.15 % 1,013.81 mbar 2.13 m/s 48.38 Deg 13.35 ug/m3 0 ug/m3
2021-07-20 19:00 23.57 ug/m3 0.19 ug/m3 98.45 ug/m3 46.64 ug/m3 13.09 ug/m3 0.3 mg/m3 25.87 C 75.73 % 1,013.38 mbar 3.01 m/s 51.85 Deg 12.84 ug/m3 0 ug/m3
2021-07-20 18:00 24.27 ug/m3 0.23 ug/m3 97.59 ug/m3 29.63 ug/m3 13.82 ug/m3 0.34 mg/m3 26.49 C 72.69 % 1,012.78 mbar 2.85 m/s 42.35 Deg 14.48 ug/m3 0 ug/m3
2021-07-20 17:00 21.17 ug/m3 0.26 ug/m3 95.62 ug/m3 37.69 ug/m3 13.17 ug/m3 0.39 mg/m3 26.26 C 72.61 % 1,012.56 mbar 3.36 m/s 55.07 Deg 14.56 ug/m3 0 ug/m3
2021-07-20 16:00 13.41 ug/m3 0.17 ug/m3 101.66 ug/m3 20.88 ug/m3 7.6 ug/m3 0.28 mg/m3 26.07 C 73.59 % 1,012.45 mbar 4.13 m/s 51.13 Deg 12.54 ug/m3 0 ug/m3
2021-07-20 15:00 22.13 ug/m3 0.27 ug/m3 97.15 ug/m3 21.58 ug/m3 10.01 ug/m3 0.31 mg/m3 26.23 C 72.28 % 1,012.28 mbar 3.52 m/s 49 Deg 16.52 ug/m3 0 ug/m3
2021-07-20 14:00 18.48 ug/m3 0.17 ug/m3 104.72 ug/m3 24.86 ug/m3 10.71 ug/m3 0.27 mg/m3 25.77 C 74.86 % 1,012.40 mbar 4.09 m/s 51.72 Deg 15.14 ug/m3 0 ug/m3
2021-07-20 13:00 20.68 ug/m3 0.17 ug/m3 106.74 ug/m3 22.65 ug/m3 14.72 ug/m3 0.3 mg/m3 25.83 C 73.98 % 1,012.46 mbar 3.79 m/s 50.93 Deg 16.7 ug/m3 0 ug/m3
2021-07-20 12:00 24.16 ug/m3 0.2 ug/m3 103.49 ug/m3 33.15 ug/m3 12.91 ug/m3 0.34 mg/m3 25.19 C 79.94 % 1,012.60 mbar 4.57 m/s 52.33 Deg 15.93 ug/m3 0 ug/m3
2021-07-20 11:00 21.71 ug/m3 0.19 ug/m3 96.16 ug/m3 33.83 ug/m3 19.65 ug/m3 0.21 mg/m3 25.12 C 79.7 % 1,012.54 mbar 4.37 m/s 54.75 Deg 12.78 ug/m3 0 ug/m3
2021-07-20 10:00 23.13 ug/m3 0.28 ug/m3 83.99 ug/m3 34.55 ug/m3 21.24 ug/m3 0.32 mg/m3 25.09 C 79.57 % 1,012.22 mbar 3.44 m/s 58.83 Deg 22.67 ug/m3 0 ug/m3
2021-07-20 09:00 26.06 ug/m3 0.21 ug/m3 74.92 ug/m3 37.62 ug/m3 20.92 ug/m3 0.32 mg/m3 25.69 C 75.27 % 1,011.89 mbar 2.17 m/s 100.1 Deg 16.83 ug/m3 0 ug/m3
2021-07-20 08:00 34.74 ug/m3 0.08 ug/m3 59.66 ug/m3 49.85 ug/m3 17.36 ug/m3 0.31 mg/m3 25.4 C 75.06 % 1,011.47 mbar 1.71 m/s 252.95 Deg 8.03 ug/m3 0 ug/m3
2021-07-20 07:00 32.58 ug/m3 0.07 ug/m3 54.17 ug/m3 59.3 ug/m3 9.53 ug/m3 0.33 mg/m3 24.67 C 80.44 % 1,011.09 mbar 1.5 m/s 246.6 Deg 6.52 ug/m3 0 ug/m3
2021-07-20 06:00 23.98 ug/m3 0.06 ug/m3 60.8 ug/m3 47.68 ug/m3 8.45 ug/m3 0.26 mg/m3 24.18 C 82.54 % 1,010.43 mbar 1.3 m/s 223.05 Deg 2.26 ug/m3 0 ug/m3
2021-07-20 05:00 14.8 ug/m3 0.01 ug/m3 71.22 ug/m3 34.42 ug/m3 10.6 ug/m3 0.17 mg/m3 24.05 C 82.94 % 1,009.75 mbar 1.41 m/s 219.67 Deg 0.38 ug/m3 0 ug/m3
2021-07-20 04:00 4.22 ug/m3 0.11 ug/m3 84.73 ug/m3 36.08 ug/m3 14.07 ug/m3 0.13 mg/m3 24.07 C 83.65 % 1,009.70 mbar 2.07 m/s 222.08 Deg -0.26 ug/m3 0 ug/m3
2021-07-20 03:00 3.07 ug/m3 0.02 ug/m3 84.95 ug/m3 34.49 ug/m3 10.4 ug/m3 0.12 mg/m3 24.21 C 82.67 % 1,009.98 mbar 1.77 m/s 220.18 Deg -0.31 ug/m3 0 ug/m3
2021-07-20 02:00 3.05 ug/m3 -0.05 ug/m3 85.49 ug/m3 41.5 ug/m3 14.07 ug/m3 0.12 mg/m3 24.25 C 81.68 % 1,010.16 mbar 1.54 m/s 221.38 Deg -0.33 ug/m3 0 ug/m3
2021-07-20 01:00 5.02 ug/m3 -0.03 ug/m3 82.95 ug/m3 47.97 ug/m3 21.34 ug/m3 0.13 mg/m3 24.26 C 81.96 % 1,010.41 mbar 1.31 m/s 221.28 Deg -0.19 ug/m3 0 ug/m3
2021-07-20 00:00 7.38 ug/m3 0.02 ug/m3 82.29 ug/m3 45.53 ug/m3 12.82 ug/m3 0.16 mg/m3 24.36 C 81.78 % 1,010.49 mbar 1.53 m/s 235.6 Deg -0.07 ug/m3 0 ug/m3
2021-07-19 23:00 9.42 ug/m3 -0 ug/m3 84.8 ug/m3 64.49 ug/m3 14.36 ug/m3 0.16 mg/m3 24.56 C 81.46 % 1,010.55 mbar 1.49 m/s 228.27 Deg 0.02 ug/m3 0 ug/m3
2021-07-19 22:00 13.75 ug/m3 0.01 ug/m3 88.92 ug/m3 57.85 ug/m3 12.72 ug/m3 0.19 mg/m3 24.74 C 80.14 % 1,010.49 mbar 1.62 m/s 234.05 Deg 0.5 ug/m3 0 ug/m3
2021-07-19 21:00 14.62 ug/m3 0.04 ug/m3 92.58 ug/m3 50.96 ug/m3 13.93 ug/m3 0.22 mg/m3 24.83 C 78.25 % 1,010.20 mbar 1.9 m/s 249 Deg 0.43 ug/m3 0 ug/m3
2021-07-19 20:00 18.44 ug/m3 0.03 ug/m3 92.33 ug/m3 57.45 ug/m3 11.56 ug/m3 0.24 mg/m3 25.29 C 74.87 % 1,009.72 mbar 1.94 m/s 260.17 Deg 0.92 ug/m3 0 ug/m3
2021-07-19 19:00 20.27 ug/m3 0.04 ug/m3 91.12 ug/m3 49.23 ug/m3 12.6 ug/m3 0.23 mg/m3 26.19 C 69.43 % 1,009.21 mbar 2.39 m/s 251.73 Deg 2.25 ug/m3 0 ug/m3
2021-07-19 18:00 18.1 ug/m3 0.06 ug/m3 94.29 ug/m3 39.85 ug/m3 10.14 ug/m3 0.23 mg/m3 26.73 C 65.84 % 1,008.91 mbar 2.56 m/s 241.23 Deg 2.64 ug/m3 0 ug/m3
2021-07-19 17:00 20.78 ug/m3 0.07 ug/m3 91.79 ug/m3 25.95 ug/m3 10.47 ug/m3 0.22 mg/m3 27.57 C 59.88 % 1,008.88 mbar 2.97 m/s 245.83 Deg 3.73 ug/m3 0 ug/m3
2021-07-19 16:00 17.92 ug/m3 0.09 ug/m3 95.94 ug/m3 31.02 ug/m3 7.51 ug/m3 0.22 mg/m3 28.1 C 56.02 % 1,008.70 mbar 2.66 m/s 247.9 Deg 3.66 ug/m3 0 ug/m3
2021-07-19 15:00 19.69 ug/m3 0.14 ug/m3 95.96 ug/m3 39.76 ug/m3 8.88 ug/m3 0.25 mg/m3 26.88 C 67.18 % 1,008.70 mbar 2.42 m/s 306.06 Deg 4.47 ug/m3 0 ug/m3
2021-07-19 14:00 16.75 ug/m3 0.06 ug/m3 100.05 ug/m3 29.64 ug/m3 10.71 ug/m3 0.2 mg/m3 26.69 C 66.79 % 1,008.66 mbar 3.01 m/s 310.37 Deg 3.98 ug/m3 0 ug/m3
2021-07-19 13:00 12.71 ug/m3 0.04 ug/m3 102.48 ug/m3 20.3 ug/m3 15.32 ug/m3 0.18 mg/m3 26.88 C 62.99 % 1,008.57 mbar 3.12 m/s 315.8 Deg 2.8 ug/m3 0 ug/m3
2021-07-19 12:00 19.36 ug/m3 0.08 ug/m3 96.6 ug/m3 22.14 ug/m3 5.66 ug/m3 0.24 mg/m3 26.82 C 63.01 % 1,008.65 mbar 2.78 m/s 324.03 Deg 7.18 ug/m3 0 ug/m3
2021-07-19 11:00 19.08 ug/m3 0.09 ug/m3 96.83 ug/m3 22.15 ug/m3 7.55 ug/m3 0.06 mg/m3 26.21 C 65.11 % 1,008.68 mbar 3.07 m/s 315.22 Deg 5.62 ug/m3 0 ug/m3
2021-07-19 10:00 19.62 ug/m3 0.08 ug/m3 90.47 ug/m3 30.51 ug/m3 9.21 ug/m3 0.12 mg/m3 26.17 C 59.42 % 1,008.50 mbar 2.92 m/s 302.17 Deg 5.54 ug/m3 0 ug/m3
2021-07-19 09:00 27.76 ug/m3 0.16 ug/m3 80.68 ug/m3 52.42 ug/m3 13.9 ug/m3 0.16 mg/m3 26.21 C 57.17 % 1,008.18 mbar 1.95 m/s 321.78 Deg 10.05 ug/m3 0 ug/m3
2021-07-19 08:00 32.42 ug/m3 0.11 ug/m3 69.33 ug/m3 72.08 ug/m3 13.9 ug/m3 0.17 mg/m3 25.15 C 67.12 % 1,007.95 mbar 2.06 m/s 305.85 Deg 7.86 ug/m3 0 ug/m3
2021-07-19 07:00 33.94 ug/m3 0.13 ug/m3 62.36 ug/m3 36.79 ug/m3 16.18 ug/m3 0.23 mg/m3 24.59 C 70.69 % 1,007.62 mbar 1.7 m/s 314.13 Deg 7.14 ug/m3 0 ug/m3
2021-07-19 06:00 35.2 ug/m3 0.07 ug/m3 54.48 ug/m3 35.19 ug/m3 11.75 ug/m3 0.22 mg/m3 23.88 C 75.34 % 1,007.22 mbar 0.99 m/s 289.37 Deg 4.75 ug/m3 0 ug/m3
2021-07-19 05:00 19.28 ug/m3 -0.05 ug/m3 67.82 ug/m3 26 ug/m3 5.91 ug/m3 0.1 mg/m3 23.58 C 79.32 % 1,006.81 mbar 1.24 m/s 296.72 Deg 0.71 ug/m3 0 ug/m3
2021-07-19 04:00 7.81 ug/m3 0.18 ug/m3 87.25 ug/m3 17.3 ug/m3 5.9 ug/m3 0.08 mg/m3 23.78 C 80.23 % 1,006.59 mbar 1.98 m/s 296.57 Deg 0 ug/m3 0 ug/m3
2021-07-19 03:00 6.54 ug/m3 -0.06 ug/m3 89.13 ug/m3 19.45 ug/m3 6.07 ug/m3 0.06 mg/m3 23.98 C 78.28 % 1,006.57 mbar 1.84 m/s 296.32 Deg -0.11 ug/m3 0 ug/m3
2021-07-19 02:00 6.2 ug/m3 -0.08 ug/m3 88.88 ug/m3 13.18 ug/m3 7.62 ug/m3 0.07 mg/m3 24.06 C 77.57 % 1,006.59 mbar 1.76 m/s 290.25 Deg -0.23 ug/m3 0 ug/m3
2021-07-19 01:00 8.65 ug/m3 -0.06 ug/m3 86.28 ug/m3 N/A 7.69 ug/m3 0.08 mg/m3 24.04 C 78.23 % 1,006.64 mbar 1.75 m/s 281.1 Deg -0.09 ug/m3 0 ug/m3
2021-07-19 00:00 7.14 ug/m3 -0.04 ug/m3 94.38 ug/m3 N/A 12.24 ug/m3 0.1 mg/m3 24.46 C 76.63 % 1,006.69 mbar 2.82 m/s 303.03 Deg -0.03 ug/m3 0 ug/m3
2021-07-18 23:00 13.59 ug/m3 -0.02 ug/m3 87.85 ug/m3 N/A 17.08 ug/m3 0.13 mg/m3 24.8 C 74.99 % 1,006.50 mbar 2.97 m/s 282.53 Deg 0.65 ug/m3 0 ug/m3
2021-07-18 22:00 13.21 ug/m3 -0.03 ug/m3 86.56 ug/m3 N/A 14.24 ug/m3 0.18 mg/m3 24.8 C 74.74 % 1,006.07 mbar 3.32 m/s 266.5 Deg 2.02 ug/m3 0 ug/m3
2021-07-18 21:00 11.44 ug/m3 0.01 ug/m3 92.54 ug/m3 N/A 20.37 ug/m3 0.19 mg/m3 24.88 C 74.41 % 1,005.77 mbar 3.61 m/s 263.35 Deg 0.75 ug/m3 0 ug/m3
2021-07-18 20:00 14.15 ug/m3 0 ug/m3 86.35 ug/m3 N/A 18.66 ug/m3 0.36 mg/m3 24.95 C 74.42 % 1,005.45 mbar 3.73 m/s 263.67 Deg 1.17 ug/m3 0 ug/m3
2021-07-18 19:00 11.57 ug/m3 -0.19 ug/m3 92.67 ug/m3 N/A 6.69 ug/m3 0.23 mg/m3 25.29 C 73.73 % 1,005.14 mbar 4.59 m/s 261.93 Deg 1.36 ug/m3 0 ug/m3
2021-07-18 18:00 11.16 ug/m3 -0.21 ug/m3 95.94 ug/m3 54.15 ug/m3 9.59 ug/m3 0.23 mg/m3 25.88 C 70.79 % 1,004.87 mbar 4.44 m/s 265.03 Deg 1.03 ug/m3 0 ug/m3
2021-07-18 17:00 9.01 ug/m3 -0.22 ug/m3 102.89 ug/m3 62.31 ug/m3 15.81 ug/m3 0.19 mg/m3 26.44 C 68.23 % 1,004.79 mbar 4.44 m/s 261.68 Deg 0.79 ug/m3 0 ug/m3
2021-07-18 16:00 8.06 ug/m3 -0.19 ug/m3 103.01 ug/m3 57.53 ug/m3 10.75 ug/m3 0.17 mg/m3 26.61 C 67.9 % 1,005.09 mbar 4.71 m/s 263.28 Deg 0.64 ug/m3 0 ug/m3
2021-07-18 15:00 7.41 ug/m3 -0.22 ug/m3 102.47 ug/m3 61.86 ug/m3 9.61 ug/m3 0.16 mg/m3 27.06 C 64.68 % 1,005.34 mbar 5.19 m/s 263.78 Deg 0.82 ug/m3 0 ug/m3
2021-07-18 14:00 7.07 ug/m3 -0.21 ug/m3 99.46 ug/m3 43.56 ug/m3 9.3 ug/m3 0.16 mg/m3 27.41 C 60.63 % 1,005.70 mbar 4.81 m/s 268.13 Deg 0.74 ug/m3 0 ug/m3
2021-07-18 13:00 8.41 ug/m3 -0.21 ug/m3 96.64 ug/m3 43.31 ug/m3 14.49 ug/m3 0.18 mg/m3 27.2 C 60.82 % 1,005.88 mbar 4.78 m/s 264.85 Deg 1.22 ug/m3 0 ug/m3
2021-07-18 12:00 9.78 ug/m3 -0.2 ug/m3 96.87 ug/m3 30.67 ug/m3 9.67 ug/m3 0.23 mg/m3 26.53 C 64.68 % 1,006.03 mbar 5.2 m/s 261.15 Deg 1.46 ug/m3 0 ug/m3
2021-07-18 11:00 9.49 ug/m3 -0.19 ug/m3 94.94 ug/m3 27.75 ug/m3 12.19 ug/m3 0.19 mg/m3 26.36 C 63.88 % 1,006.40 mbar 4.74 m/s 254.78 Deg 1.49 ug/m3 0 ug/m3
2021-07-18 10:00 9.48 ug/m3 -0.19 ug/m3 91.14 ug/m3 26.3 ug/m3 13.71 ug/m3 0.19 mg/m3 26.02 C 64.56 % 1,006.68 mbar 4.3 m/s 254.35 Deg 1.44 ug/m3 0 ug/m3
2021-07-18 09:00 10.75 ug/m3 -0.23 ug/m3 89.51 ug/m3 29.5 ug/m3 13.04 ug/m3 0.2 mg/m3 25.71 C 64.8 % 1,006.84 mbar 3.7 m/s 261.3 Deg 1.4 ug/m3 0 ug/m3
2021-07-18 08:00 10.93 ug/m3 -0.24 ug/m3 86.64 ug/m3 48.85 ug/m3 21.56 ug/m3 0.18 mg/m3 24.97 C 70 % 1,006.72 mbar 3.87 m/s 255.13 Deg 1.16 ug/m3 0 ug/m3
2021-07-18 07:00 10.52 ug/m3 -0.22 ug/m3 80.11 ug/m3 39.73 ug/m3 8.57 ug/m3 0.18 mg/m3 24.33 C 75.72 % 1,006.71 mbar 2.95 m/s 253.52 Deg 0.76 ug/m3 0 ug/m3
2021-07-18 06:00 9.7 ug/m3 -0.2 ug/m3 78.39 ug/m3 43.9 ug/m3 7.12 ug/m3 0.16 mg/m3 23.52 C 76.85 % 1,006.50 mbar 2.78 m/s 256.1 Deg 0.42 ug/m3 0 ug/m3
2021-07-18 05:00 6.89 ug/m3 -0.24 ug/m3 80.56 ug/m3 24.24 ug/m3 9.14 ug/m3 0.14 mg/m3 23.38 C 77.7 % 1,006.52 mbar 2.26 m/s 259.87 Deg -0.09 ug/m3 0 ug/m3
2021-07-18 04:00 5.93 ug/m3 -0.06 ug/m3 83.51 ug/m3 21.4 ug/m3 13.39 ug/m3 0.13 mg/m3 23.51 C 75.64 % 1,006.72 mbar 1.99 m/s 262.42 Deg -0.04 ug/m3 0 ug/m3
2021-07-18 03:00 6.59 ug/m3 -0.2 ug/m3 79.47 ug/m3 31.6 ug/m3 6.07 ug/m3 0.09 mg/m3 23.62 C 74.59 % 1,007.20 mbar 2.01 m/s 269.5 Deg -0.01 ug/m3 0 ug/m3
2021-07-18 02:00 7.75 ug/m3 -0.24 ug/m3 80.01 ug/m3 29.87 ug/m3 8.2 ug/m3 0.13 mg/m3 23.72 C 75.54 % 1,007.60 mbar 2.81 m/s 276.18 Deg -0.05 ug/m3 0 ug/m3
2021-07-18 01:00 9.66 ug/m3 -0.24 ug/m3 77.25 ug/m3 40.46 ug/m3 9.06 ug/m3 0.16 mg/m3 23.93 C 75.16 % 1,007.99 mbar 2.43 m/s 275.33 Deg 0.16 ug/m3 0 ug/m3
2021-07-18 00:00 13.66 ug/m3 -0.2 ug/m3 75.53 ug/m3 36.93 ug/m3 10.55 ug/m3 0.19 mg/m3 24.21 C 72.18 % 1,008.31 mbar 3.17 m/s 274.85 Deg 0.76 ug/m3 0 ug/m3
2021-07-17 23:00 15.98 ug/m3 -0.18 ug/m3 74.82 ug/m3 52.05 ug/m3 10.09 ug/m3 0.21 mg/m3 24.26 C 70.75 % 1,008.52 mbar 3.19 m/s 269.8 Deg 1.57 ug/m3 0 ug/m3
2021-07-17 22:00 11.58 ug/m3 -0.17 ug/m3 80.85 ug/m3 57.18 ug/m3 14.33 ug/m3 0.21 mg/m3 24.19 C 71.49 % 1,008.59 mbar 3.35 m/s 261.93 Deg 0.8 ug/m3 0 ug/m3
2021-07-17 21:00 12.31 ug/m3 -0.19 ug/m3 81.7 ug/m3 49.56 ug/m3 8.29 ug/m3 0.22 mg/m3 24.37 C 70.65 % 1,008.51 mbar 4.42 m/s 263.13 Deg 1.4 ug/m3 0 ug/m3
2021-07-17 20:00 17.75 ug/m3 -0.18 ug/m3 75.6 ug/m3 60.19 ug/m3 12.65 ug/m3 0.23 mg/m3 24.76 C 68.37 % 1,008.30 mbar 3.9 m/s 261.15 Deg 2.39 ug/m3 0 ug/m3
2021-07-17 19:00 13.46 ug/m3 -0.14 ug/m3 77.22 ug/m3 61.44 ug/m3 11.59 ug/m3 0.2 mg/m3 25.34 C 65.82 % 1,008.30 mbar 4.29 m/s 260.75 Deg 2.14 ug/m3 0 ug/m3
2021-07-17 18:00 11.53 ug/m3 -0.15 ug/m3 80.08 ug/m3 57.79 ug/m3 18.6 ug/m3 0.18 mg/m3 26.05 C 60.22 % 1,008.58 mbar 4.75 m/s 260.6 Deg 2.16 ug/m3 0 ug/m3
2021-07-17 17:00 11.76 ug/m3 -0.15 ug/m3 87.54 ug/m3 74.36 ug/m3 15.11 ug/m3 0.16 mg/m3 26.65 C 56.55 % 1,008.84 mbar 4.97 m/s 262.27 Deg 2.21 ug/m3 0 ug/m3
2021-07-17 16:00 8.81 ug/m3 -0.16 ug/m3 84.91 ug/m3 82.7 ug/m3 8.24 ug/m3 0.15 mg/m3 26.61 C 58.98 % 1,009.21 mbar 5.29 m/s 261.4 Deg 1.66 ug/m3 0 ug/m3
2021-07-17 15:00 11.28 ug/m3 -0.17 ug/m3 83.57 ug/m3 70.06 ug/m3 13.62 ug/m3 0.15 mg/m3 26.97 C 58.13 % 1,009.71 mbar 4.72 m/s 265.93 Deg 2.47 ug/m3 0 ug/m3
2021-07-17 14:00 11.3 ug/m3 -0.19 ug/m3 83.23 ug/m3 58.95 ug/m3 6.33 ug/m3 0.17 mg/m3 27.23 C 57.58 % 1,010.12 mbar 4.13 m/s 268.68 Deg 2.25 ug/m3 0 ug/m3
2021-07-17 13:00 11.84 ug/m3 -0.12 ug/m3 77.97 ug/m3 38.12 ug/m3 8.05 ug/m3 0.17 mg/m3 27.1 C 59.2 % 1,010.30 mbar 4.43 m/s 266.37 Deg 2.6 ug/m3 0 ug/m3
2021-07-17 12:00 15.34 ug/m3 -0.15 ug/m3 79.72 ug/m3 34.52 ug/m3 11.91 ug/m3 0.18 mg/m3 26.9 C 58.23 % 1,010.68 mbar 4.15 m/s 265.08 Deg 3.64 ug/m3 0 ug/m3
2021-07-17 11:00 16.16 ug/m3 -0.11 ug/m3 78.8 ug/m3 35.35 ug/m3 18.96 ug/m3 0.2 mg/m3 26.46 C 59.37 % 1,010.82 mbar 4.06 m/s 266.07 Deg 3.85 ug/m3 0 ug/m3
2021-07-17 10:00 17.47 ug/m3 -0.14 ug/m3 74.24 ug/m3 40.69 ug/m3 14.09 ug/m3 0.19 mg/m3 25.96 C 61.27 % 1,010.91 mbar 3.77 m/s 261.27 Deg 4.14 ug/m3 0 ug/m3
2021-07-17 09:00 19.83 ug/m3 -0.14 ug/m3 67.78 ug/m3 49.78 ug/m3 13.61 ug/m3 0.23 mg/m3 25.31 C 66.28 % 1,010.79 mbar 3.4 m/s 262.25 Deg 4.45 ug/m3 0 ug/m3
2021-07-17 08:00 21.68 ug/m3 -0.16 ug/m3 62.76 ug/m3 46.07 ug/m3 21.84 ug/m3 0.2 mg/m3 24.92 C 69.39 % 1,010.78 mbar 3 m/s 269.2 Deg 4.9 ug/m3 0 ug/m3
2021-07-17 07:00 19.7 ug/m3 -0.16 ug/m3 62.34 ug/m3 44.09 ug/m3 13.65 ug/m3 0.19 mg/m3 24.39 C 72.94 % 1,010.58 mbar 2.76 m/s 272.58 Deg 3.67 ug/m3 0 ug/m3
2021-07-17 06:00 16.77 ug/m3 -0.18 ug/m3 62.46 ug/m3 43.88 ug/m3 13.07 ug/m3 0.18 mg/m3 23.92 C 75.41 % 1,010.53 mbar 2.48 m/s 275.8 Deg 1.58 ug/m3 0 ug/m3
2021-07-17 05:00 9.83 ug/m3 -0.18 ug/m3 70.62 ug/m3 41.42 ug/m3 5.96 ug/m3 0.13 mg/m3 23.76 C 75.69 % 1,010.67 mbar 2.52 m/s 271.62 Deg 0.52 ug/m3 0 ug/m3
2021-07-17 04:00 8.32 ug/m3 -0.14 ug/m3 70.65 ug/m3 30.47 ug/m3 7.24 ug/m3 0.12 mg/m3 23.92 C 74.24 % 1,010.72 mbar 2.27 m/s 273.65 Deg 0.22 ug/m3 0 ug/m3
2021-07-17 03:00 5.38 ug/m3 -0.21 ug/m3 74.66 ug/m3 21.67 ug/m3 8.43 ug/m3 0.08 mg/m3 24.08 C 73.37 % 1,011.08 mbar 2.9 m/s 272.42 Deg -0.2 ug/m3 0 ug/m3
2021-07-17 02:00 7.92 ug/m3 -0.19 ug/m3 73.81 ug/m3 27.1 ug/m3 9.97 ug/m3 0.11 mg/m3 24.24 C 72.01 % 1,011.47 mbar 3.15 m/s 276.88 Deg 0.08 ug/m3 0 ug/m3
2021-07-17 01:00 9.99 ug/m3 -0.2 ug/m3 70.9 ug/m3 48.45 ug/m3 15.48 ug/m3 0.14 mg/m3 24.44 C 71.51 % 1,011.87 mbar 3.13 m/s 274.43 Deg 0.51 ug/m3 0 ug/m3
2021-07-17 00:00 12.82 ug/m3 -0.21 ug/m3 68.28 ug/m3 54.78 ug/m3 7.79 ug/m3 0.18 mg/m3 24.62 C 70.48 % 1,011.91 mbar 2.94 m/s 268.2 Deg 0.79 ug/m3 0 ug/m3
2021-07-16 23:00 14.57 ug/m3 -0.19 ug/m3 67.09 ug/m3 44.88 ug/m3 10.18 ug/m3 0.2 mg/m3 24.69 C 68.57 % 1,012.11 mbar 2.76 m/s 266.22 Deg 0.84 ug/m3 0 ug/m3
2021-07-16 22:00 12.76 ug/m3 -0.15 ug/m3 67.98 ug/m3 47.47 ug/m3 13.11 ug/m3 0.19 mg/m3 24.77 C 66.88 % 1,012.07 mbar 3.26 m/s 258.47 Deg 1.35 ug/m3 0 ug/m3
2021-07-16 21:00 15.56 ug/m3 -0.15 ug/m3 68.53 ug/m3 57.52 ug/m3 4.49 ug/m3 0.21 mg/m3 25.17 C 63.32 % 1,011.91 mbar 3.35 m/s 259.67 Deg 1.97 ug/m3 0 ug/m3
2021-07-16 20:00 21.21 ug/m3 -0.11 ug/m3 65.13 ug/m3 57.59 ug/m3 5.1 ug/m3 0.22 mg/m3 25.79 C 57.54 % 1,011.69 mbar 3.72 m/s 258.55 Deg 3.27 ug/m3 0 ug/m3
2021-07-16 19:00 22.22 ug/m3 -0.1 ug/m3 64.5 ug/m3 42.31 ug/m3 5.68 ug/m3 0.21 mg/m3 27 C 51.95 % 1,011.74 mbar 3.65 m/s 258.4 Deg 4.93 ug/m3 0 ug/m3
2021-07-16 18:00 26.13 ug/m3 -0.05 ug/m3 64.13 ug/m3 42.86 ug/m3 4.96 ug/m3 0.23 mg/m3 28.49 C 45.37 % 1,011.60 mbar 3.41 m/s 263.28 Deg 5.88 ug/m3 0 ug/m3
2021-07-16 17:00 21.19 ug/m3 -0.06 ug/m3 72.74 ug/m3 43.99 ug/m3 5.83 ug/m3 0.18 mg/m3 29.38 C 43.13 % 1,011.74 mbar 3.4 m/s 259.6 Deg 4.46 ug/m3 0 ug/m3
2021-07-16 16:00 23.27 ug/m3 -0.09 ug/m3 73.23 ug/m3 34.59 ug/m3 5.13 ug/m3 0.18 mg/m3 30.04 C 37.78 % 1,011.97 mbar 3.21 m/s 279.4 Deg 4.58 ug/m3 0 ug/m3
2021-07-16 15:00 20.53 ug/m3 -0.1 ug/m3 75.43 ug/m3 28.6 ug/m3 7.55 ug/m3 0.17 mg/m3 29.88 C 37.58 % 1,012.57 mbar 3.07 m/s 297.58 Deg 5.6 ug/m3 0 ug/m3
2021-07-16 14:00 20.73 ug/m3 -0.07 ug/m3 72.2 ug/m3 16.47 ug/m3 9.89 ug/m3 0.2 mg/m3 29.47 C 42.63 % 1,012.92 mbar 2.81 m/s 315.13 Deg 6.83 ug/m3 0 ug/m3
2021-07-16 13:00 25.7 ug/m3 0.02 ug/m3 67.48 ug/m3 17.5 ug/m3 13.5 ug/m3 0.24 mg/m3 29.55 C 45.95 % 1,013.09 mbar 2.17 m/s 318.28 Deg 10.25 ug/m3 0 ug/m3
2021-07-16 12:00 24.2 ug/m3 -0.03 ug/m3 69.66 ug/m3 27.81 ug/m3 7.22 ug/m3 0.23 mg/m3 28.29 C 62.51 % 1,013.21 mbar 2.44 m/s 328.83 Deg 11.53 ug/m3 0 ug/m3
2021-07-16 11:00 26.64 ug/m3 -0.04 ug/m3 60.47 ug/m3 29.52 ug/m3 12.59 ug/m3 0.26 mg/m3 28.36 C 65.98 % 1,013.04 mbar 2.04 m/s 326.57 Deg 11.59 ug/m3 0 ug/m3
2021-07-16 10:00 31.1 ug/m3 0.13 ug/m3 54.12 ug/m3 43.2 ug/m3 20.83 ug/m3 0.34 mg/m3 26.93 C 73.01 % 1,012.97 mbar 2.1 m/s 118.48 Deg 21.75 ug/m3 0 ug/m3
2021-07-16 09:00 23.75 ug/m3 0.07 ug/m3 54.17 ug/m3 67.61 ug/m3 21.74 ug/m3 0.3 mg/m3 26.45 C 76.57 % 1,012.65 mbar 2.16 m/s 110.2 Deg 20.66 ug/m3 0 ug/m3
2021-07-16 08:00 21.4 ug/m3 -0.06 ug/m3 43.3 ug/m3 65.94 ug/m3 24.6 ug/m3 0.25 mg/m3 26.37 C 76.97 % 1,012.69 mbar 1.62 m/s 303.7 Deg 12.12 ug/m3 0 ug/m3
2021-07-16 07:00 36.77 ug/m3 0.03 ug/m3 24.87 ug/m3 55.5 ug/m3 13.29 ug/m3 0.37 mg/m3 25.74 C 75.71 % 1,012.33 mbar 1.14 m/s 269.93 Deg 13.69 ug/m3 0 ug/m3
2021-07-16 06:00 38.91 ug/m3 0.04 ug/m3 11.32 ug/m3 42.72 ug/m3 7.26 ug/m3 0.42 mg/m3 25.07 C 77.4 % 1,012.19 mbar 0.91 m/s 261.93 Deg 16.12 ug/m3 0 ug/m3
2021-07-16 05:00 19.12 ug/m3 -0.16 ug/m3 33.97 ug/m3 23.75 ug/m3 4.64 ug/m3 0.19 mg/m3 24.85 C 77.18 % 1,012.34 mbar 1.09 m/s 247.78 Deg 2.44 ug/m3 0 ug/m3
2021-07-16 04:00 9.92 ug/m3 -0.16 ug/m3 48.32 ug/m3 24.13 ug/m3 6.15 ug/m3 0.14 mg/m3 24.9 C 76.18 % 1,012.19 mbar 1.37 m/s 257.65 Deg 0.46 ug/m3 0 ug/m3
2021-07-16 03:00 5.84 ug/m3 -0.17 ug/m3 52.85 ug/m3 32.89 ug/m3 8.01 ug/m3 0.09 mg/m3 25.1 C 73.82 % 1,012.38 mbar 0.95 m/s 248.93 Deg -0.11 ug/m3 0 ug/m3
2021-07-16 02:00 5.15 ug/m3 -0.22 ug/m3 58.51 ug/m3 29.23 ug/m3 4.19 ug/m3 0.14 mg/m3 25.17 C 74.46 % 1,012.67 mbar 1.41 m/s 252.77 Deg -0.17 ug/m3 0 ug/m3
2021-07-16 01:00 5.94 ug/m3 -0.24 ug/m3 58.48 ug/m3 40.7 ug/m3 5.09 ug/m3 0.14 mg/m3 25.37 C 73.72 % 1,013.14 mbar 1.93 m/s 255.63 Deg -0.08 ug/m3 0 ug/m3
2021-07-16 00:00 13.14 ug/m3 -0.17 ug/m3 53.78 ug/m3 28.69 ug/m3 7.19 ug/m3 0.16 mg/m3 25.69 C 66.62 % 1,013.41 mbar 1.25 m/s 242.42 Deg 0.62 ug/m3 0 ug/m3
2021-07-15 23:00 19.78 ug/m3 -0.14 ug/m3 52.24 ug/m3 23.3 ug/m3 7.44 ug/m3 0.22 mg/m3 26.03 C 59.37 % 1,013.75 mbar 1.02 m/s 239.82 Deg 1.56 ug/m3 0 ug/m3
2021-07-15 22:00 19.9 ug/m3 -0.12 ug/m3 53.6 ug/m3 35.1 ug/m3 10.94 ug/m3 0.21 mg/m3 26.07 C 57.39 % 1,014.09 mbar 1.59 m/s 255.27 Deg 1.45 ug/m3 0 ug/m3
2021-07-15 21:00 21.38 ug/m3 -0.1 ug/m3 51.42 ug/m3 30.15 ug/m3 10.63 ug/m3 0.23 mg/m3 26.08 C 61.12 % 1,013.94 mbar 1.1 m/s 241.38 Deg 1.45 ug/m3 0 ug/m3
2021-07-15 20:00 16.95 ug/m3 -0.14 ug/m3 56.64 ug/m3 43.67 ug/m3 4.69 ug/m3 0.2 mg/m3 26.28 C 61.82 % 1,013.64 mbar 2.19 m/s 248.28 Deg 2.03 ug/m3 0 ug/m3
2021-07-15 19:00 17.92 ug/m3 -0.09 ug/m3 52.44 ug/m3 48.35 ug/m3 6 ug/m3 0.21 mg/m3 26.98 C 59.99 % 1,013.60 mbar 2.73 m/s 257.55 Deg 3.48 ug/m3 0 ug/m3
2021-07-15 18:00 17.93 ug/m3 -0.09 ug/m3 55.96 ug/m3 35.39 ug/m3 8.9 ug/m3 0.21 mg/m3 27.96 C 54.71 % 1,013.56 mbar 3.2 m/s 259.2 Deg 4.16 ug/m3 0 ug/m3
2021-07-15 17:00 18.78 ug/m3 -0.09 ug/m3 63.67 ug/m3 22.32 ug/m3 5.62 ug/m3 0.2 mg/m3 28.52 C 52.86 % 1,013.86 mbar 2.99 m/s 252.47 Deg 5.33 ug/m3 0 ug/m3
2021-07-15 16:00 20.67 ug/m3 -0.05 ug/m3 67.52 ug/m3 18.34 ug/m3 5.2 ug/m3 0.19 mg/m3 29.49 C 42.97 % 1,014.07 mbar 2.81 m/s 264.63 Deg 4.96 ug/m3 0 ug/m3
2021-07-15 15:00 16.32 ug/m3 -0.05 ug/m3 64.37 ug/m3 15.89 ug/m3 6.24 ug/m3 0.17 mg/m3 29.7 C 41.2 % 1,014.04 mbar 2.83 m/s 233.47 Deg 5.24 ug/m3 0 ug/m3
2021-07-15 14:00 21.9 ug/m3 -0.08 ug/m3 61.75 ug/m3 19.08 ug/m3 8.81 ug/m3 0.19 mg/m3 29.92 C 44.26 % 1,014.23 mbar 2.66 m/s 264.3 Deg 7.34 ug/m3 0 ug/m3
2021-07-15 13:00 27.12 ug/m3 0.02 ug/m3 65.04 ug/m3 30.53 ug/m3 10.86 ug/m3 0.29 mg/m3 28.68 C 60.91 % 1,014.39 mbar 2.19 m/s 163.35 Deg 14.65 ug/m3 0 ug/m3
2021-07-15 12:00 25.41 ug/m3 0.13 ug/m3 64.9 ug/m3 33.53 ug/m3 16.38 ug/m3 0.29 mg/m3 27.47 C 66.57 % 1,014.77 mbar 2.5 m/s 99.77 Deg 23.51 ug/m3 0 ug/m3
2021-07-15 11:00 28.15 ug/m3 0.11 ug/m3 57.94 ug/m3 32.09 ug/m3 11.67 ug/m3 0.32 mg/m3 27.22 C 70.31 % 1,014.94 mbar 1.98 m/s 117.95 Deg 22.14 ug/m3 0 ug/m3
2021-07-15 10:00 26.22 ug/m3 0.15 ug/m3 54.45 ug/m3 38.63 ug/m3 17.56 ug/m3 0.36 mg/m3 26.74 C 71.89 % 1,014.60 mbar 2.54 m/s 55.22 Deg 26.93 ug/m3 0 ug/m3
2021-07-15 09:00 25.61 ug/m3 0.13 ug/m3 51.87 ug/m3 47.04 ug/m3 14.01 ug/m3 0.34 mg/m3 26.54 C 73.41 % 1,014.35 mbar 2.4 m/s 54.25 Deg 23.04 ug/m3 0 ug/m3
2021-07-15 08:00 22.64 ug/m3 0.15 ug/m3 40.21 ug/m3 46.64 ug/m3 18.47 ug/m3 0.37 mg/m3 25.99 C 76.34 % 1,014.34 mbar 2.06 m/s 61.55 Deg 26.84 ug/m3 0 ug/m3
2021-07-15 07:00 13.27 ug/m3 0.1 ug/m3 45.21 ug/m3 47.06 ug/m3 19.59 ug/m3 0.32 mg/m3 25.61 C 78.4 % 1,014.08 mbar 2.26 m/s 51.1 Deg 24.54 ug/m3 0 ug/m3
2021-07-15 06:00 17 ug/m3 0.09 ug/m3 39.8 ug/m3 54.77 ug/m3 10.15 ug/m3 0.35 mg/m3 25.49 C 80.07 % 1,013.62 mbar 1.99 m/s 60.25 Deg 19.15 ug/m3 0 ug/m3
2021-07-15 05:00 10.42 ug/m3 -0.13 ug/m3 49.41 ug/m3 62.37 ug/m3 7.03 ug/m3 0.15 mg/m3 25.47 C 81.31 % 1,013.31 mbar 2.43 m/s 60.52 Deg 6.5 ug/m3 0 ug/m3
2021-07-15 04:00 5.18 ug/m3 -0.14 ug/m3 59.6 ug/m3 71.02 ug/m3 11.17 ug/m3 0.12 mg/m3 25.71 C 81.64 % 1,013.12 mbar 2.79 m/s 56.38 Deg 2.16 ug/m3 0 ug/m3
2021-07-15 03:00 5.07 ug/m3 -0.16 ug/m3 67.33 ug/m3 47.18 ug/m3 16.42 ug/m3 0.1 mg/m3 25.96 C 79.19 % 1,013.17 mbar 1.59 m/s 50.75 Deg 1.1 ug/m3 0 ug/m3
2021-07-15 02:00 7.35 ug/m3 -0.18 ug/m3 53.58 ug/m3 34.54 ug/m3 9.11 ug/m3 0.15 mg/m3 26.18 C 73.1 % 1,013.33 mbar 0.69 m/s 245.08 Deg 0.33 ug/m3 0 ug/m3
2021-07-15 01:00 8.54 ug/m3 -0.16 ug/m3 53.86 ug/m3 46.5 ug/m3 11.08 ug/m3 0.15 mg/m3 26.4 C 70.72 % 1,013.45 mbar 0.95 m/s 287.5 Deg 0.01 ug/m3 0 ug/m3
2021-07-15 00:00 11.53 ug/m3 -0.21 ug/m3 53.71 ug/m3 56.21 ug/m3 12.45 ug/m3 0.17 mg/m3 26.62 C 68.98 % 1,013.69 mbar 1.02 m/s 256.53 Deg 0.29 ug/m3 0 ug/m3
2021-07-14 23:00 15.34 ug/m3 -0.1 ug/m3 51.79 ug/m3 58.51 ug/m3 11.25 ug/m3 0.2 mg/m3 26.81 C 68.51 % 1,013.64 mbar 1.55 m/s 260.05 Deg 1.11 ug/m3 0 ug/m3
2021-07-14 22:00 17 ug/m3 -0.23 ug/m3 50.24 ug/m3 54.17 ug/m3 16.22 ug/m3 0.22 mg/m3 27.15 C 67.46 % 1,013.62 mbar 1.47 m/s 266.6 Deg 1.53 ug/m3 0 ug/m3
2021-07-14 21:00 19.3 ug/m3 -0.18 ug/m3 52.66 ug/m3 51.27 ug/m3 8.92 ug/m3 0.23 mg/m3 27.7 C 64.02 % 1,013.31 mbar 1.69 m/s 273.37 Deg 1.35 ug/m3 0 ug/m3
2021-07-14 20:00 36.13 ug/m3 -0.14 ug/m3 46.67 ug/m3 75.62 ug/m3 11.23 ug/m3 0.26 mg/m3 28.4 C 62.51 % 1,012.72 mbar 1.7 m/s 272.82 Deg 4.28 ug/m3 0 ug/m3
2021-07-14 19:00 30.61 ug/m3 -0.1 ug/m3 50.94 ug/m3 72.67 ug/m3 17.93 ug/m3 0.26 mg/m3 29.18 C 61.65 % 1,012.39 mbar 1.91 m/s 269.18 Deg 4.69 ug/m3 0 ug/m3
2021-07-14 18:00 20.3 ug/m3 -0.13 ug/m3 62.53 ug/m3 57.25 ug/m3 11.58 ug/m3 0.22 mg/m3 29.67 C 60.27 % 1,012.31 mbar 2.47 m/s 266.08 Deg 3.78 ug/m3 0 ug/m3
2021-07-14 17:00 17.73 ug/m3 -0.13 ug/m3 71.24 ug/m3 51.2 ug/m3 19.65 ug/m3 0.21 mg/m3 30.31 C 54.49 % 1,012.65 mbar 2.76 m/s 240.78 Deg 4.06 ug/m3 0 ug/m3
2021-07-14 16:00 15.39 ug/m3 -0.16 ug/m3 71.7 ug/m3 51.8 ug/m3 19.7 ug/m3 0.19 mg/m3 30.64 C 56.97 % 1,012.86 mbar 2.1 m/s 238.02 Deg 3.78 ug/m3 0 ug/m3
2021-07-14 15:00 20.03 ug/m3 -0.08 ug/m3 68.11 ug/m3 50.44 ug/m3 14.64 ug/m3 0.25 mg/m3 29.37 C 66.65 % 1,013.07 mbar 2.75 m/s 147.28 Deg 10.03 ug/m3 0 ug/m3
2021-07-14 14:00 18.44 ug/m3 0.02 ug/m3 77.8 ug/m3 45.34 ug/m3 10.15 ug/m3 0.29 mg/m3 28.19 C 73.98 % 1,013.15 mbar 3.02 m/s 50.17 Deg 20.1 ug/m3 0 ug/m3
2021-07-14 13:00 24.84 ug/m3 0.01 ug/m3 77.96 ug/m3 40.13 ug/m3 15.03 ug/m3 0.35 mg/m3 28.16 C 74.9 % 1,013.45 mbar 3.12 m/s 48.67 Deg 18.01 ug/m3 0 ug/m3
2021-07-14 12:00 19.84 ug/m3 -0.01 ug/m3 82.26 ug/m3 45.92 ug/m3 14.76 ug/m3 0.33 mg/m3 27.83 C 75.77 % 1,013.71 mbar 3.31 m/s 51.63 Deg 15.85 ug/m3 0 ug/m3
2021-07-14 11:00 25.3 ug/m3 0.05 ug/m3 75.27 ug/m3 43.75 ug/m3 23.27 ug/m3 0.37 mg/m3 27.68 C 75.75 % 1,013.51 mbar 2.9 m/s 53.78 Deg 19.54 ug/m3 0 ug/m3
2021-07-14 10:00 29.53 ug/m3 0.08 ug/m3 73.61 ug/m3 67.4 ug/m3 11.72 ug/m3 0.34 mg/m3 28.01 C 74.24 % 1,013.31 mbar 2.65 m/s 43.1 Deg 19.38 ug/m3 0 ug/m3
2021-07-14 09:00 36.03 ug/m3 0.09 ug/m3 68.8 ug/m3 54.5 ug/m3 16.65 ug/m3 0.33 mg/m3 28.64 C 66.28 % 1,013.01 mbar 2.31 m/s 102.22 Deg 19.14 ug/m3 0 ug/m3
2021-07-14 08:00 28.6 ug/m3 -0.04 ug/m3 68.57 ug/m3 54.76 ug/m3 19.76 ug/m3 0.28 mg/m3 28.1 C 65.67 % 1,012.90 mbar 1.17 m/s 225.03 Deg 6.17 ug/m3 1.08 ug/m3
2021-07-14 07:00 32.13 ug/m3 -0.07 ug/m3 49.93 ug/m3 45.19 ug/m3 14.84 ug/m3 0.36 mg/m3 26.8 C 78.4 % 1,012.86 mbar 1.14 m/s 255.92 Deg 7.41 ug/m3 1.4 ug/m3
2021-07-14 06:00 31.72 ug/m3 -0.13 ug/m3 38.79 ug/m3 42.56 ug/m3 16.79 ug/m3 0.36 mg/m3 26.19 C 81.95 % 1,012.60 mbar 1.02 m/s 242.72 Deg 4.8 ug/m3 0.86 ug/m3
2021-07-14 05:00 19.17 ug/m3 -0.18 ug/m3 55.61 ug/m3 26.87 ug/m3 11.88 ug/m3 0.2 mg/m3 26.26 C 80.36 % 1,012.28 mbar 0.87 m/s 238.95 Deg 1.13 ug/m3 0.52 ug/m3
2021-07-14 04:00 8.34 ug/m3 -0.19 ug/m3 68.36 ug/m3 28.57 ug/m3 7.79 ug/m3 0.16 mg/m3 26.41 C 76.28 % 1,012.18 mbar 1.01 m/s 260.05 Deg -0.18 ug/m3 0.37 ug/m3
2021-07-14 03:00 4.86 ug/m3 -0.21 ug/m3 74.79 ug/m3 44.06 ug/m3 10.27 ug/m3 0.11 mg/m3 26.45 C 79.53 % 1,011.93 mbar 1.06 m/s 233.38 Deg -0.34 ug/m3 0.52 ug/m3
2021-07-14 02:00 4.12 ug/m3 -0.23 ug/m3 78.59 ug/m3 45.93 ug/m3 7.83 ug/m3 0.15 mg/m3 26.71 C 79.29 % 1,012.08 mbar 0.87 m/s 226.3 Deg -0.33 ug/m3 0.49 ug/m3
2021-07-14 01:00 5.21 ug/m3 -0.22 ug/m3 82.3 ug/m3 58.7 ug/m3 11.13 ug/m3 0.17 mg/m3 26.9 C 79.15 % 1,012.35 mbar 1.3 m/s 218.82 Deg 0.32 ug/m3 0.47 ug/m3
2021-07-14 00:00 7.23 ug/m3 -0.19 ug/m3 81.12 ug/m3 50.82 ug/m3 11 ug/m3 0.18 mg/m3 27.01 C 78.14 % 1,012.25 mbar 1.63 m/s 203.85 Deg 0.37 ug/m3 0.6 ug/m3
2021-07-13 23:00 8.63 ug/m3 -0.18 ug/m3 81.72 ug/m3 40.72 ug/m3 11.07 ug/m3 0.2 mg/m3 27.35 C 74.43 % 1,012.20 mbar 1.78 m/s 201.18 Deg -0.17 ug/m3 0.63 ug/m3
2021-07-13 22:00 13.33 ug/m3 -0.18 ug/m3 80.27 ug/m3 58.82 ug/m3 11.93 ug/m3 0.22 mg/m3 27.65 C 72.73 % 1,012.21 mbar 1.32 m/s 204.72 Deg 0.42 ug/m3 0.68 ug/m3
2021-07-13 21:00 14.51 ug/m3 -0.1 ug/m3 79.44 ug/m3 53.73 ug/m3 9.29 ug/m3 0.26 mg/m3 27.89 C 69.79 % 1,012.15 mbar 1.22 m/s 171 Deg 3.84 ug/m3 0.82 ug/m3
2021-07-13 20:00 16.63 ug/m3 -0.13 ug/m3 78.71 ug/m3 43.14 ug/m3 3.41 ug/m3 0.31 mg/m3 28.3 C 66.11 % 1,011.77 mbar 1.38 m/s 151.48 Deg 6.4 ug/m3 1.31 ug/m3
2021-07-13 19:00 22.13 ug/m3 -0.13 ug/m3 77.67 ug/m3 28.57 ug/m3 4.09 ug/m3 0.27 mg/m3 29.29 C 55.39 % 1,011.46 mbar 1.87 m/s 162.85 Deg 5.91 ug/m3 1.73 ug/m3
2021-07-13 18:00 15.14 ug/m3 -0.16 ug/m3 84.72 ug/m3 19.89 ug/m3 5.39 ug/m3 0.19 mg/m3 30.24 C 47.09 % 1,011.73 mbar 2.18 m/s 194.42 Deg 1.72 ug/m3 0.52 ug/m3
2021-07-13 17:00 16.99 ug/m3 -0.14 ug/m3 79.18 ug/m3 19.23 ug/m3 4.18 ug/m3 0.2 mg/m3 30.76 C 45.6 % 1,012.06 mbar 2.35 m/s 203.17 Deg 3.5 ug/m3 0.58 ug/m3
2021-07-13 16:00 25.09 ug/m3 -0.14 ug/m3 76.87 ug/m3 16.99 ug/m3 5.11 ug/m3 0.19 mg/m3 31.17 C 44.34 % 1,012.60 mbar 2.86 m/s 211.47 Deg 4.2 ug/m3 0.42 ug/m3
2021-07-13 15:00 23.9 ug/m3 -0.14 ug/m3 80.02 ug/m3 9.98 ug/m3 4.6 ug/m3 0.18 mg/m3 30.85 C 48.67 % 1,012.83 mbar 3.15 m/s 206.7 Deg 2.56 ug/m3 0.44 ug/m3
2021-07-13 14:00 13.92 ug/m3 -0.12 ug/m3 79.2 ug/m3 9.21 ug/m3 5.32 ug/m3 0.18 mg/m3 30.73 C 52.36 % 1,012.74 mbar 2.92 m/s 198.07 Deg 3.99 ug/m3 0.34 ug/m3
2021-07-13 13:00 15.03 ug/m3 -0.15 ug/m3 72.31 ug/m3 9.17 ug/m3 7.49 ug/m3 0.19 mg/m3 30.39 C 52.15 % 1,012.62 mbar 3.25 m/s 198.98 Deg 3.98 ug/m3 0.42 ug/m3
2021-07-13 12:00 11.02 ug/m3 -0.11 ug/m3 70.88 ug/m3 11.87 ug/m3 8.66 ug/m3 0.17 mg/m3 30.07 C 52.92 % 1,012.97 mbar 3.21 m/s 204.2 Deg 2.82 ug/m3 0.52 ug/m3
2021-07-13 11:00 11.86 ug/m3 -0.13 ug/m3 67.91 ug/m3 14.93 ug/m3 12.37 ug/m3 0.17 mg/m3 29.36 C 60.1 % 1,013.00 mbar 2.77 m/s 199.93 Deg 3.4 ug/m3 0.47 ug/m3
2021-07-13 10:00 10.43 ug/m3 -0.16 ug/m3 65.22 ug/m3 23.75 ug/m3 17.56 ug/m3 0.17 mg/m3 28.49 C 68.93 % 1,013.02 mbar 3.07 m/s 206.73 Deg 3.05 ug/m3 0.47 ug/m3
2021-07-13 09:00 14.94 ug/m3 -0.14 ug/m3 62.94 ug/m3 39.49 ug/m3 25.45 ug/m3 0.19 mg/m3 28.18 C 72.06 % 1,013.10 mbar 2.79 m/s 198.85 Deg 3.84 ug/m3 0.76 ug/m3
2021-07-13 08:00 21.32 ug/m3 -0.08 ug/m3 56.42 ug/m3 69.07 ug/m3 29 ug/m3 0.24 mg/m3 27.63 C 76.55 % 1,013.14 mbar 1.87 m/s 195.35 Deg 5.5 ug/m3 1.21 ug/m3
2021-07-13 07:00 31.64 ug/m3 0.06 ug/m3 37.57 ug/m3 68.14 ug/m3 4.84 ug/m3 0.41 mg/m3 26.53 C 84.54 % 1,012.55 mbar 1.24 m/s 147.77 Deg 13.66 ug/m3 1.97 ug/m3
2021-07-13 06:00 34.63 ug/m3 0 ug/m3 24.79 ug/m3 47.41 ug/m3 5.22 ug/m3 0.33 mg/m3 26.06 C 86.18 % 1,012.16 mbar 0.98 m/s 161.9 Deg 9.7 ug/m3 1.63 ug/m3
2021-07-13 05:00 21.29 ug/m3 -0 ug/m3 38.95 ug/m3 35.34 ug/m3 3.93 ug/m3 0.27 mg/m3 26.34 C 81.62 % 1,012.15 mbar 1.09 m/s 114.25 Deg 10.35 ug/m3 1.08 ug/m3
2021-07-13 04:00 8.3 ug/m3 -0.07 ug/m3 59.53 ug/m3 35.34 ug/m3 4.99 ug/m3 0.16 mg/m3 26.42 C 79.06 % 1,012.88 mbar 0.59 m/s 129.76 Deg 3.68 ug/m3 0.26 ug/m3
2021-07-13 03:00 5.31 ug/m3 -0.22 ug/m3 56.74 ug/m3 42.67 ug/m3 6.96 ug/m3 0.1 mg/m3 26.36 C 82.87 % 1,013.43 mbar 1.08 m/s 243.02 Deg -0.15 ug/m3 0.28 ug/m3
2021-07-13 02:00 2.74 ug/m3 -0.23 ug/m3 59.16 ug/m3 45.4 ug/m3 10.1 ug/m3 0.13 mg/m3 26.59 C 83.49 % 1,013.28 mbar 1.27 m/s 200.93 Deg -0.25 ug/m3 0.26 ug/m3
2021-07-13 01:00 3.08 ug/m3 -0.26 ug/m3 61.83 ug/m3 43.55 ug/m3 15.96 ug/m3 0.14 mg/m3 26.7 C 82.84 % 1,013.49 mbar 1.24 m/s 201.82 Deg -0.21 ug/m3 0.31 ug/m3
2021-07-13 00:00 4.64 ug/m3 -0.23 ug/m3 65.7 ug/m3 60.96 ug/m3 13.43 ug/m3 0.15 mg/m3 26.88 C 82.02 % 1,013.93 mbar 1.47 m/s 205.48 Deg -0.17 ug/m3 0.31 ug/m3
2021-07-12 23:00 7.55 ug/m3 -0.2 ug/m3 63.55 ug/m3 65.97 ug/m3 13.43 ug/m3 0.16 mg/m3 26.98 C 81.11 % 1,014.02 mbar 1.49 m/s 196.05 Deg 0.69 ug/m3 0.44 ug/m3
2021-07-12 22:00 16.43 ug/m3 -0.12 ug/m3 53.28 ug/m3 74.64 ug/m3 11.69 ug/m3 0.23 mg/m3 27.23 C 78.81 % 1,013.75 mbar 1.52 m/s 148.62 Deg 5.31 ug/m3 1 ug/m3
2021-07-12 21:00 10.85 ug/m3 -0.18 ug/m3 58.88 ug/m3 58.47 ug/m3 7.65 ug/m3 0.22 mg/m3 27.62 C 75.01 % 1,013.43 mbar 1.08 m/s 188.97 Deg 1.27 ug/m3 0.55 ug/m3
2021-07-12 20:00 12.18 ug/m3 -0.13 ug/m3 64.5 ug/m3 55.59 ug/m3 7.81 ug/m3 0.2 mg/m3 28.21 C 69.68 % 1,013.07 mbar 1.41 m/s 200.52 Deg 1.42 ug/m3 0.49 ug/m3
2021-07-12 19:00 17.84 ug/m3 -0.07 ug/m3 65.86 ug/m3 35.84 ug/m3 4.98 ug/m3 0.25 mg/m3 29.2 C 62.31 % 1,012.89 mbar 1.62 m/s 189.53 Deg 3.58 ug/m3 0.71 ug/m3
2021-07-12 18:00 26.08 ug/m3 -0.04 ug/m3 67.38 ug/m3 23.72 ug/m3 8.1 ug/m3 0.3 mg/m3 30.52 C 50.65 % 1,012.72 mbar 1.72 m/s 141.58 Deg 13.2 ug/m3 1.1 ug/m3
2021-07-12 17:00 26.83 ug/m3 0.07 ug/m3 68.08 ug/m3 25.42 ug/m3 13.25 ug/m3 0.32 mg/m3 30.96 C 50.6 % 1,013.06 mbar 1.79 m/s 153.83 Deg 18.49 ug/m3 0.97 ug/m3
2021-07-12 16:00 27.46 ug/m3 0.03 ug/m3 88.8 ug/m3 42.51 ug/m3 5.71 ug/m3 0.31 mg/m3 30.46 C 52.99 % 1,013.37 mbar 2.77 m/s 40.3 Deg 20.24 ug/m3 0.86 ug/m3
2021-07-12 15:00 18.21 ug/m3 -0.1 ug/m3 90.84 ug/m3 34.19 ug/m3 5.2 ug/m3 0.23 mg/m3 30.61 C 61.28 % 1,013.59 mbar 2.31 m/s 324.37 Deg 7.84 ug/m3 2.71 ug/m3
2021-07-12 14:00 21.8 ug/m3 -0.02 ug/m3 82.44 ug/m3 28.47 ug/m3 7.71 ug/m3 0.26 mg/m3 31.15 C 58.17 % 1,013.79 mbar 1.62 m/s 245.82 Deg 9.77 ug/m3 0.47 ug/m3
2021-07-12 13:00 21.32 ug/m3 -0.08 ug/m3 72.72 ug/m3 18.81 ug/m3 10.02 ug/m3 0.23 mg/m3 30.35 C 60.82 % 1,014.08 mbar 2.06 m/s 176.97 Deg 9.1 ug/m3 0.63 ug/m3
2021-07-12 12:00 29.01 ug/m3 0.06 ug/m3 73.76 ug/m3 16.9 ug/m3 14.85 ug/m3 0.33 mg/m3 30.53 C 57.53 % 1,014.34 mbar 1.84 m/s 164.5 Deg 19.49 ug/m3 1.87 ug/m3
2021-07-12 11:00 33.4 ug/m3 0.07 ug/m3 72.34 ug/m3 27.84 ug/m3 17.85 ug/m3 0.3 mg/m3 29.99 C 58.51 % 1,014.31 mbar 1.57 m/s 145.45 Deg 14.95 ug/m3 0.86 ug/m3
2021-07-12 10:00 47.77 ug/m3 0.16 ug/m3 67.52 ug/m3 28.81 ug/m3 18.34 ug/m3 0.37 mg/m3 28.96 C 62.74 % 1,014.09 mbar 2.28 m/s 231.9 Deg 25.56 ug/m3 2.66 ug/m3
2021-07-12 09:00 38.35 ug/m3 0.18 ug/m3 56.25 ug/m3 42.89 ug/m3 17.77 ug/m3 0.37 mg/m3 28.35 C 64.93 % 1,013.84 mbar 1.58 m/s 151.2 Deg 26.8 ug/m3 0.97 ug/m3
2021-07-12 08:00 37.3 ug/m3 0.19 ug/m3 43.21 ug/m3 79.09 ug/m3 17.68 ug/m3 0.44 mg/m3 27.33 C 71.7 % 1,013.61 mbar 1.53 m/s 127.97 Deg 28.77 ug/m3 1 ug/m3
2021-07-12 07:00 38.19 ug/m3 0.19 ug/m3 33.53 ug/m3 70.79 ug/m3 18.64 ug/m3 0.46 mg/m3 26.05 C 81.34 % 1,013.39 mbar 1.65 m/s 104.78 Deg 28.17 ug/m3 1.99 ug/m3
2021-07-12 06:00 40.04 ug/m3 0.17 ug/m3 28.18 ug/m3 52.12 ug/m3 5.9 ug/m3 0.46 mg/m3 25.49 C 81.98 % 1,013.30 mbar 1.2 m/s 55.62 Deg 23.04 ug/m3 1.66 ug/m3
2021-07-12 05:00 26.11 ug/m3 -0.03 ug/m3 40.86 ug/m3 44.8 ug/m3 7.28 ug/m3 0.23 mg/m3 25.24 C 81.07 % 1,013.13 mbar 1.3 m/s 65.12 Deg 8.88 ug/m3 2.02 ug/m3
2021-07-12 04:00 31.02 ug/m3 0.03 ug/m3 47.27 ug/m3 37.13 ug/m3 8.68 ug/m3 0.34 mg/m3 25.38 C 80.1 % 1,013.17 mbar 0.78 m/s 85.02 Deg 9.67 ug/m3 0.4 ug/m3
2021-07-12 03:00 4.44 ug/m3 -0.2 ug/m3 69.78 ug/m3 40.02 ug/m3 7.89 ug/m3 0.1 mg/m3 25.71 C 77.35 % 1,013.34 mbar 0.78 m/s 193.7 Deg -0.33 ug/m3 0.31 ug/m3
2021-07-12 02:00 9.8 ug/m3 -0.24 ug/m3 61.78 ug/m3 38.08 ug/m3 9.4 ug/m3 0.14 mg/m3 25.78 C 75.46 % 1,013.45 mbar 0.93 m/s 243.02 Deg -0.19 ug/m3 0.73 ug/m3
2021-07-12 01:00 19.68 ug/m3 -0.19 ug/m3 52.52 ug/m3 40.06 ug/m3 13.29 ug/m3 0.21 mg/m3 26.26 C 71.08 % 1,013.68 mbar 0.8 m/s 232.97 Deg 0.34 ug/m3 1.15 ug/m3
2021-07-12 00:00 27.33 ug/m3 -0.05 ug/m3 45.75 ug/m3 42.53 ug/m3 7.96 ug/m3 0.39 mg/m3 26.47 C 68.74 % 1,013.60 mbar 0.47 m/s 306.65 Deg 8.46 ug/m3 0.73 ug/m3
2021-07-11 23:00 10.87 ug/m3 -0.16 ug/m3 64.85 ug/m3 40.64 ug/m3 12.66 ug/m3 0.15 mg/m3 26.61 C 65.64 % 1,013.78 mbar 1.11 m/s 222 Deg -0.07 ug/m3 0.65 ug/m3
2021-07-11 22:00 13.3 ug/m3 -0.19 ug/m3 68.82 ug/m3 40.54 ug/m3 10.91 ug/m3 0.18 mg/m3 27.01 C 63.9 % 1,013.90 mbar 1.18 m/s 199.97 Deg 0.24 ug/m3 0.73 ug/m3
2021-07-11 21:00 12.54 ug/m3 -0.15 ug/m3 71.11 ug/m3 37.98 ug/m3 8.76 ug/m3 0.18 mg/m3 27.11 C 66.69 % 1,013.65 mbar 1.4 m/s 232.5 Deg 0.02 ug/m3 1.05 ug/m3
2021-07-11 20:00 22.69 ug/m3 -0.09 ug/m3 65.72 ug/m3 38.53 ug/m3 4.93 ug/m3 0.3 mg/m3 27.53 C 66.83 % 1,013.25 mbar 1.24 m/s 302.72 Deg 3.82 ug/m3 0.79 ug/m3
2021-07-11 19:00 18.34 ug/m3 -0.11 ug/m3 71.95 ug/m3 37.39 ug/m3 3.9 ug/m3 0.25 mg/m3 27.9 C 64.2 % 1,013.10 mbar 2.04 m/s 315.62 Deg 4.19 ug/m3 0.58 ug/m3
2021-07-11 18:00 13.03 ug/m3 -0.12 ug/m3 83.37 ug/m3 17.2 ug/m3 3.71 ug/m3 0.19 mg/m3 28 C 59.31 % 1,012.94 mbar 2.63 m/s 311.18 Deg 2.6 ug/m3 0.37 ug/m3
2021-07-11 17:00 12.97 ug/m3 -0.1 ug/m3 81.56 ug/m3 13.31 ug/m3 2.56 ug/m3 0.2 mg/m3 28.17 C 55.05 % 1,012.90 mbar 2.36 m/s 183.27 Deg 6.46 ug/m3 0.81 ug/m3
2021-07-11 16:00 13.1 ug/m3 -0.01 ug/m3 81.61 ug/m3 6.12 ug/m3 3.26 ug/m3 0.2 mg/m3 28.54 C 50.8 % 1,012.86 mbar 2.99 m/s 29.93 Deg 9.6 ug/m3 0.58 ug/m3
2021-07-11 15:00 15.29 ug/m3 -0.05 ug/m3 82.55 ug/m3 4.57 ug/m3 4.68 ug/m3 0.17 mg/m3 29.21 C 45.45 % 1,012.89 mbar 2.07 m/s 95.73 Deg 6.94 ug/m3 0.77 ug/m3
2021-07-11 14:00 10.87 ug/m3 -0.05 ug/m3 79.93 ug/m3 7.23 ug/m3 5.52 ug/m3 0.16 mg/m3 29.17 C 41.56 % 1,012.89 mbar 2.46 m/s 185.63 Deg 7.78 ug/m3 0.28 ug/m3
2021-07-11 13:00 12.78 ug/m3 -0.09 ug/m3 78.02 ug/m3 10.38 ug/m3 6.49 ug/m3 0.15 mg/m3 29.03 C 43.4 % 1,013.06 mbar 2.45 m/s 318.03 Deg 3.91 ug/m3 0.63 ug/m3
2021-07-11 12:00 11.29 ug/m3 -0.11 ug/m3 73.37 ug/m3 12.61 ug/m3 8.43 ug/m3 0.17 mg/m3 28.82 C 47.77 % 1,013.20 mbar 2.34 m/s 320.93 Deg 3.95 ug/m3 0.34 ug/m3
2021-07-11 11:00 12.45 ug/m3 -0.15 ug/m3 75.07 ug/m3 17.41 ug/m3 10.65 ug/m3 0.19 mg/m3 28.38 C 53.8 % 1,013.07 mbar 2.6 m/s 316.03 Deg 4.19 ug/m3 0.44 ug/m3
2021-07-11 10:00 12.44 ug/m3 -0.19 ug/m3 77.5 ug/m3 25.17 ug/m3 14.47 ug/m3 0.17 mg/m3 27.68 C 59.9 % 1,012.73 mbar 2.93 m/s 307.18 Deg 2.82 ug/m3 1.07 ug/m3
2021-07-11 09:00 13.63 ug/m3 -0.13 ug/m3 68.24 ug/m3 20.01 ug/m3 16.04 ug/m3 0.19 mg/m3 27.16 C 67.4 % 1,012.29 mbar 2.32 m/s 233.35 Deg 4.27 ug/m3 1.36 ug/m3
2021-07-11 08:00 14.11 ug/m3 -0.04 ug/m3 60.97 ug/m3 24.59 ug/m3 8.83 ug/m3 0.22 mg/m3 26.43 C 69.91 % 1,012.02 mbar 2.63 m/s 29.57 Deg 8.01 ug/m3 2.15 ug/m3
2021-07-11 07:00 7.83 ug/m3 -0.12 ug/m3 65.6 ug/m3 39.71 ug/m3 10.15 ug/m3 0.18 mg/m3 25.93 C 72.12 % 1,011.78 mbar 3.1 m/s 42.65 Deg 4.4 ug/m3 0.84 ug/m3
2021-07-11 06:00 7.93 ug/m3 -0.14 ug/m3 66.2 ug/m3 42.56 ug/m3 13.67 ug/m3 0.2 mg/m3 25.63 C 75.18 % 1,011.35 mbar 2.82 m/s 46.08 Deg 3.03 ug/m3 0.71 ug/m3
2021-07-11 05:00 6.8 ug/m3 -0.19 ug/m3 68.77 ug/m3 32.9 ug/m3 4.69 ug/m3 0.13 mg/m3 25.54 C 73.75 % 1,010.92 mbar 2.86 m/s 48.57 Deg 2.68 ug/m3 0.47 ug/m3
2021-07-11 04:00 6.77 ug/m3 -0.15 ug/m3 62.71 ug/m3 38.99 ug/m3 6.72 ug/m3 0.14 mg/m3 25.33 C 77.47 % 1,010.73 mbar 1.93 m/s 50.35 Deg 1.74 ug/m3 0.77 ug/m3
2021-07-11 03:00 11.18 ug/m3 -0.15 ug/m3 50.5 ug/m3 37.75 ug/m3 6.45 ug/m3 0.12 mg/m3 25.44 C 78.08 % 1,010.80 mbar 0.68 m/s 94.22 Deg 2.03 ug/m3 0.42 ug/m3
2021-07-11 02:00 10.76 ug/m3 -0.2 ug/m3 52.35 ug/m3 31.77 ug/m3 6.64 ug/m3 0.16 mg/m3 25.38 C 76.7 % 1,011.06 mbar 0.89 m/s 242.17 Deg 0.29 ug/m3 0.49 ug/m3
2021-07-11 01:00 11.71 ug/m3 -0.15 ug/m3 57.64 ug/m3 35.65 ug/m3 9.29 ug/m3 0.17 mg/m3 25.69 C 73.72 % 1,011.25 mbar 1.45 m/s 234.02 Deg 0.62 ug/m3 0.42 ug/m3
2021-07-11 00:00 13.81 ug/m3 -0.17 ug/m3 59.17 ug/m3 29.16 ug/m3 12.08 ug/m3 0.18 mg/m3 25.92 C 70.55 % 1,011.86 mbar 1.81 m/s 219.2 Deg 1.14 ug/m3 0.68 ug/m3
2021-07-10 23:00 15.5 ug/m3 -0.16 ug/m3 59.03 ug/m3 37.13 ug/m3 6.68 ug/m3 0.19 mg/m3 25.95 C 70 % 1,012.24 mbar 1.42 m/s 218.83 Deg 1.86 ug/m3 0.79 ug/m3
2021-07-10 22:00 16.98 ug/m3 -0.15 ug/m3 58.11 ug/m3 43.03 ug/m3 10.08 ug/m3 0.21 mg/m3 26.02 C 70.7 % 1,012.22 mbar 1.34 m/s 227.77 Deg 1.39 ug/m3 0.58 ug/m3
2021-07-10 21:00 20.17 ug/m3 -0.16 ug/m3 60.92 ug/m3 39.08 ug/m3 12.19 ug/m3 0.22 mg/m3 26.31 C 68.41 % 1,012.05 mbar 1.54 m/s 241.62 Deg 1.74 ug/m3 0.94 ug/m3
2021-07-10 20:00 25.65 ug/m3 -0.13 ug/m3 57.33 ug/m3 36.98 ug/m3 6.22 ug/m3 0.26 mg/m3 26.86 C 67.59 % 1,011.70 mbar 1.82 m/s 288.9 Deg 4.07 ug/m3 0.61 ug/m3
2021-07-10 19:00 21.56 ug/m3 -0.13 ug/m3 65.32 ug/m3 40.79 ug/m3 9.62 ug/m3 0.23 mg/m3 27.66 C 65.82 % 1,011.64 mbar 2.21 m/s 303.13 Deg 4.08 ug/m3 0.82 ug/m3
2021-07-10 18:00 16.73 ug/m3 -0.07 ug/m3 71.63 ug/m3 33.81 ug/m3 8.31 ug/m3 0.19 mg/m3 29.01 C 58.49 % 1,011.64 mbar 2.28 m/s 309.42 Deg 4.58 ug/m3 0.42 ug/m3
2021-07-10 17:00 16.22 ug/m3 -0.11 ug/m3 82.76 ug/m3 25.97 ug/m3 4.55 ug/m3 0.19 mg/m3 29.36 C 57.22 % 1,011.93 mbar 2.13 m/s 333.6 Deg 4.24 ug/m3 0.31 ug/m3
2021-07-10 16:00 17.29 ug/m3 -0.1 ug/m3 79.11 ug/m3 18.2 ug/m3 5.95 ug/m3 0.18 mg/m3 30.59 C 42.84 % 1,012.16 mbar 2.17 m/s 328.67 Deg 6.68 ug/m3 0.42 ug/m3
2021-07-10 15:00 21.19 ug/m3 -0.09 ug/m3 84.09 ug/m3 24.68 ug/m3 5.43 ug/m3 0.24 mg/m3 30.27 C 54.55 % 1,012.53 mbar 2.33 m/s 184.72 Deg 8.27 ug/m3 1 ug/m3
2021-07-10 14:00 34.1 ug/m3 0.05 ug/m3 81.89 ug/m3 19.8 ug/m3 7.12 ug/m3 0.29 mg/m3 30.28 C 54.93 % 1,013.05 mbar 2.52 m/s 33.08 Deg 14.2 ug/m3 0.81 ug/m3
2021-07-10 13:00 21.35 ug/m3 0.1 ug/m3 81.85 ug/m3 18.62 ug/m3 7.45 ug/m3 0.31 mg/m3 28.75 C 62.68 % 1,013.50 mbar 3.07 m/s 50.3 Deg 16.83 ug/m3 2.78 ug/m3
2021-07-10 12:00 20.59 ug/m3 0.06 ug/m3 75.8 ug/m3 27.56 ug/m3 11.05 ug/m3 0.26 mg/m3 28.79 C 62.74 % 1,013.81 mbar 2.51 m/s 109.88 Deg 14.96 ug/m3 0.6 ug/m3
2021-07-10 11:00 13.87 ug/m3 -0.08 ug/m3 76.8 ug/m3 43.98 ug/m3 15.92 ug/m3 0.2 mg/m3 28.53 C 63.5 % 1,013.93 mbar 2.4 m/s 310.98 Deg 5.3 ug/m3 0.47 ug/m3
2021-07-10 10:00 18.39 ug/m3 -0.02 ug/m3 68.63 ug/m3 48.81 ug/m3 15.71 ug/m3 0.21 mg/m3 28.63 C 63.42 % 1,014.01 mbar 2.12 m/s 329.92 Deg 8.47 ug/m3 0.66 ug/m3
2021-07-10 09:00 20.99 ug/m3 -0.04 ug/m3 60.39 ug/m3 65.38 ug/m3 20.79 ug/m3 0.23 mg/m3 28.68 C 63.3 % 1,013.76 mbar 2.11 m/s 310.33 Deg 8.67 ug/m3 1.13 ug/m3
2021-07-10 08:00 21.67 ug/m3 -0.03 ug/m3 45.8 ug/m3 79.1 ug/m3 26.62 ug/m3 0.24 mg/m3 28.11 C 67.38 % 1,013.55 mbar 2.2 m/s 272.92 Deg 8.45 ug/m3 2.12 ug/m3
2021-07-10 07:00 25.81 ug/m3 0.02 ug/m3 32.16 ug/m3 62.65 ug/m3 10.74 ug/m3 0.32 mg/m3 27.51 C 71.65 % 1,013.26 mbar 1.38 m/s 261.6 Deg 8.78 ug/m3 0.97 ug/m3
2021-07-10 06:00 15.85 ug/m3 -0.14 ug/m3 41.05 ug/m3 47.48 ug/m3 12.37 ug/m3 0.19 mg/m3 26.42 C 79.85 % 1,012.91 mbar 1.06 m/s 225.8 Deg 2.03 ug/m3 0.42 ug/m3
2021-07-10 05:00 14.62 ug/m3 0.01 ug/m3 43.9 ug/m3 42.81 ug/m3 6.23 ug/m3 0.18 mg/m3 26.47 C 79.91 % 1,012.87 mbar 0.79 m/s 272.38 Deg 3.87 ug/m3 0.66 ug/m3
2021-07-10 04:00 8.38 ug/m3 -0.02 ug/m3 53.12 ug/m3 48.66 ug/m3 7.48 ug/m3 0.13 mg/m3 26.56 C 79.61 % 1,012.94 mbar 1.24 m/s 219.08 Deg 1.19 ug/m3 0.26 ug/m3
2021-07-10 03:00 4.79 ug/m3 0.19 ug/m3 57.8 ug/m3 40.6 ug/m3 8.25 ug/m3 0.11 mg/m3 26.68 C 79.41 % 1,013.29 mbar 1.47 m/s 218.75 Deg -0.22 ug/m3 0.37 ug/m3
2021-07-10 02:00 6.29 ug/m3 -0.04 ug/m3 57.67 ug/m3 31.01 ug/m3 11.22 ug/m3 0.14 mg/m3 26.74 C 79.3 % 1,013.80 mbar 1.57 m/s 232.6 Deg 0.2 ug/m3 0.31 ug/m3
2021-07-10 01:00 6.35 ug/m3 -0.17 ug/m3 56.42 ug/m3 39.35 ug/m3 15.03 ug/m3 0.15 mg/m3 26.96 C 78.43 % 1,014.19 mbar 2.22 m/s 230.27 Deg 0.12 ug/m3 0.42 ug/m3
2021-07-10 00:00 9.56 ug/m3 -0.16 ug/m3 51.1 ug/m3 68.63 ug/m3 25.81 ug/m3 0.19 mg/m3 27.04 C 79.41 % 1,014.45 mbar 2.37 m/s 240.03 Deg 0.8 ug/m3 0.44 ug/m3
2021-07-09 23:00 10.96 ug/m3 0.06 ug/m3 52.99 ug/m3 57.34 ug/m3 13.39 ug/m3 0.25 mg/m3 27.14 C 79.97 % 1,014.68 mbar 2.82 m/s 250.33 Deg 1.22 ug/m3 0.86 ug/m3
2021-07-09 22:00 15.8 ug/m3 0.23 ug/m3 59.44 ug/m3 70.87 ug/m3 12.52 ug/m3 0.25 mg/m3 27.41 C 76.76 % 1,014.78 mbar 2.26 m/s 263.72 Deg 1.88 ug/m3 0.65 ug/m3
2021-07-09 21:00 16.87 ug/m3 0.26 ug/m3 67.23 ug/m3 72.62 ug/m3 17.98 ug/m3 0.26 mg/m3 27.71 C 74.34 % 1,014.51 mbar 2.37 m/s 255.22 Deg 1.59 ug/m3 0.82 ug/m3
2021-07-09 20:00 20.96 ug/m3 -0.1 ug/m3 60.61 ug/m3 74.94 ug/m3 17.29 ug/m3 0.29 mg/m3 27.9 C 75.09 % 1,014.24 mbar 2.89 m/s 249.8 Deg 4.27 ug/m3 0.66 ug/m3
2021-07-09 19:00 15.49 ug/m3 -0.11 ug/m3 67.67 ug/m3 77.05 ug/m3 19.85 ug/m3 0.23 mg/m3 28.52 C 71.6 % 1,014.39 mbar 3.66 m/s 252.97 Deg 2.69 ug/m3 0.49 ug/m3
2021-07-09 18:00 17.13 ug/m3 -0.09 ug/m3 67.89 ug/m3 50.35 ug/m3 8.47 ug/m3 0.21 mg/m3 30.13 C 58.75 % 1,014.70 mbar 3.26 m/s 246.58 Deg 3.3 ug/m3 0.47 ug/m3
2021-07-09 17:00 21.53 ug/m3 -0.1 ug/m3 64.34 ug/m3 48.94 ug/m3 8.52 ug/m3 0.22 mg/m3 31.32 C 47.19 % 1,015.26 mbar 3.1 m/s 245.73 Deg 4.33 ug/m3 0.89 ug/m3
2021-07-09 16:00 17.27 ug/m3 -0.06 ug/m3 64.13 ug/m3 53.13 ug/m3 13.77 ug/m3 0.21 mg/m3 30.87 C 50.54 % 1,015.87 mbar 4.01 m/s 254.77 Deg 5.33 ug/m3 0.6 ug/m3
2021-07-09 15:00 15.59 ug/m3 -0.05 ug/m3 59.77 ug/m3 50.06 ug/m3 6.72 ug/m3 0.2 mg/m3 30.91 C 49.41 % 1,016.28 mbar 3.78 m/s 244.83 Deg 4.84 ug/m3 0.6 ug/m3
2021-07-09 14:00 18.96 ug/m3 -0.05 ug/m3 56.93 ug/m3 32.73 ug/m3 3.68 ug/m3 0.19 mg/m3 31.48 C 45.15 % 1,016.46 mbar 3.51 m/s 254.93 Deg 6.08 ug/m3 0.37 ug/m3
2021-07-09 13:00 24.4 ug/m3 -0 ug/m3 55.53 ug/m3 33.79 ug/m3 5.51 ug/m3 0.21 mg/m3 31.62 C 40.35 % 1,016.71 mbar 3.43 m/s 261.58 Deg 9.1 ug/m3 1.1 ug/m3
2021-07-09 12:00 22.36 ug/m3 -0.01 ug/m3 55.83 ug/m3 25.23 ug/m3 8.35 ug/m3 0.21 mg/m3 31.8 C 41.39 % 1,016.82 mbar 3.5 m/s 255.27 Deg 8.46 ug/m3 0.61 ug/m3
2021-07-09 11:00 26.01 ug/m3 0.02 ug/m3 49.88 ug/m3 19.55 ug/m3 10.96 ug/m3 0.18 mg/m3 32.83 C 27.7 % 1,016.91 mbar 3.01 m/s 246.92 Deg 9.27 ug/m3 0.87 ug/m3
2021-07-09 10:00 31.6 ug/m3 0.06 ug/m3 47.65 ug/m3 28.71 ug/m3 14.83 ug/m3 0.23 mg/m3 32.17 C 35.86 % 1,016.89 mbar 2.25 m/s 249.03 Deg 11.06 ug/m3 0.63 ug/m3
2021-07-09 09:00 44.32 ug/m3 0.12 ug/m3 46.94 ug/m3 45.35 ug/m3 23.61 ug/m3 0.27 mg/m3 30.65 C 46.17 % 1,016.85 mbar 2.26 m/s 244.97 Deg 12.18 ug/m3 0.98 ug/m3
2021-07-09 08:00 31.49 ug/m3 0.18 ug/m3 43.67 ug/m3 47.78 ug/m3 17.06 ug/m3 0.36 mg/m3 28.71 C 63.32 % 1,016.93 mbar 2.06 m/s 236.43 Deg 11.25 ug/m3 0.81 ug/m3
2021-07-09 07:00 29.32 ug/m3 0.03 ug/m3 38.5 ug/m3 42.21 ug/m3 12.75 ug/m3 0.32 mg/m3 27.36 C 74.97 % 1,017.01 mbar 1.76 m/s 239.72 Deg 9.6 ug/m3 1.28 ug/m3
2021-07-09 06:00 32.26 ug/m3 -0.02 ug/m3 34.8 ug/m3 33.59 ug/m3 4.83 ug/m3 0.33 mg/m3 27.04 C 71.91 % 1,016.99 mbar 1.58 m/s 243.25 Deg 7.8 ug/m3 0.86 ug/m3
2021-07-09 05:00 23.81 ug/m3 -0.06 ug/m3 43.76 ug/m3 18.88 ug/m3 5.58 ug/m3 0.2 mg/m3 27.14 C 56.38 % 1,016.71 mbar 1.04 m/s 229.12 Deg 2.54 ug/m3 1 ug/m3
2021-07-09 04:00 17.5 ug/m3 -0.1 ug/m3 46.96 ug/m3 19.07 ug/m3 4.98 ug/m3 0.18 mg/m3 27.48 C 51.23 % 1,016.46 mbar 0.76 m/s 227.03 Deg 0.49 ug/m3 1.02 ug/m3
2021-07-09 03:00 10.65 ug/m3 -0.17 ug/m3 57.81 ug/m3 17.64 ug/m3 5.24 ug/m3 0.11 mg/m3 27.46 C 59.76 % 1,016.47 mbar 0.77 m/s 223.58 Deg -0.28 ug/m3 0.39 ug/m3
2021-07-09 02:00 11.5 ug/m3 -0.16 ug/m3 64.68 ug/m3 21.83 ug/m3 7.7 ug/m3 0.16 mg/m3 27.58 C 63.04 % 1,016.88 mbar 0.77 m/s 242.83 Deg -0.26 ug/m3 0.47 ug/m3
2021-07-09 01:00 10.32 ug/m3 -0.18 ug/m3 57.8 ug/m3 30.44 ug/m3 12.62 ug/m3 0.17 mg/m3 27.5 C 68.55 % 1,017.32 mbar 0.91 m/s 241.18 Deg -0.19 ug/m3 0.47 ug/m3
2021-07-09 00:00 12.32 ug/m3 -0.13 ug/m3 55.73 ug/m3 47.43 ug/m3 21.9 ug/m3 0.18 mg/m3 27.33 C 73.96 % 1,017.73 mbar 1.01 m/s 246.75 Deg 0.3 ug/m3 0.61 ug/m3
2021-07-08 23:00 13.81 ug/m3 -0.14 ug/m3 55.87 ug/m3 49.08 ug/m3 8.15 ug/m3 0.21 mg/m3 27.73 C 73.91 % 1,018.01 mbar 1.52 m/s 269.7 Deg 0.97 ug/m3 0.55 ug/m3
2021-07-08 22:00 21.13 ug/m3 -0.1 ug/m3 55.41 ug/m3 39.19 ug/m3 5.13 ug/m3 0.25 mg/m3 28.58 C 63.3 % 1,017.71 mbar 1.71 m/s 267.65 Deg 1.7 ug/m3 0.79 ug/m3
2021-07-08 21:00 27.65 ug/m3 -0.06 ug/m3 53.43 ug/m3 34.52 ug/m3 4.94 ug/m3 0.29 mg/m3 29.61 C 50.37 % 1,017.28 mbar 1.36 m/s 267 Deg 1.67 ug/m3 1.6 ug/m3
2021-07-08 20:00 51.58 ug/m3 0.32 ug/m3 49.79 ug/m3 32.88 ug/m3 3.05 ug/m3 0.53 mg/m3 30.17 C 46.85 % 1,016.80 mbar 1.24 m/s 37.28 Deg 23.7 ug/m3 4.15 ug/m3
2021-07-08 19:00 48.58 ug/m3 0.41 ug/m3 53.43 ug/m3 27.05 ug/m3 4.24 ug/m3 0.64 mg/m3 30.6 C 45.19 % 1,016.63 mbar 1.69 m/s 63.23 Deg 31.67 ug/m3 1.21 ug/m3
2021-07-08 18:00 36.78 ug/m3 0.14 ug/m3 64.67 ug/m3 30.54 ug/m3 6.62 ug/m3 0.34 mg/m3 31.04 C 43.97 % 1,016.24 mbar 2.08 m/s 44.25 Deg 22.02 ug/m3 1.84 ug/m3
2021-07-08 17:00 38.5 ug/m3 0.2 ug/m3 64.64 ug/m3 19.34 ug/m3 6.18 ug/m3 0.37 mg/m3 29.91 C 52.56 % 1,016.44 mbar 3.19 m/s 57.57 Deg 27.24 ug/m3 3.25 ug/m3
2021-07-08 16:00 33.22 ug/m3 0.1 ug/m3 68.02 ug/m3 20.39 ug/m3 6.18 ug/m3 0.31 mg/m3 32.76 C 41.46 % 1,016.69 mbar 1.73 m/s 177.47 Deg 18.7 ug/m3 0.68 ug/m3
2021-07-08 15:00 34.1 ug/m3 0.16 ug/m3 70.28 ug/m3 13.84 ug/m3 5.92 ug/m3 0.34 mg/m3 32.54 C 41.28 % 1,016.79 mbar 1.6 m/s 97.08 Deg 22.45 ug/m3 1.21 ug/m3
2021-07-08 14:00 24.33 ug/m3 -0.04 ug/m3 76.41 ug/m3 11.28 ug/m3 6.07 ug/m3 0.27 mg/m3 31.65 C 44.43 % 1,016.90 mbar 1.92 m/s 248.58 Deg 13.4 ug/m3 0.68 ug/m3
2021-07-08 13:00 28.08 ug/m3 -0.01 ug/m3 75.62 ug/m3 15.78 ug/m3 9.19 ug/m3 0.29 mg/m3 30.97 C 49.97 % 1,017.19 mbar 2.09 m/s 267.07 Deg 12.95 ug/m3 1.1 ug/m3
2021-07-08 12:00 52.24 ug/m3 0.07 ug/m3 65.34 ug/m3 27.33 ug/m3 13.41 ug/m3 0.28 mg/m3 31.22 C 44.01 % 1,017.51 mbar 2.06 m/s 255.32 Deg 19.8 ug/m3 0.28 ug/m3
2021-07-08 11:00 17.67 ug/m3 -0.1 ug/m3 73.56 ug/m3 50.33 ug/m3 23.21 ug/m3 0.2 mg/m3 30.01 C 57.57 % 1,017.60 mbar 2.31 m/s 321.95 Deg 5.98 ug/m3 0.84 ug/m3
2021-07-08 10:00 25.98 ug/m3 -0.04 ug/m3 59.7 ug/m3 45.75 ug/m3 16.24 ug/m3 0.27 mg/m3 30.05 C 60.19 % 1,017.76 mbar 2.09 m/s 313.08 Deg 12.37 ug/m3 0.76 ug/m3
2021-07-08 09:00 34.34 ug/m3 0.07 ug/m3 46.94 ug/m3 53.6 ug/m3 26.45 ug/m3 0.33 mg/m3 30.35 C 55.49 % 1,017.54 mbar 2.1 m/s 291.82 Deg 14.54 ug/m3 3.08 ug/m3
2021-07-08 08:00 43.89 ug/m3 0.33 ug/m3 28.74 ug/m3 70.46 ug/m3 20.89 ug/m3 0.54 mg/m3 28.82 C 70.89 % 1,016.71 mbar 0.79 m/s 169.68 Deg 35.45 ug/m3 1.78 ug/m3
2021-07-08 07:00 29.74 ug/m3 0.23 ug/m3 38.6 ug/m3 56.79 ug/m3 9.39 ug/m3 0.49 mg/m3 26.92 C 82.26 % 1,015.82 mbar 0.74 m/s 55.55 Deg 25.33 ug/m3 3.04 ug/m3
2021-07-08 06:00 23.3 ug/m3 0.04 ug/m3 37.59 ug/m3 37.5 ug/m3 13.33 ug/m3 0.38 mg/m3 26.26 C 84.74 % 1,015.52 mbar 0.62 m/s 190.21 Deg 17.15 ug/m3 1.55 ug/m3
2021-07-08 05:00 16.4 ug/m3 -0.11 ug/m3 46.93 ug/m3 23.82 ug/m3 6.15 ug/m3 0.18 mg/m3 26.32 C 81.65 % 1,015.62 mbar 0.62 m/s 298.45 Deg 6.12 ug/m3 0.28 ug/m3
2021-07-08 04:00 11.67 ug/m3 -0.16 ug/m3 49.72 ug/m3 24.78 ug/m3 5.55 ug/m3 0.13 mg/m3 26.5 C 79.25 % 1,015.75 mbar 0.87 m/s 270.85 Deg -0.12 ug/m3 0.21 ug/m3
2021-07-08 03:00 13.5 ug/m3 -0.24 ug/m3 49.88 ug/m3 27.48 ug/m3 8.03 ug/m3 0.1 mg/m3 26.85 C 74.8 % 1,015.95 mbar 1.35 m/s 257.07 Deg -0.02 ug/m3 0.31 ug/m3
2021-07-08 02:00 5.92 ug/m3 -0.22 ug/m3 60.23 ug/m3 23.28 ug/m3 9.1 ug/m3 0.13 mg/m3 27.13 C 71.83 % 1,015.94 mbar 1.2 m/s 246.23 Deg -0.15 ug/m3 0.26 ug/m3
2021-07-08 01:00 8.36 ug/m3 -0.19 ug/m3 57.85 ug/m3 22.49 ug/m3 10.4 ug/m3 0.15 mg/m3 27.32 C 71.12 % 1,015.93 mbar 0.99 m/s 222.98 Deg 0.34 ug/m3 0.42 ug/m3
2021-07-08 00:00 8.76 ug/m3 -0.17 ug/m3 58.22 ug/m3 36.27 ug/m3 9.41 ug/m3 0.17 mg/m3 27.5 C 70.79 % 1,016.15 mbar 1.21 m/s 219.6 Deg -0.05 ug/m3 0.47 ug/m3
2021-07-07 23:00 8.79 ug/m3 -0.14 ug/m3 62.25 ug/m3 33.64 ug/m3 5.56 ug/m3 0.17 mg/m3 27.79 C 68.49 % 1,016.00 mbar 1.43 m/s 202.18 Deg 0.62 ug/m3 0.7 ug/m3
2021-07-07 22:00 16.06 ug/m3 -0.12 ug/m3 63.29 ug/m3 29.92 ug/m3 5.13 ug/m3 0.26 mg/m3 28.43 C 58.33 % 1,015.79 mbar 0.99 m/s 186.63 Deg 3.57 ug/m3 1.76 ug/m3
2021-07-07 21:00 14.62 ug/m3 -0.15 ug/m3 70.57 ug/m3 17.02 ug/m3 4.93 ug/m3 0.25 mg/m3 28.97 C 50.34 % 1,015.47 mbar 1.26 m/s 195.78 Deg 1.38 ug/m3 0.71 ug/m3
2021-07-07 20:00 19.26 ug/m3 -0.09 ug/m3 71.16 ug/m3 15.34 ug/m3 7.26 ug/m3 0.22 mg/m3 29.85 C 43.76 % 1,014.94 mbar 1.28 m/s 199.02 Deg 1.83 ug/m3 0.65 ug/m3
2021-07-07 19:00 22.47 ug/m3 -0.03 ug/m3 72.42 ug/m3 26.84 ug/m3 10.5 ug/m3 0.24 mg/m3 30.49 C 44.83 % 1,014.58 mbar 1.15 m/s 216.1 Deg 3.26 ug/m3 1.07 ug/m3
2021-07-07 18:00 30.45 ug/m3 0.04 ug/m3 68.88 ug/m3 35.01 ug/m3 10.46 ug/m3 0.38 mg/m3 29.34 C 63.98 % 1,014.33 mbar 2.05 m/s 30.05 Deg 19.23 ug/m3 0.94 ug/m3
2021-07-07 17:00 22.66 ug/m3 0.1 ug/m3 77.05 ug/m3 30.66 ug/m3 15.24 ug/m3 0.37 mg/m3 28.62 C 65.71 % 1,014.49 mbar 3.24 m/s 48.25 Deg 20.51 ug/m3 1.24 ug/m3
2021-07-07 16:00 22.55 ug/m3 0.04 ug/m3 86.54 ug/m3 39.49 ug/m3 17.68 ug/m3 0.34 mg/m3 28.47 C 67.02 % 1,014.80 mbar 3.16 m/s 47.17 Deg 17.68 ug/m3 1.63 ug/m3
2021-07-07 15:00 27.57 ug/m3 0.06 ug/m3 83.03 ug/m3 31.93 ug/m3 7.8 ug/m3 0.3 mg/m3 28.61 C 65.04 % 1,014.90 mbar 3.33 m/s 52.38 Deg 21.37 ug/m3 0.97 ug/m3
2021-07-07 14:00 26.03 ug/m3 0.06 ug/m3 83.84 ug/m3 16.01 ug/m3 10.1 ug/m3 0.3 mg/m3 28.96 C 60.38 % 1,015.03 mbar 3.41 m/s 49.45 Deg 20.86 ug/m3 0.79 ug/m3
2021-07-07 13:00 31.09 ug/m3 0.11 ug/m3 86.75 ug/m3 17.13 ug/m3 14.18 ug/m3 0.34 mg/m3 29.07 C 57.68 % 1,014.86 mbar 3.27 m/s 53.72 Deg 23.16 ug/m3 1 ug/m3
2021-07-07 12:00 26.06 ug/m3 0.13 ug/m3 77.84 ug/m3 19.47 ug/m3 6.64 ug/m3 0.4 mg/m3 28.36 C 63.24 % 1,014.87 mbar 3.37 m/s 52.58 Deg 23.85 ug/m3 0.94 ug/m3
2021-07-07 11:00 29.74 ug/m3 0.11 ug/m3 74.23 ug/m3 26.88 ug/m3 9.57 ug/m3 0.36 mg/m3 28.56 C 64.38 % 1,014.48 mbar 2.95 m/s 43.7 Deg 24.6 ug/m3 0.63 ug/m3
2021-07-07 10:00 32.28 ug/m3 0.34 ug/m3 67.42 ug/m3 21.28 ug/m3 12.87 ug/m3 0.43 mg/m3 28.2 C 62.08 % 1,014.23 mbar 2.86 m/s 56.22 Deg 37.67 ug/m3 2.52 ug/m3
2021-07-07 09:00 50.75 ug/m3 0.38 ug/m3 60.95 ug/m3 28.26 ug/m3 21.28 ug/m3 0.45 mg/m3 28.03 C 58.96 % 1,013.91 mbar 1.8 m/s 53.77 Deg 44.91 ug/m3 1.19 ug/m3
2021-07-07 08:00 38.68 ug/m3 0.26 ug/m3 66.58 ug/m3 50.27 ug/m3 24.43 ug/m3 0.45 mg/m3 26.89 C 64.57 % 1,013.68 mbar 1.73 m/s 54.08 Deg 33.11 ug/m3 3.02 ug/m3
2021-07-07 07:00 30.23 ug/m3 0.19 ug/m3 62.98 ug/m3 62.72 ug/m3 12.43 ug/m3 0.46 mg/m3 25.79 C 80.92 % 1,013.28 mbar 1.37 m/s 59.27 Deg 23.38 ug/m3 1.66 ug/m3
2021-07-07 06:00 30.05 ug/m3 0.16 ug/m3 52.53 ug/m3 42.6 ug/m3 9.21 ug/m3 0.43 mg/m3 25.35 C 82.65 % 1,012.89 mbar 1.16 m/s 62.48 Deg 22.81 ug/m3 2.54 ug/m3
2021-07-07 05:00 38.5 ug/m3 0.13 ug/m3 41.8 ug/m3 34.87 ug/m3 10.61 ug/m3 0.46 mg/m3 25.47 C 78.88 % 1,012.84 mbar 0.81 m/s 61.23 Deg 14.56 ug/m3 2.73 ug/m3
2021-07-07 04:00 12.03 ug/m3 -0.12 ug/m3 70.95 ug/m3 38.28 ug/m3 12.48 ug/m3 0.17 mg/m3 25.8 C 75.86 % 1,013.04 mbar 0.45 m/s 234.65 Deg 1.71 ug/m3 0.31 ug/m3
2021-07-07 03:00 6.78 ug/m3 -0.2 ug/m3 77.39 ug/m3 24.36 ug/m3 9.5 ug/m3 0.11 mg/m3 25.98 C 75.04 % 1,013.11 mbar 0.74 m/s 296.15 Deg -0.36 ug/m3 0.37 ug/m3
2021-07-07 02:00 9.98 ug/m3 -0.21 ug/m3 79.26 ug/m3 27.39 ug/m3 12.05 ug/m3 0.15 mg/m3 26.14 C 75.28 % 1,013.32 mbar 0.68 m/s 313.24 Deg 0.29 ug/m3 0.44 ug/m3
2021-07-07 01:00 9.97 ug/m3 -0.19 ug/m3 84.34 ug/m3 34.04 ug/m3 15.31 ug/m3 0.17 mg/m3 26.36 C 73.84 % 1,013.38 mbar 0.93 m/s 277.67 Deg -0.27 ug/m3 0.63 ug/m3
2021-07-07 00:00 16.99 ug/m3 -0.14 ug/m3 74.73 ug/m3 30.79 ug/m3 11.54 ug/m3 0.21 mg/m3 26.66 C 67.14 % 1,013.58 mbar 0.98 m/s 242.42 Deg -0.06 ug/m3 0.87 ug/m3
2021-07-06 23:00 17.89 ug/m3 -0.15 ug/m3 80.3 ug/m3 28.31 ug/m3 10.43 ug/m3 0.2 mg/m3 26.72 C 66.75 % 1,013.48 mbar 0.7 m/s 195.33 Deg 1.21 ug/m3 1.45 ug/m3
2021-07-06 22:00 34.72 ug/m3 0.05 ug/m3 68.5 ug/m3 45.02 ug/m3 14.56 ug/m3 0.33 mg/m3 26.73 C 67.2 % 1,013.29 mbar 0.88 m/s 103.37 Deg 18.07 ug/m3 1.03 ug/m3
2021-07-06 21:00 21.98 ug/m3 0.03 ug/m3 80.7 ug/m3 35.8 ug/m3 6.57 ug/m3 0.34 mg/m3 26.64 C 67.89 % 1,012.96 mbar 1.49 m/s 58.6 Deg 15.39 ug/m3 2.1 ug/m3
2021-07-06 20:00 20.41 ug/m3 0.07 ug/m3 82.52 ug/m3 31.92 ug/m3 9.21 ug/m3 0.35 mg/m3 26.7 C 67.07 % 1,012.61 mbar 2.18 m/s 56.68 Deg 19.02 ug/m3 0.82 ug/m3
2021-07-06 19:00 28.76 ug/m3 0.11 ug/m3 80.44 ug/m3 25.26 ug/m3 10.33 ug/m3 0.33 mg/m3 27.23 C 63.61 % 1,012.62 mbar 2.56 m/s 56.18 Deg 22.17 ug/m3 0.86 ug/m3
2021-07-06 18:00 24.61 ug/m3 0.05 ug/m3 86.59 ug/m3 20.94 ug/m3 11.39 ug/m3 0.38 mg/m3 27.5 C 61.25 % 1,012.57 mbar 3.24 m/s 57.28 Deg 19.31 ug/m3 2.68 ug/m3
2021-07-06 17:00 29.57 ug/m3 0.07 ug/m3 83.72 ug/m3 22.49 ug/m3 8.73 ug/m3 0.33 mg/m3 27.51 C 61.67 % 1,012.79 mbar 3.6 m/s 61.22 Deg 19.14 ug/m3 1.26 ug/m3
2021-07-06 16:00 22.31 ug/m3 0.11 ug/m3 83.13 ug/m3 21.82 ug/m3 5.78 ug/m3 0.32 mg/m3 27.6 C 58.96 % 1,012.70 mbar 3.95 m/s 62.98 Deg 22.76 ug/m3 1.4 ug/m3
2021-07-06 15:00 26.11 ug/m3 0.11 ug/m3 78.43 ug/m3 17.95 ug/m3 7.7 ug/m3 0.28 mg/m3 28.03 C 51.41 % 1,012.94 mbar 3.82 m/s 61.37 Deg 22.91 ug/m3 19.77 ug/m3
2021-07-06 14:00 24.96 ug/m3 0.07 ug/m3 81.2 ug/m3 20.47 ug/m3 8.41 ug/m3 0.3 mg/m3 27.76 C 57.08 % 1,013.08 mbar 3.46 m/s 56.07 Deg 20.81 ug/m3 1.39 ug/m3
2021-07-06 13:00 27 ug/m3 0.15 ug/m3 80.82 ug/m3 24.06 ug/m3 10.02 ug/m3 0.37 mg/m3 27.43 C 64.62 % 1,013.39 mbar 3.49 m/s 61.82 Deg 28.19 ug/m3 0.94 ug/m3
2021-07-06 12:00 22.88 ug/m3 0.19 ug/m3 77.84 ug/m3 19.3 ug/m3 10.33 ug/m3 0.34 mg/m3 27.64 C 62.05 % 1,013.57 mbar 3.5 m/s 54.4 Deg 30.11 ug/m3 1.13 ug/m3
2021-07-06 11:00 28.17 ug/m3 0.08 ug/m3 77.57 ug/m3 18.88 ug/m3 9.65 ug/m3 0.34 mg/m3 27.02 C 67.09 % 1,013.53 mbar 3.17 m/s 54.63 Deg 22.65 ug/m3 0.76 ug/m3
2021-07-06 10:00 26.33 ug/m3 0.09 ug/m3 72.11 ug/m3 28.82 ug/m3 15.61 ug/m3 0.35 mg/m3 26.62 C 70.71 % 1,013.22 mbar 3.2 m/s 58.9 Deg 22.48 ug/m3 1.03 ug/m3
2021-07-06 09:00 26.35 ug/m3 0.06 ug/m3 68.1 ug/m3 23.68 ug/m3 12.39 ug/m3 0.31 mg/m3 26.35 C 72.32 % 1,013.09 mbar 3.26 m/s 58.68 Deg 23.03 ug/m3 1.89 ug/m3
2021-07-06 08:00 28.14 ug/m3 0.18 ug/m3 62.13 ug/m3 31.85 ug/m3 13.36 ug/m3 0.36 mg/m3 26.34 C 70.56 % 1,012.74 mbar 3.02 m/s 57.13 Deg 26.02 ug/m3 1.15 ug/m3
2021-07-06 07:00 22.02 ug/m3 0.07 ug/m3 63.83 ug/m3 35.74 ug/m3 11.92 ug/m3 0.34 mg/m3 26.18 C 69.83 % 1,012.44 mbar 3.01 m/s 52.67 Deg 20.99 ug/m3 1.1 ug/m3
2021-07-06 06:00 19.27 ug/m3 0.03 ug/m3 62.53 ug/m3 34.41 ug/m3 11.4 ug/m3 0.31 mg/m3 25.92 C 71.49 % 1,012.12 mbar 2.47 m/s 48.37 Deg 16.78 ug/m3 0.68 ug/m3
2021-07-06 05:00 11.33 ug/m3 -0.11 ug/m3 62.32 ug/m3 36.1 ug/m3 10.06 ug/m3 0.19 mg/m3 25.71 C 75.34 % 1,011.79 mbar 2.14 m/s 44.65 Deg 7.46 ug/m3 0.44 ug/m3
2021-07-06 04:00 3.81 ug/m3 -0.07 ug/m3 67.32 ug/m3 32.71 ug/m3 6.98 ug/m3 0.13 mg/m3 25.83 C 75.93 % 1,011.70 mbar 1.9 m/s 46.62 Deg 1.82 ug/m3 0.47 ug/m3
2021-07-06 03:00 4.9 ug/m3 -0.16 ug/m3 65.88 ug/m3 47.97 ug/m3 9.28 ug/m3 0.1 mg/m3 25.96 C 75.79 % 1,011.81 mbar 1.76 m/s 52.2 Deg 0.75 ug/m3 0.28 ug/m3
2021-07-06 02:00 2.72 ug/m3 -0.17 ug/m3 70.56 ug/m3 38.01 ug/m3 12.06 ug/m3 0.11 mg/m3 26.16 C 74.37 % 1,011.83 mbar 2.57 m/s 44.12 Deg 0.74 ug/m3 0.26 ug/m3
2021-07-06 01:00 3.36 ug/m3 -0.17 ug/m3 72.94 ug/m3 36.39 ug/m3 16.74 ug/m3 0.13 mg/m3 26.49 C 70.68 % 1,011.93 mbar 3.56 m/s 44.73 Deg 1.08 ug/m3 0.39 ug/m3
2021-07-06 00:00 6.86 ug/m3 -0.14 ug/m3 69.94 ug/m3 48.14 ug/m3 20.58 ug/m3 0.14 mg/m3 26.64 C 70.79 % 1,012.35 mbar 3.36 m/s 46.58 Deg 2.74 ug/m3 0.77 ug/m3
2021-07-05 23:00 11.87 ug/m3 -0.09 ug/m3 74.17 ug/m3 47.42 ug/m3 18.46 ug/m3 0.19 mg/m3 26.89 C 70.19 % 1,012.40 mbar 2.85 m/s 45.58 Deg 5.78 ug/m3 0.82 ug/m3
2021-07-05 22:00 17.79 ug/m3 -0.07 ug/m3 77.46 ug/m3 36.02 ug/m3 11.8 ug/m3 0.26 mg/m3 27.37 C 66.09 % 1,012.12 mbar 2.88 m/s 37.73 Deg 8.67 ug/m3 1 ug/m3
2021-07-05 21:00 21.12 ug/m3 -0.06 ug/m3 76.46 ug/m3 50.64 ug/m3 18 ug/m3 0.26 mg/m3 27.65 C 64.04 % 1,011.65 mbar 1.82 m/s 179.07 Deg 8.37 ug/m3 0.39 ug/m3
2021-07-05 20:00 15.67 ug/m3 -0.16 ug/m3 67.18 ug/m3 71.97 ug/m3 9.29 ug/m3 0.19 mg/m3 27.49 C 68.77 % 1,010.87 mbar 3 m/s 303.8 Deg 1.16 ug/m3 0.5 ug/m3
2021-07-05 19:00 15.81 ug/m3 -0.1 ug/m3 63.7 ug/m3 73.29 ug/m3 12.7 ug/m3 0.22 mg/m3 27.62 C 69.14 % 1,010.70 mbar 3.31 m/s 311.7 Deg 4.55 ug/m3 0.58 ug/m3
2021-07-05 18:00 21.34 ug/m3 -0.13 ug/m3 62.83 ug/m3 56.77 ug/m3 19.42 ug/m3 0.22 mg/m3 30.77 C 49.09 % 1,009.68 mbar 3.02 m/s 285.42 Deg 5.89 ug/m3 0.52 ug/m3
2021-07-05 17:00 24.5 ug/m3 -0.09 ug/m3 66.29 ug/m3 61.08 ug/m3 16.01 ug/m3 0.23 mg/m3 31.09 C 50.13 % 1,009.54 mbar 3.23 m/s 263.8 Deg 5.15 ug/m3 0.61 ug/m3
2021-07-05 16:00 23.79 ug/m3 -0.09 ug/m3 64.1 ug/m3 75.63 ug/m3 13.34 ug/m3 0.25 mg/m3 30.64 C 57.57 % 1,009.63 mbar 3.67 m/s 266.87 Deg 7.22 ug/m3 0.52 ug/m3
2021-07-05 15:00 19.69 ug/m3 -0.12 ug/m3 65.04 ug/m3 64.83 ug/m3 15.66 ug/m3 0.2 mg/m3 30.06 C 59.69 % 1,009.83 mbar 3.99 m/s 264.62 Deg 5.68 ug/m3 0.39 ug/m3
2021-07-05 14:00 18.49 ug/m3 -0.14 ug/m3 72.46 ug/m3 63.77 ug/m3 11.05 ug/m3 0.19 mg/m3 29.6 C 58.98 % 1,010.17 mbar 4.16 m/s 259.32 Deg 4.68 ug/m3 0.97 ug/m3
2021-07-05 13:00 20.58 ug/m3 -0.07 ug/m3 65.85 ug/m3 62.66 ug/m3 16.99 ug/m3 0.19 mg/m3 29.4 C 59.98 % 1,010.47 mbar 3.98 m/s 253.15 Deg 6.25 ug/m3 0.44 ug/m3
2021-07-05 12:00 21.9 ug/m3 -0.13 ug/m3 73.7 ug/m3 63.61 ug/m3 17.15 ug/m3 0.2 mg/m3 29.49 C 59.33 % 1,010.58 mbar 3.4 m/s 259.78 Deg 5.05 ug/m3 0.7 ug/m3
2021-07-05 11:00 28 ug/m3 -0.07 ug/m3 74.02 ug/m3 62.23 ug/m3 16.19 ug/m3 0.23 mg/m3 29.47 C 56.54 % 1,010.83 mbar 2.97 m/s 274.38 Deg 7.59 ug/m3 0.52 ug/m3
2021-07-05 10:00 28.51 ug/m3 -0.07 ug/m3 75.98 ug/m3 54.8 ug/m3 11.61 ug/m3 0.23 mg/m3 29.08 C 57.43 % 1,010.83 mbar 2.73 m/s 290.2 Deg 7.38 ug/m3 1.21 ug/m3
2021-07-05 09:00 46.11 ug/m3 -0.02 ug/m3 67.82 ug/m3 58.55 ug/m3 15.06 ug/m3 0.27 mg/m3 29.2 C 52.43 % 1,010.96 mbar 2.52 m/s 272.75 Deg 9.17 ug/m3 0.89 ug/m3
2021-07-05 08:00 35.07 ug/m3 -0 ug/m3 54.07 ug/m3 74.89 ug/m3 23.22 ug/m3 0.29 mg/m3 27.99 C 61.65 % 1,011.08 mbar 2.71 m/s 261.92 Deg 11.24 ug/m3 1.54 ug/m3
2021-07-05 07:00 27.77 ug/m3 0.02 ug/m3 44.97 ug/m3 54.79 ug/m3 17.02 ug/m3 0.35 mg/m3 27.06 C 74.42 % 1,011.00 mbar 2.37 m/s 255.98 Deg 10.62 ug/m3 0.73 ug/m3
2021-07-05 06:00 23.32 ug/m3 -0.15 ug/m3 43.2 ug/m3 37.7 ug/m3 12.24 ug/m3 0.26 mg/m3 26.41 C 79.02 % 1,010.81 mbar 1.91 m/s 249.05 Deg 4.47 ug/m3 0.52 ug/m3
2021-07-05 05:00 12.77 ug/m3 -0.18 ug/m3 57.96 ug/m3 28.7 ug/m3 17.64 ug/m3 0.18 mg/m3 26.39 C 80.58 % 1,010.49 mbar 1.64 m/s 243.73 Deg 0.92 ug/m3 1.02 ug/m3
2021-07-05 04:00 6.77 ug/m3 -0.11 ug/m3 71.23 ug/m3 25.58 ug/m3 9.48 ug/m3 0.17 mg/m3 26.93 C 72.56 % 1,010.69 mbar 1.02 m/s 242.98 Deg 1.12 ug/m3 0.34 ug/m3
2021-07-05 03:00 6.63 ug/m3 -0.23 ug/m3 74.16 ug/m3 27.04 ug/m3 6.21 ug/m3 0.11 mg/m3 27.47 C 66.96 % 1,011.15 mbar 1.45 m/s 238.53 Deg -0.05 ug/m3 0.39 ug/m3
2021-07-05 02:00 10.88 ug/m3 -0.16 ug/m3 70.62 ug/m3 22.73 ug/m3 6.62 ug/m3 0.13 mg/m3 28.37 C 50.25 % 1,011.46 mbar 1.13 m/s 233.37 Deg 0.03 ug/m3 0.86 ug/m3
2021-07-05 01:00 21.77 ug/m3 -0.06 ug/m3 58.27 ug/m3 21.61 ug/m3 10.54 ug/m3 0.27 mg/m3 28.44 C 54.6 % 1,011.87 mbar 0.47 m/s 268.5 Deg 1.92 ug/m3 1.65 ug/m3
2021-07-05 00:00 16.54 ug/m3 -0.14 ug/m3 68.52 ug/m3 34.52 ug/m3 17.49 ug/m3 0.2 mg/m3 28.32 C 61.67 % 1,012.26 mbar 0.92 m/s 237.23 Deg 2.01 ug/m3 0.63 ug/m3
2021-07-04 23:00 9.95 ug/m3 -0.18 ug/m3 71.64 ug/m3 44.19 ug/m3 15.66 ug/m3 0.21 mg/m3 28.24 C 66.68 % 1,012.14 mbar 1.69 m/s 212.68 Deg 1.6 ug/m3 0.68 ug/m3
2021-07-04 22:00 14.43 ug/m3 -0.13 ug/m3 70.13 ug/m3 40.22 ug/m3 16.02 ug/m3 0.24 mg/m3 28.58 C 65.15 % 1,012.28 mbar 1.75 m/s 204.78 Deg 0.98 ug/m3 0.73 ug/m3
2021-07-04 21:00 17.85 ug/m3 -0.14 ug/m3 70.82 ug/m3 41.43 ug/m3 12.94 ug/m3 0.26 mg/m3 29.07 C 57.68 % 1,012.14 mbar 1.15 m/s 194.78 Deg 2.44 ug/m3 0.94 ug/m3
2021-07-04 20:00 17.21 ug/m3 -0.14 ug/m3 76.76 ug/m3 40.36 ug/m3 7.81 ug/m3 0.24 mg/m3 29.54 C 52.55 % 1,011.72 mbar 1.38 m/s 191.45 Deg 2.11 ug/m3 0.89 ug/m3
2021-07-04 19:00 21.46 ug/m3 -0.07 ug/m3 78.73 ug/m3 18.33 ug/m3 8.92 ug/m3 0.29 mg/m3 30.68 C 44.93 % 1,011.69 mbar 1.76 m/s 175.98 Deg 5.51 ug/m3 0.86 ug/m3
2021-07-04 18:00 17.84 ug/m3 -0.06 ug/m3 84.7 ug/m3 15.28 ug/m3 10.57 ug/m3 0.22 mg/m3 32.52 C 30.28 % 1,011.79 mbar 1.64 m/s 177.32 Deg 7.14 ug/m3 1.89 ug/m3
2021-07-04 17:00 25.63 ug/m3 -0.02 ug/m3 94.11 ug/m3 21.77 ug/m3 16.22 ug/m3 0.34 mg/m3 31.91 C 35.76 % 1,012.11 mbar 2.05 m/s 145.62 Deg 8.42 ug/m3 1 ug/m3
2021-07-04 16:00 18.81 ug/m3 -0.1 ug/m3 115.7 ug/m3 32.92 ug/m3 17.12 ug/m3 0.28 mg/m3 29.93 C 51.74 % 1,012.52 mbar 3.36 m/s 52.38 Deg 9.64 ug/m3 0.82 ug/m3
2021-07-04 15:00 17.84 ug/m3 -0.04 ug/m3 121.71 ug/m3 36.12 ug/m3 11.61 ug/m3 0.38 mg/m3 29.12 C 62.05 % 1,012.88 mbar 3.58 m/s 57.62 Deg 9.23 ug/m3 2.47 ug/m3
2021-07-04 14:00 14.35 ug/m3 -0.1 ug/m3 130.11 ug/m3 34.88 ug/m3 7.93 ug/m3 0.35 mg/m3 29.02 C 61.89 % 1,013.27 mbar 4.39 m/s 54.12 Deg 6.26 ug/m3 1.19 ug/m3
2021-07-04 13:00 16.19 ug/m3 -0.08 ug/m3 126.07 ug/m3 16.91 ug/m3 5.42 ug/m3 0.27 mg/m3 29.88 C 54.35 % 1,013.31 mbar 4.67 m/s 50.03 Deg 7.52 ug/m3 0.52 ug/m3
2021-07-04 12:00 12.5 ug/m3 -0.08 ug/m3 100.05 ug/m3 12.79 ug/m3 4.82 ug/m3 0.16 mg/m3 33.46 C 24.93 % 1,013.63 mbar 1.92 m/s 241.92 Deg 2.35 ug/m3 0.52 ug/m3
2021-07-04 11:00 13.35 ug/m3 -0.08 ug/m3 90.16 ug/m3 17.59 ug/m3 6.19 ug/m3 0.15 mg/m3 33.39 C 22.18 % 1,014.13 mbar 1.93 m/s 218.8 Deg 1.99 ug/m3 0.77 ug/m3
2021-07-04 10:00 46.62 ug/m3 0.13 ug/m3 79 ug/m3 12.31 ug/m3 7.57 ug/m3 0.4 mg/m3 30.88 C 40.23 % 1,014.32 mbar 2.19 m/s 168.32 Deg 21.35 ug/m3 1.05 ug/m3
2021-07-04 09:00 20.02 ug/m3 -0.13 ug/m3 84.13 ug/m3 16.21 ug/m3 10.19 ug/m3 0.18 mg/m3 32.14 C 25 % 1,014.34 mbar 1.64 m/s 198.28 Deg 3.12 ug/m3 0.94 ug/m3
2021-07-04 08:00 19.57 ug/m3 -0.15 ug/m3 83.62 ug/m3 27.22 ug/m3 16.13 ug/m3 0.23 mg/m3 30.51 C 35.1 % 1,014.33 mbar 1.15 m/s 216.35 Deg 1.56 ug/m3 1 ug/m3
2021-07-04 07:00 19.62 ug/m3 -0.17 ug/m3 84.29 ug/m3 30.96 ug/m3 21.25 ug/m3 0.25 mg/m3 28.16 C 56.36 % 1,014.01 mbar 1.11 m/s 237.35 Deg 1.08 ug/m3 0.94 ug/m3
2021-07-04 06:00 18.94 ug/m3 -0.18 ug/m3 77.59 ug/m3 31.37 ug/m3 17.45 ug/m3 0.24 mg/m3 26.61 C 68.07 % 1,013.84 mbar 1.28 m/s 234.18 Deg 0.73 ug/m3 0.55 ug/m3
2021-07-04 05:00 10.98 ug/m3 -0.2 ug/m3 84.76 ug/m3 40.08 ug/m3 16.05 ug/m3 0.19 mg/m3 26.33 C 71.21 % 1,013.62 mbar 1.43 m/s 234.33 Deg 0.1 ug/m3 0.49 ug/m3
2021-07-04 04:00 5.63 ug/m3 -0.21 ug/m3 93.59 ug/m3 36.02 ug/m3 16.68 ug/m3 0.16 mg/m3 26.14 C 78.5 % 1,013.46 mbar 1.89 m/s 226.82 Deg -0.3 ug/m3 0.47 ug/m3
2021-07-04 03:00 11.23 ug/m3 -0.23 ug/m3 90.19 ug/m3 43.13 ug/m3 15.87 ug/m3 0.14 mg/m3 26.19 C 78.96 % 1,013.34 mbar 1.35 m/s 223.73 Deg 0.16 ug/m3 0.7 ug/m3
2021-07-04 02:00 11.58 ug/m3 -0.18 ug/m3 95.37 ug/m3 41.99 ug/m3 17.66 ug/m3 0.23 mg/m3 26.4 C 75.48 % 1,013.41 mbar 0.95 m/s 198.5 Deg 0.1 ug/m3 0.61 ug/m3
2021-07-04 01:00 12.85 ug/m3 -0.18 ug/m3 100.72 ug/m3 44.87 ug/m3 16.71 ug/m3 0.22 mg/m3 26.86 C 70.42 % 1,014.14 mbar 1.05 m/s 206.53 Deg -0.2 ug/m3 0.63 ug/m3
2021-07-04 00:00 21.34 ug/m3 -0.19 ug/m3 98.54 ug/m3 39.93 ug/m3 20.55 ug/m3 0.25 mg/m3 27.05 C 66.8 % 1,014.71 mbar 1.17 m/s 191.33 Deg 0.69 ug/m3 0.82 ug/m3
2021-07-03 23:00 24.64 ug/m3 -0.15 ug/m3 113.26 ug/m3 42.33 ug/m3 21.17 ug/m3 0.27 mg/m3 27.49 C 60.2 % 1,014.93 mbar 1.16 m/s 154.98 Deg 1.36 ug/m3 0.89 ug/m3
2021-07-03 22:00 44.42 ug/m3 -0.04 ug/m3 86.3 ug/m3 46.85 ug/m3 11.49 ug/m3 0.32 mg/m3 27.82 C 57.95 % 1,014.90 mbar 1.11 m/s 144.93 Deg 6.46 ug/m3 1.45 ug/m3
2021-07-03 21:00 51.28 ug/m3 0.05 ug/m3 82.73 ug/m3 37.72 ug/m3 19.71 ug/m3 0.38 mg/m3 28.04 C 57.06 % 1,014.16 mbar 1.1 m/s 106.38 Deg 11.25 ug/m3 2.31 ug/m3
2021-07-03 20:00 53.75 ug/m3 0.09 ug/m3 100.37 ug/m3 39.47 ug/m3 8.78 ug/m3 0.5 mg/m3 27.84 C 57.44 % 1,013.62 mbar 1.92 m/s 48.58 Deg 19.28 ug/m3 1.99 ug/m3
2021-07-03 19:00 33.71 ug/m3 0.03 ug/m3 127.26 ug/m3 33.95 ug/m3 10.54 ug/m3 0.39 mg/m3 28.27 C 55.4 % 1,013.56 mbar 2.89 m/s 50.4 Deg 13.95 ug/m3 2.38 ug/m3
2021-07-03 18:00 37.66 ug/m3 0.05 ug/m3 130.21 ug/m3 30.1 ug/m3 11.22 ug/m3 0.34 mg/m3 28.62 C 52.76 % 1,013.66 mbar 3.29 m/s 51.77 Deg 11.12 ug/m3 1.91 ug/m3
2021-07-03 17:00 28.05 ug/m3 0.03 ug/m3 111.98 ug/m3 39.98 ug/m3 15.75 ug/m3 0.35 mg/m3 28.92 C 52.34 % 1,014.06 mbar 3.31 m/s 58.15 Deg 13.52 ug/m3 1.57 ug/m3
2021-07-03 16:00 27.28 ug/m3 0.06 ug/m3 99.83 ug/m3 42.1 ug/m3 20.7 ug/m3 0.34 mg/m3 28.59 C 55.99 % 1,014.42 mbar 3.63 m/s 57.53 Deg 12.38 ug/m3 1.26 ug/m3
2021-07-03 15:00 25.19 ug/m3 0.18 ug/m3 98.49 ug/m3 31.99 ug/m3 10.17 ug/m3 0.32 mg/m3 29.46 C 49.4 % 1,014.80 mbar 3.71 m/s 57.82 Deg 15.1 ug/m3 1.87 ug/m3
2021-07-03 14:00 24.39 ug/m3 0.06 ug/m3 100.64 ug/m3 21.09 ug/m3 10.86 ug/m3 0.31 mg/m3 31 C 39.15 % 1,014.83 mbar 2.64 m/s 36.42 Deg 11.27 ug/m3 0.98 ug/m3
2021-07-03 13:00 27.7 ug/m3 0.08 ug/m3 91.87 ug/m3 17.58 ug/m3 10.44 ug/m3 0.29 mg/m3 31.46 C 36.17 % 1,014.89 mbar 2.74 m/s 30.58 Deg 15.68 ug/m3 1.4 ug/m3
2021-07-03 12:00 29.91 ug/m3 0.03 ug/m3 82.02 ug/m3 22.76 ug/m3 16.05 ug/m3 0.26 mg/m3 32.77 C 25 % 1,015.21 mbar 1.9 m/s 253.07 Deg 11.27 ug/m3 0.73 ug/m3
2021-07-03 11:00 29.69 ug/m3 0.09 ug/m3 76.33 ug/m3 41.62 ug/m3 13.01 ug/m3 0.25 mg/m3 32.56 C 24.32 % 1,015.55 mbar 1.85 m/s 250.72 Deg 14.06 ug/m3 1.05 ug/m3
2021-07-03 10:00 31.02 ug/m3 0.09 ug/m3 72.84 ug/m3 47.76 ug/m3 15.83 ug/m3 0.26 mg/m3 32.43 C 25.54 % 1,015.41 mbar 1.58 m/s 332.58 Deg 15.3 ug/m3 1.1 ug/m3
2021-07-03 09:00 33.13 ug/m3 0.09 ug/m3 66.34 ug/m3 54.79 ug/m3 27.86 ug/m3 0.27 mg/m3 32.52 C 27.41 % 1,015.10 mbar 1.34 m/s 317.02 Deg 14.35 ug/m3 0.79 ug/m3
2021-07-03 08:00 50.98 ug/m3 0.22 ug/m3 46.54 ug/m3 70.23 ug/m3 27.38 ug/m3 0.34 mg/m3 31.62 C 31.69 % 1,014.85 mbar 1.13 m/s 273.57 Deg 18.72 ug/m3 1.89 ug/m3
2021-07-03 07:00 67.71 ug/m3 0.26 ug/m3 25.48 ug/m3 68.01 ug/m3 15.17 ug/m3 0.41 mg/m3 28.72 C 47.37 % 1,014.43 mbar 1.38 m/s 225.7 Deg 26.69 ug/m3 2.47 ug/m3
2021-07-03 06:00 55.54 ug/m3 0.08 ug/m3 19.9 ug/m3 42.58 ug/m3 10.45 ug/m3 0.4 mg/m3 26.97 C 58.82 % 1,014.03 mbar 0.82 m/s 235.67 Deg 15.62 ug/m3 1.97 ug/m3
2021-07-03 05:00 53.23 ug/m3 0.06 ug/m3 20.33 ug/m3 30.7 ug/m3 15.17 ug/m3 0.39 mg/m3 26.5 C 62.6 % 1,013.84 mbar 0.7 m/s 257.62 Deg 9.47 ug/m3 2.33 ug/m3
2021-07-03 04:00 38.39 ug/m3 -0.03 ug/m3 42.84 ug/m3 26.61 ug/m3 10.68 ug/m3 0.24 mg/m3 26.9 C 60.9 % 1,013.67 mbar 0.55 m/s 189.01 Deg 3.57 ug/m3 3.28 ug/m3
2021-07-03 03:00 19.21 ug/m3 -0.11 ug/m3 56.02 ug/m3 16.15 ug/m3 9.21 ug/m3 0.15 mg/m3 27.11 C 60.32 % 1,013.72 mbar 0.69 m/s 186.67 Deg 0.79 ug/m3 0.47 ug/m3
2021-07-03 02:00 14.44 ug/m3 -0.19 ug/m3 66.63 ug/m3 16.73 ug/m3 9.61 ug/m3 0.17 mg/m3 27.33 C 58.34 % 1,013.81 mbar 1.03 m/s 229.85 Deg -0.08 ug/m3 0.39 ug/m3
2021-07-03 01:00 14.35 ug/m3 -0.14 ug/m3 69.82 ug/m3 23.67 ug/m3 9.37 ug/m3 0.16 mg/m3 27.63 C 56.1 % 1,013.89 mbar 1.44 m/s 227.58 Deg 0.04 ug/m3 0.42 ug/m3
2021-07-03 00:00 18.75 ug/m3 -0.13 ug/m3 72.3 ug/m3 22.18 ug/m3 15.95 ug/m3 0.21 mg/m3 28.24 C 51.69 % 1,014.21 mbar 1.29 m/s 213.07 Deg 2.82 ug/m3 0.73 ug/m3
2021-07-02 23:00 20.86 ug/m3 -0.17 ug/m3 72.27 ug/m3 30.63 ug/m3 9.83 ug/m3 0.24 mg/m3 27.92 C 55.67 % 1,014.41 mbar 1.34 m/s 225.33 Deg 1.19 ug/m3 0.65 ug/m3
2021-07-02 22:00 14.95 ug/m3 -0.15 ug/m3 80.29 ug/m3 40.34 ug/m3 15.25 ug/m3 0.19 mg/m3 27.67 C 66.02 % 1,014.56 mbar 1.75 m/s 211.95 Deg 0.72 ug/m3 0.68 ug/m3
2021-07-02 21:00 17.3 ug/m3 -0.14 ug/m3 77.64 ug/m3 37.9 ug/m3 13.15 ug/m3 0.22 mg/m3 27.98 C 67.06 % 1,014.19 mbar 1.85 m/s 216.6 Deg 0.98 ug/m3 0.73 ug/m3
2021-07-02 20:00 30.23 ug/m3 -0.12 ug/m3 70.11 ug/m3 44.05 ug/m3 11.97 ug/m3 0.32 mg/m3 28.76 C 62 % 1,013.86 mbar 1.66 m/s 251.25 Deg 2.35 ug/m3 3.55 ug/m3
2021-07-02 19:00 48.54 ug/m3 0.21 ug/m3 69.32 ug/m3 52.95 ug/m3 12.91 ug/m3 0.58 mg/m3 28.15 C 70.1 % 1,013.73 mbar 2.5 m/s 58.55 Deg 26.02 ug/m3 2.47 ug/m3
2021-07-02 18:00 35.1 ug/m3 0.03 ug/m3 81.88 ug/m3 39.99 ug/m3 19.32 ug/m3 0.43 mg/m3 28.31 C 68.52 % 1,013.60 mbar 2.86 m/s 58.82 Deg 20.55 ug/m3 1.36 ug/m3
2021-07-02 17:00 35.95 ug/m3 0.11 ug/m3 83.56 ug/m3 41.44 ug/m3 13.08 ug/m3 0.38 mg/m3 28.57 C 64.89 % 1,013.85 mbar 3.14 m/s 59.5 Deg 22.98 ug/m3 1.65 ug/m3

It is to be noted that the data is provisional and subject to quality assurance procedures. For validated data kindly refer your request to contact.air@era.org.mt